Darstellungsparameter: Aktuell verwendete Einstellungen:
Skalierung der Graphiken ... ?
xyx+y,   Skalierungsfaktor:      Skalierung: Modus: x, Faktor: 1
Darstellungszeitraum ... ?
Vom - - bis: - -   Zeitraum: 30.11.2005 - 29.12.2005
Min/Max/Avg-Anzeige ... ?
Zeige MMA aktuell
Zeige MMA Monat
Zeige MMA alles
Zeige --A aktuell
Zeige --A Monat
Zeige --A alles
Keine MMA-Anzeige
MMA:
Average (ber die Originaldaten)
MMA-Basis: 30.11.2005 - 29.12.2005
Quicknavigation für Darstellung... ?
Tage:      1T, 2T, 3T, 5T -1T -2T -3T -5T +1T +2T +3T +5T
Wochen: 1W, 2W, 3W -1W -2W -3W +1W +2W +3W
Monate: 1M, 3M, 6M -1M -3M -6M +1M +3M +6M
Jahre:    1J, 3J, 5J, 10J -1J -3J -5J -10J +1J +3J +5J +10J
Nutze für die Darstellung ... ?
Originaldaten oder Mittelwerte auf ...
Stundenbasis Tagesbasis Wochenbasis
Monatsbasis Jahresbasis      Datenbasis: Original-Daten
Darstellen als:
Statistik (Auto) Statistik J:M      Darstellung:
Zur Graphik,    zurück zur Übersicht aller Sensoren.
 
Tabellarische Datenbersicht: ?
 
Sensor: Nr:Datum:Temp:Abs-Feuchte:Windchill:Wind:
Aussen-T/F 1 30-11-2005 00:02:01 0.4 C 4.03 g/m*3 0.4 C 0 km/h
2 30-11-2005 00:12:01 0.5 C 4.06 g/m*3 0.5 C 0 km/h
3 30-11-2005 00:22:02 0.4 C 3.98 g/m*3 0.4 C 0 km/h
4 30-11-2005 00:32:02 0.5 C 4.01 g/m*3 0.5 C 0 km/h
5 30-11-2005 00:42:02 0.5 C 4.01 g/m*3 0.5 C 0 km/h
6 30-11-2005 00:52:02 0.5 C 4.01 g/m*3 0.5 C 0 km/h
7 30-11-2005 01:02:02 0.5 C 4.01 g/m*3 0.5 C 0 km/h
8 30-11-2005 01:12:02 0.4 C 3.98 g/m*3 0.4 C 0 km/h
9 30-11-2005 01:22:02 0.5 C 4.01 g/m*3 0.5 C 0 km/h
10 30-11-2005 01:32:02 0.6 C 4.04 g/m*3 0.6 C 0 km/h
11 30-11-2005 01:42:03 0.6 C 4.04 g/m*3 0.6 C 0 km/h
12 30-11-2005 01:52:02 0.7 C 4.07 g/m*3 0.7 C 0 km/h
13 30-11-2005 02:02:02 0.7 C 4.02 g/m*3 0.7 C 0 km/h
14 30-11-2005 02:12:02 0.7 C 4.02 g/m*3 0.7 C 0 km/h
15 30-11-2005 02:22:02 0.7 C 4.02 g/m*3 0.7 C 0 km/h
16 30-11-2005 02:32:02 0.8 C 4.04 g/m*3 0.8 C 0 km/h
17 30-11-2005 02:42:02 0.8 C 4.04 g/m*3 0.8 C 0 km/h
18 30-11-2005 02:53:03 0.9 C 4.07 g/m*3 0.9 C 0 km/h
19 30-11-2005 03:03:03 0.9 C 4.07 g/m*3 0.9 C 0 km/h
20 30-11-2005 03:13:04 0.9 C 4.07 g/m*3 0.9 C 0 km/h
21 30-11-2005 03:23:04 1 C 4.1 g/m*3 1 C 0 km/h
22 30-11-2005 03:33:02 1 C 4.05 g/m*3 1 C 0 km/h
23 30-11-2005 03:43:02 1 C 4.05 g/m*3 1 C 0 km/h
24 30-11-2005 03:53:02 1.1 C 4.08 g/m*3 1.1 C 0 km/h
25 30-11-2005 04:03:03 1.1 C 4.08 g/m*3 1.1 C 0 km/h
Sensor: Nr:Datum:Temp:Abs-Feuchte:Windchill:Wind:
Aussen-T/F 26 30-11-2005 04:13:03 1.1 C 4.08 g/m*3 1.1 C 0 km/h
27 30-11-2005 04:23:02 1.2 C 4.1 g/m*3 1.2 C 0 km/h
28 30-11-2005 04:33:02 1.2 C 4.1 g/m*3 1.2 C 0 km/h
29 30-11-2005 04:43:03 1.3 C 4.13 g/m*3 1.3 C 0 km/h
30 30-11-2005 04:53:02 1.3 C 4.08 g/m*3 1.3 C 0 km/h
31 30-11-2005 05:03:02 1.4 C 4.11 g/m*3 1.4 C 0 km/h
32 30-11-2005 05:13:02 1.4 C 4.11 g/m*3 1.4 C 0 km/h
33 30-11-2005 05:23:02 1.4 C 4.11 g/m*3 1.4 C 0 km/h
34 30-11-2005 05:33:02 1.4 C 4.11 g/m*3 1.4 C 0 km/h
35 30-11-2005 05:43:02 1.4 C 4.11 g/m*3 1.4 C 0 km/h
36 30-11-2005 05:53:02 1.5 C 4.08 g/m*3 1.5 C 0 km/h
37 30-11-2005 06:03:02 1.5 C 4.08 g/m*3 1.5 C 0 km/h
38 30-11-2005 06:13:02 1.6 C 4.11 g/m*3 1.6 C 0 km/h
39 30-11-2005 06:23:02 1.6 C 4.11 g/m*3 1.6 C 0 km/h
40 30-11-2005 06:33:02 1.6 C 4.11 g/m*3 1.6 C 0 km/h
41 30-11-2005 06:43:02 1.6 C 4.11 g/m*3 1.6 C 0 km/h
42 30-11-2005 06:53:02 1.6 C 4.16 g/m*3 1.6 C 0 km/h
43 30-11-2005 07:03:02 1.6 C 4.16 g/m*3 1.6 C 0 km/h
44 30-11-2005 07:13:02 1.6 C 4.16 g/m*3 1.6 C 0 km/h
45 30-11-2005 07:23:02 1.6 C 4.16 g/m*3 1.6 C 0 km/h
46 30-11-2005 07:33:01 1.5 C 4.14 g/m*3 1.5 C 0 km/h
47 30-11-2005 07:43:01 1.5 C 4.19 g/m*3 1.5 C 0 km/h
48 30-11-2005 07:53:02 1.6 C 4.22 g/m*3 1.6 C 0 km/h
49 30-11-2005 08:03:02 1.6 C 4.16 g/m*3 1.6 C 0 km/h
50 30-11-2005 08:13:02 1.6 C 4.22 g/m*3 1.6 C 0 km/h
Sensor: Nr:Datum:Temp:Abs-Feuchte:Windchill:Wind:
Aussen-T/F 51 30-11-2005 08:23:02 1.6 C 4.16 g/m*3 1.6 C 0 km/h
52 30-11-2005 08:33:02 1.6 C 4.22 g/m*3 1.6 C 0 km/h
53 30-11-2005 08:43:02 1.6 C 4.22 g/m*3 1.6 C 0 km/h
54 30-11-2005 08:53:02 1.7 C 4.25 g/m*3 1.7 C 0 km/h
55 30-11-2005 09:03:02 1.7 C 4.25 g/m*3 1.7 C 0 km/h
56 30-11-2005 09:13:02 1.8 C 4.22 g/m*3 1.8 C 0 km/h
57 30-11-2005 09:23:02 1.9 C 4.25 g/m*3 1.9 C 0 km/h
58 30-11-2005 09:33:02 2 C 4.22 g/m*3 2 C 0 km/h
59 30-11-2005 09:43:02 2 C 4.22 g/m*3 2 C 0 km/h
60 30-11-2005 09:53:02 2.2 C 4.28 g/m*3 2.2 C 0 km/h
61 30-11-2005 10:03:02 2.2 C 4.28 g/m*3 2.2 C 0 km/h
62 30-11-2005 10:13:02 2.4 C 4.28 g/m*3 2.4 C 0 km/h
63 30-11-2005 10:23:02 2.5 C 4.31 g/m*3 2.5 C 0 km/h
64 30-11-2005 10:33:02 2.7 C 4.31 g/m*3 2.7 C 0 km/h
65 30-11-2005 10:43:02 2.8 C 4.28 g/m*3 2.8 C 0 km/h
66 30-11-2005 10:53:02 2.9 C 4.31 g/m*3 2.9 C 0 km/h
67 30-11-2005 11:03:02 3.3 C 4.37 g/m*3 3.3 C 0 km/h
68 30-11-2005 11:13:02 3.4 C 4.34 g/m*3 3.4 C 0 km/h
69 30-11-2005 11:23:02 3.7 C 4.36 g/m*3 3.7 C 0 km/h
70 30-11-2005 11:33:02 3.8 C 4.27 g/m*3 3.8 C 0 km/h
71 30-11-2005 11:43:02 3.9 C 4.23 g/m*3 3.9 C 0 km/h
72 30-11-2005 11:53:02 3.8 C 4.2 g/m*3 3.8 C 0 km/h
73 30-11-2005 12:03:02 3.8 C 4.2 g/m*3 3.8 C 0 km/h
74 30-11-2005 12:13:03 3.7 C 4.18 g/m*3 3.7 C 0 km/h
75 30-11-2005 12:23:02 3.7 C 4.24 g/m*3 3.7 C 0 km/h
Sensor: Nr:Datum:Temp:Abs-Feuchte:Windchill:Wind:
Aussen-T/F 76 30-11-2005 12:33:02 4 C 4.26 g/m*3 4 C 0 km/h
77 30-11-2005 12:43:02 4 C 4.2 g/m*3 4 C 0 km/h
78 30-11-2005 12:53:01 3.7 C 4.24 g/m*3 3.7 C 0 km/h
79 30-11-2005 13:03:02 3.3 C 4.19 g/m*3 3.3 C 0 km/h
80 30-11-2005 13:13:02 3.3 C 4.25 g/m*3 3.3 C 0 km/h
81 30-11-2005 13:23:02 3.5 C 4.3 g/m*3 3.5 C 0 km/h
82 30-11-2005 13:33:02 3.9 C 4.23 g/m*3 3.9 C 0 km/h
83 30-11-2005 13:43:02 4 C 4.13 g/m*3 4 C 0 km/h
84 30-11-2005 13:53:02 4 C 4.13 g/m*3 4 C 0 km/h
85 30-11-2005 14:03:02 4 C 4.07 g/m*3 4 C 0 km/h
86 30-11-2005 14:13:02 4.1 C 4.1 g/m*3 4.1 C 0 km/h
87 30-11-2005 14:23:02 4.1 C 4.1 g/m*3 4.1 C 0 km/h
88 30-11-2005 14:33:02 4 C 4.07 g/m*3 4 C 0 km/h
89 30-11-2005 14:43:02 4 C 4.07 g/m*3 4 C 0 km/h
90 30-11-2005 14:53:02 3.9 C 4.04 g/m*3 3.9 C 0 km/h
91 30-11-2005 15:03:02 3.9 C 4.04 g/m*3 3.9 C 0 km/h
92 30-11-2005 15:13:02 3.8 C 4.02 g/m*3 3.8 C 0 km/h
93 30-11-2005 15:23:02 3.8 C 3.89 g/m*3 3.8 C 0 km/h
94 30-11-2005 15:33:02 3.7 C 3.74 g/m*3 3.7 C 0 km/h
95 30-11-2005 15:43:02 3.7 C 3.8 g/m*3 3.7 C 0 km/h
96 30-11-2005 15:53:02 3.6 C 3.53 g/m*3 3.6 C 0 km/h
97 30-11-2005 16:03:02 3.6 C 3.53 g/m*3 3.6 C 0 km/h
98 30-11-2005 16:13:02 3.6 C 3.53 g/m*3 3.6 C 0 km/h
99 30-11-2005 16:23:02 3.5 C 3.63 g/m*3 3.5 C 0 km/h
100 30-11-2005 16:33:02 3.3 C 3.7 g/m*3 3.3 C 0 km/h
Sensor: Nr:Datum:Temp:Abs-Feuchte:Windchill:Wind:
Aussen-T/F 101 30-11-2005 16:43:02 3.2 C 3.8 g/m*3 3.2 C 0 km/h
102 30-11-2005 16:53:03 3 C 3.81 g/m*3 3 C 0 km/h
103 30-11-2005 17:03:02 2.7 C 3.9 g/m*3 2.7 C 0 km/h
104 30-11-2005 17:13:02 2.2 C 3.83 g/m*3 2.2 C 0 km/h
105 30-11-2005 17:23:02 1.8 C 3.89 g/m*3 1.8 C 0 km/h
106 30-11-2005 17:33:02 1.5 C 3.92 g/m*3 1.5 C 0 km/h
107 30-11-2005 17:43:02 1.5 C 3.97 g/m*3 1.5 C 0 km/h
108 30-11-2005 17:53:02 1.7 C 4.03 g/m*3 1.7 C 0 km/h
109 30-11-2005 18:03:02 2 C 4 g/m*3 2 C 0 km/h
110 30-11-2005 18:13:02 2.1 C 3.97 g/m*3 2.1 C 0 km/h
111 30-11-2005 18:23:02 2 C 3.89 g/m*3 2 C 0 km/h
112 30-11-2005 18:33:03 2 C 3.89 g/m*3 2 C 0 km/h
113 30-11-2005 18:43:03 2 C 3.89 g/m*3 2 C 0 km/h
114 30-11-2005 18:53:02 1.8 C 3.89 g/m*3 1.8 C 0 km/h
115 30-11-2005 19:03:02 1.8 C 3.89 g/m*3 1.8 C 0 km/h
116 30-11-2005 19:13:02 1.9 C 3.86 g/m*3 1.9 C 0 km/h
117 30-11-2005 19:23:03 2 C 3.89 g/m*3 2 C 0 km/h
118 30-11-2005 19:33:02 2 C 3.78 g/m*3 2 C 0 km/h
119 30-11-2005 19:43:02 2.1 C 3.8 g/m*3 2.1 C 0 km/h
120 30-11-2005 19:53:02 2.1 C 3.8 g/m*3 2.1 C 0 km/h
121 30-11-2005 20:03:02 2 C 3.89 g/m*3 2 C 0 km/h
122 30-11-2005 20:13:02 1.9 C 3.97 g/m*3 1.9 C 0 km/h
123 30-11-2005 20:23:02 1.8 C 3.95 g/m*3 1.8 C 0 km/h
124 30-11-2005 20:33:02 1.8 C 3.95 g/m*3 1.8 C 0 km/h
125 30-11-2005 20:43:02 1.8 C 3.89 g/m*3 1.8 C 0 km/h
Sensor: Nr:Datum:Temp:Abs-Feuchte:Windchill:Wind:
Aussen-T/F 126 30-11-2005 20:53:02 1.7 C 3.76 g/m*3 1.7 C 0 km/h
127 30-11-2005 21:03:02 1.7 C 3.65 g/m*3 1.7 C 0 km/h
128 30-11-2005 21:13:02 1.6 C 3.57 g/m*3 1.6 C 0 km/h
129 30-11-2005 21:23:02 1.5 C 3.6 g/m*3 1.5 C 0 km/h
130 30-11-2005 21:33:03 1.5 C 3.54 g/m*3 1.5 C 0 km/h
131 30-11-2005 21:43:03 1.3 C 3.55 g/m*3 1.3 C 0 km/h
132 30-11-2005 21:53:02 1.3 C 3.55 g/m*3 1.3 C 0 km/h
133 30-11-2005 22:03:02 1.3 C 3.55 g/m*3 1.3 C 0 km/h
134 30-11-2005 22:13:02 1.3 C 3.5 g/m*3 1.3 C 0 km/h
135 30-11-2005 22:23:02 1.2 C 3.47 g/m*3 1.2 C 0 km/h
136 30-11-2005 22:33:02 1.2 C 3.47 g/m*3 1.2 C 0 km/h
137 30-11-2005 22:43:02 1.2 C 3.53 g/m*3 1.2 C 0 km/h
138 30-11-2005 22:53:02 1.1 C 3.55 g/m*3 1.1 C 0 km/h
139 30-11-2005 23:03:02 0.9 C 3.66 g/m*3 0.9 C 0 km/h
140 30-11-2005 23:13:02 0.7 C 3.66 g/m*3 0.7 C 0 km/h
141 30-11-2005 23:23:02 0.6 C 3.69 g/m*3 0.6 C 0 km/h
142 30-11-2005 23:33:03 0.6 C 3.69 g/m*3 0.6 C 0 km/h
143 30-11-2005 23:43:03 0.6 C 3.74 g/m*3 0.6 C 0 km/h
144 30-11-2005 23:53:02 0.7 C 3.71 g/m*3 0.7 C 0 km/h
145 01-12-2005 00:03:02 0.8 C 3.74 g/m*3 0.8 C 0 km/h
146 01-12-2005 00:13:02 0.8 C 3.69 g/m*3 0.8 C 0 km/h
147 01-12-2005 00:23:02 0.9 C 3.71 g/m*3 0.9 C 0 km/h
148 01-12-2005 00:33:02 0.9 C 3.71 g/m*3 0.9 C 0 km/h
149 01-12-2005 00:43:03 0.8 C 3.74 g/m*3 0.8 C 0 km/h
150 01-12-2005 00:53:03 0.6 C 3.74 g/m*3 0.6 C 0 km/h
Sensor: Nr:Datum:Temp:Abs-Feuchte:Windchill:Wind:
Aussen-T/F 151 01-12-2005 01:03:02 0.5 C 3.76 g/m*3 0.5 C 0 km/h
152 01-12-2005 01:13:02 0.4 C 3.79 g/m*3 0.4 C 0 km/h
153 01-12-2005 01:23:02 0.4 C 3.79 g/m*3 0.4 C 0 km/h
154 01-12-2005 01:33:02 0.4 C 3.79 g/m*3 0.4 C 0 km/h
155 01-12-2005 01:43:02 0.4 C 3.79 g/m*3 0.4 C 0 km/h
156 01-12-2005 01:53:02 0.4 C 3.79 g/m*3 0.4 C 0 km/h
157 01-12-2005 02:03:01 0.4 C 3.79 g/m*3 0.4 C 0 km/h
158 01-12-2005 02:13:01 0.5 C 3.76 g/m*3 0.5 C 0 km/h
159 01-12-2005 02:23:01 0.6 C 3.79 g/m*3 0.6 C 0 km/h
160 01-12-2005 02:33:01 0.6 C 3.79 g/m*3 0.6 C 0 km/h
161 01-12-2005 02:43:01 0.6 C 3.79 g/m*3 0.6 C 0 km/h
162 01-12-2005 02:54:04 0.8 C 3.74 g/m*3 0.8 C 0 km/h
163 01-12-2005 03:04:05 0.7 C 3.71 g/m*3 0.7 C 0 km/h
164 01-12-2005 03:14:04 0.7 C 3.61 g/m*3 0.7 C 0 km/h
165 01-12-2005 03:24:04 0.9 C 3.61 g/m*3 0.9 C 0 km/h
166 01-12-2005 03:34:02 0.9 C 3.61 g/m*3 0.9 C 0 km/h
167 01-12-2005 03:44:02 1 C 3.58 g/m*3 1 C 0 km/h
168 01-12-2005 03:54:02 1 C 3.58 g/m*3 1 C 0 km/h
169 01-12-2005 04:04:03 1 C 3.69 g/m*3 1 C 0 km/h
170 01-12-2005 04:14:03 0.9 C 3.71 g/m*3 0.9 C 0 km/h
171 01-12-2005 04:24:02 0.8 C 3.69 g/m*3 0.8 C 0 km/h
172 01-12-2005 04:34:02 0.8 C 3.69 g/m*3 0.8 C 0 km/h
173 01-12-2005 04:44:02 0.8 C 3.63 g/m*3 0.8 C 0 km/h
174 01-12-2005 04:54:03 0.9 C 3.61 g/m*3 0.9 C 0 km/h
175 01-12-2005 05:04:02 1 C 3.53 g/m*3 1 C 0 km/h
Sensor: Nr:Datum:Temp:Abs-Feuchte:Windchill:Wind:
Aussen-T/F 176 01-12-2005 05:14:02 1 C 3.53 g/m*3 1 C 0 km/h
177 01-12-2005 05:24:02 1.1 C 3.45 g/m*3 1.1 C 0 km/h
178 01-12-2005 05:34:02 1.2 C 3.26 g/m*3 1.2 C 0 km/h
179 01-12-2005 05:44:02 1.2 C 3.16 g/m*3 1.2 C 0 km/h
180 01-12-2005 05:54:02 1.2 C 3.21 g/m*3 1.2 C 0 km/h
181 01-12-2005 06:04:02 1.2 C 3.21 g/m*3 1.2 C 0 km/h
182 01-12-2005 06:14:02 1.2 C 3.21 g/m*3 1.2 C 0 km/h
183 01-12-2005 06:24:02 1.2 C 3.21 g/m*3 1.2 C 0 km/h
184 01-12-2005 06:34:02 1.3 C 3.07 g/m*3 1.3 C 0 km/h
185 01-12-2005 06:44:02 1.3 C 3.07 g/m*3 1.3 C 0 km/h
186 01-12-2005 06:54:02 1.2 C 3.05 g/m*3 1.2 C 0 km/h
187 01-12-2005 07:04:02 1.1 C 3.03 g/m*3 1.1 C 0 km/h
188 01-12-2005 07:14:02 1.1 C 3.03 g/m*3 1.1 C 0 km/h
189 01-12-2005 07:24:02 1 C 2.96 g/m*3 1 C 0 km/h
190 01-12-2005 07:34:02 0.5 C 3.01 g/m*3 0.5 C 0 km/h
191 01-12-2005 07:44:02 0.3 C 3.07 g/m*3 0.3 C 0 km/h
192 01-12-2005 07:54:02 0.2 C 3.09 g/m*3 0.2 C 0 km/h
193 01-12-2005 08:04:02 0.2 C 3.19 g/m*3 0.2 C 0 km/h
194 01-12-2005 08:14:02 0.2 C 3.19 g/m*3 0.2 C 0 km/h
195 01-12-2005 08:24:02 0.2 C 3.19 g/m*3 0.2 C 0 km/h
196 01-12-2005 08:34:02 0.1 C 3.22 g/m*3 0.1 C 0 km/h
197 01-12-2005 08:44:02 0 C 3.2 g/m*3 0 C 0 km/h
198 01-12-2005 08:54:02 -0.1 C 3.18 g/m*3 -0.1 C 0 km/h
199 01-12-2005 09:04:02 -0.3 C 3.18 g/m*3 -0.3 C 0 km/h
200 01-12-2005 09:14:02 -0.4 C 3.2 g/m*3 -0.4 C 0 km/h
Sensor: Nr:Datum:Temp:Abs-Feuchte:Windchill:Wind:
Aussen-T/F 201 01-12-2005 09:24:01 -0.6 C 3.16 g/m*3 -0.6 C 0 km/h
202 01-12-2005 09:34:02 -0.6 C 3.21 g/m*3 -0.6 C 0 km/h
203 01-12-2005 09:44:02 -0.6 C 3.25 g/m*3 -0.6 C 0 km/h
204 01-12-2005 09:54:02 -0.7 C 3.23 g/m*3 -0.7 C 0 km/h
205 01-12-2005 10:04:01 -0.7 C 3.23 g/m*3 -0.7 C 0 km/h
206 01-12-2005 10:14:01 -0.7 C 3.28 g/m*3 -0.7 C 0 km/h
207 01-12-2005 10:24:01 -0.6 C 3.35 g/m*3 -0.6 C 0 km/h
208 01-12-2005 10:34:02 -0.6 C 3.35 g/m*3 -0.6 C 0 km/h
209 01-12-2005 10:44:02 -0.6 C 3.39 g/m*3 -0.6 C 0 km/h
210 01-12-2005 10:54:02 -0.4 C 3.44 g/m*3 -0.4 C 0 km/h
211 01-12-2005 11:04:01 -0.3 C 3.46 g/m*3 -0.3 C 0 km/h
212 01-12-2005 11:14:01 0.1 C 3.51 g/m*3 0.1 C 0 km/h
213 01-12-2005 11:24:01 0.1 C 3.51 g/m*3 0.1 C 0 km/h
214 01-12-2005 11:34:02 0.3 C 3.56 g/m*3 0.3 C 0 km/h
215 01-12-2005 11:44:02 0.8 C 3.63 g/m*3 0.8 C 0 km/h
216 01-12-2005 11:54:02 0.9 C 3.66 g/m*3 0.9 C 0 km/h
217 01-12-2005 12:04:02 1 C 3.63 g/m*3 1 C 0 km/h
218 01-12-2005 12:14:02 1.5 C 3.76 g/m*3 1.5 C 0 km/h
219 01-12-2005 12:24:02 1.8 C 3.84 g/m*3 1.8 C 0 km/h
220 01-12-2005 12:34:03 2.4 C 3.88 g/m*3 2.4 C 0 km/h
221 01-12-2005 12:44:03 2.9 C 3.9 g/m*3 2.9 C 0 km/h
222 01-12-2005 12:54:02 3.3 C 3.76 g/m*3 3.3 C 0 km/h
223 01-12-2005 13:04:02 3.6 C 3.78 g/m*3 3.6 C 0 km/h
224 01-12-2005 13:14:02 3.8 C 3.83 g/m*3 3.8 C 0 km/h
225 01-12-2005 13:24:02 4.3 C 3.83 g/m*3 4.3 C 0 km/h
Sensor: Nr:Datum:Temp:Abs-Feuchte:Windchill:Wind:
Aussen-T/F 226 01-12-2005 13:34:02 4.6 C 3.71 g/m*3 4.6 C 0 km/h
227 01-12-2005 13:44:02 4.4 C 3.66 g/m*3 4.4 C 0 km/h
228 01-12-2005 13:54:02 3.8 C 3.58 g/m*3 3.8 C 0 km/h
229 01-12-2005 14:04:02 3.6 C 3.53 g/m*3 3.6 C 0 km/h
230 01-12-2005 14:14:02 3.3 C 3.58 g/m*3 3.3 C 0 km/h
231 01-12-2005 14:24:02 3.2 C 3.56 g/m*3 3.2 C 0 km/h
232 01-12-2005 14:34:02 3.1 C 3.53 g/m*3 3.1 C 0 km/h
233 01-12-2005 14:44:02 2.8 C 3.52 g/m*3 2.8 C 0 km/h
234 01-12-2005 14:54:02 2.8 C 3.52 g/m*3 2.8 C 0 km/h
235 01-12-2005 15:04:02 2.7 C 3.5 g/m*3 2.7 C 0 km/h
236 01-12-2005 15:14:02 2.5 C 3.51 g/m*3 2.5 C 0 km/h
237 01-12-2005 15:24:01 2.5 C 3.45 g/m*3 2.5 C 0 km/h
238 01-12-2005 15:34:02 2.2 C 3.49 g/m*3 2.2 C 0 km/h
239 01-12-2005 15:44:02 1.9 C 3.53 g/m*3 1.9 C 0 km/h
240 01-12-2005 15:54:02 1.8 C 3.56 g/m*3 1.8 C 0 km/h
241 01-12-2005 16:04:02 1.5 C 3.65 g/m*3 1.5 C 0 km/h
242 01-12-2005 16:14:02 1.3 C 3.6 g/m*3 1.3 C 0 km/h
243 01-12-2005 16:24:01 1 C 3.63 g/m*3 1 C 0 km/h
244 01-12-2005 16:34:02 0.8 C 3.63 g/m*3 0.8 C 0 km/h
245 01-12-2005 16:44:02 0.6 C 3.64 g/m*3 0.6 C 0 km/h
246 01-12-2005 16:54:01 0.4 C 3.64 g/m*3 0.4 C 0 km/h
247 01-12-2005 17:04:02 0.2 C 3.64 g/m*3 0.2 C 0 km/h
248 01-12-2005 17:14:02 0 C 3.63 g/m*3 0 C 0 km/h
249 01-12-2005 17:24:01 0 C 3.63 g/m*3 0 C 0 km/h
250 01-12-2005 17:34:01 -0.1 C 3.66 g/m*3 -0.1 C 0 km/h
Sensor: Nr:Datum:Temp:Abs-Feuchte:Windchill:Wind:
Aussen-T/F 251 01-12-2005 17:44:01 -0.2 C 3.63 g/m*3 -0.2 C 0 km/h
252 01-12-2005 17:54:02 -0.3 C 3.61 g/m*3 -0.3 C 0 km/h
253 01-12-2005 18:04:02 -0.3 C 3.65 g/m*3 -0.3 C 0 km/h
254 01-12-2005 18:14:02 -0.4 C 3.63 g/m*3 -0.4 C 0 km/h
255 01-12-2005 18:24:02 -0.5 C 3.6 g/m*3 -0.5 C 0 km/h
256 01-12-2005 18:34:02 -0.6 C 3.63 g/m*3 -0.6 C 0 km/h
257 01-12-2005 18:44:02 -0.6 C 3.63 g/m*3 -0.6 C 0 km/h
258 01-12-2005 18:54:02 -0.6 C 3.63 g/m*3 -0.6 C 0 km/h
259 01-12-2005 19:04:02 -0.7 C 3.6 g/m*3 -0.7 C 0 km/h
260 01-12-2005 19:14:02 -0.8 C 3.62 g/m*3 -0.8 C 0 km/h
261 01-12-2005 19:24:01 -0.7 C 3.65 g/m*3 -0.7 C 0 km/h
262 01-12-2005 19:34:02 -0.9 C 3.6 g/m*3 -0.9 C 0 km/h
263 01-12-2005 19:44:02 -0.9 C 3.6 g/m*3 -0.9 C 0 km/h
264 01-12-2005 19:54:02 -1.1 C 3.55 g/m*3 -1.1 C 0 km/h
265 01-12-2005 20:04:03 -1.1 C 3.55 g/m*3 -1.1 C 0 km/h
266 01-12-2005 20:14:03 -1.2 C 3.52 g/m*3 -1.2 C 0 km/h
267 01-12-2005 20:24:02 -1.3 C 3.5 g/m*3 -1.3 C 0 km/h
268 01-12-2005 20:34:02 -1.3 C 3.54 g/m*3 -1.3 C 0 km/h
269 01-12-2005 20:44:02 -1.4 C 3.52 g/m*3 -1.4 C 0 km/h
270 01-12-2005 20:54:02 -1.5 C 3.49 g/m*3 -1.5 C 0 km/h
271 01-12-2005 21:04:01 -1.5 C 3.54 g/m*3 -1.5 C 0 km/h
272 01-12-2005 21:14:01 -1.5 C 3.54 g/m*3 -1.5 C 0 km/h
273 01-12-2005 21:24:02 -1.7 C 3.44 g/m*3 -1.7 C 0 km/h
274 01-12-2005 21:34:02 -1.7 C 3.49 g/m*3 -1.7 C 0 km/h
275 01-12-2005 21:44:02 -1.7 C 3.49 g/m*3 -1.7 C 0 km/h
Sensor: Nr:Datum:Temp:Abs-Feuchte:Windchill:Wind:
Aussen-T/F 276 01-12-2005 21:54:02 -1.6 C 3.51 g/m*3 -1.6 C 0 km/h
277 01-12-2005 22:04:01 -1.8 C 3.42 g/m*3 -1.8 C 0 km/h
278 01-12-2005 22:14:01 -1.9 C 3.4 g/m*3 -1.9 C 0 km/h
279 01-12-2005 22:24:01 -2 C 3.41 g/m*3 -2 C 0 km/h
280 01-12-2005 22:34:02 -1.9 C 3.48 g/m*3 -1.9 C 0 km/h
281 01-12-2005 22:44:02 -1.9 C 3.48 g/m*3 -1.9 C 0 km/h
282 01-12-2005 22:54:02 -2 C 3.46 g/m*3 -2 C 0 km/h
283 01-12-2005 23:04:01 -2 C 3.46 g/m*3 -2 C 0 km/h
284 01-12-2005 23:14:01 -2.1 C 3.43 g/m*3 -2.1 C 0 km/h
285 01-12-2005 23:24:02 -2.2 C 3.41 g/m*3 -2.2 C 0 km/h
286 01-12-2005 23:34:02 -2.2 C 3.41 g/m*3 -2.2 C 0 km/h
287 01-12-2005 23:44:02 -2.2 C 3.45 g/m*3 -2.2 C 0 km/h
288 01-12-2005 23:54:02 -2.1 C 3.43 g/m*3 -2.1 C 0 km/h
289 02-12-2005 00:04:03 -2.1 C 3.43 g/m*3 -2.1 C 0 km/h
290 02-12-2005 00:14:03 -2 C 3.5 g/m*3 -2 C 0 km/h
291 02-12-2005 00:24:03 -2 C 3.46 g/m*3 -2 C 0 km/h
292 02-12-2005 00:34:03 -2 C 3.46 g/m*3 -2 C 0 km/h
293 02-12-2005 00:44:03 -2.1 C 3.39 g/m*3 -2.1 C 0 km/h
294 02-12-2005 00:54:03 -2.1 C 3.39 g/m*3 -2.1 C 0 km/h
295 02-12-2005 01:04:03 -2.1 C 3.39 g/m*3 -2.1 C 0 km/h
296 02-12-2005 01:14:03 -2.3 C 3.34 g/m*3 -2.3 C 0 km/h
297 02-12-2005 01:24:03 -2.3 C 3.34 g/m*3 -2.3 C 0 km/h
298 02-12-2005 01:34:03 -2.3 C 3.38 g/m*3 -2.3 C 0 km/h
299 02-12-2005 01:44:03 -2.3 C 3.38 g/m*3 -2.3 C 0 km/h
300 02-12-2005 01:54:02 -1.8 C 3.46 g/m*3 -1.8 C 0 km/h
Sensor: Nr:Datum:Temp:Abs-Feuchte:Windchill:Wind:
Aussen-T/F 301 02-12-2005 02:04:02 -2 C 3.41 g/m*3 -2 C 0 km/h
302 02-12-2005 02:14:02 -2.1 C 3.39 g/m*3 -2.1 C 0 km/h
303 02-12-2005 02:24:02 -1.9 C 3.44 g/m*3 -1.9 C 0 km/h
304 02-12-2005 02:34:02 -2 C 3.37 g/m*3 -2 C 0 km/h
305 02-12-2005 02:44:03 -1.9 C 3.4 g/m*3 -1.9 C 0 km/h
306 02-12-2005 02:55:03 -1.7 C 3.44 g/m*3 -1.7 C 0 km/h
307 02-12-2005 03:05:03 -2 C 3.33 g/m*3 -2 C 0 km/h
308 02-12-2005 03:15:04 -1.8 C 3.38 g/m*3 -1.8 C 0 km/h
309 02-12-2005 03:25:04 -1.6 C 3.42 g/m*3 -1.6 C 0 km/h
310 02-12-2005 03:35:03 -1.7 C 3.36 g/m*3 -1.7 C 0 km/h
311 02-12-2005 03:45:03 -1.6 C 3.38 g/m*3 -1.6 C 0 km/h
312 02-12-2005 03:55:03 -1.6 C 3.34 g/m*3 -1.6 C 0 km/h
313 02-12-2005 04:05:02 -1.7 C 3.31 g/m*3 -1.7 C 0 km/h
314 02-12-2005 04:15:02 -1.7 C 3.31 g/m*3 -1.7 C 0 km/h
315 02-12-2005 04:25:02 -1.6 C 3.34 g/m*3 -1.6 C 0 km/h
316 02-12-2005 04:35:02 -1.7 C 3.27 g/m*3 -1.7 C 0 km/h
317 02-12-2005 04:45:02 -1.9 C 3.23 g/m*3 -1.9 C 0 km/h
318 02-12-2005 04:55:02 -1.9 C 3.23 g/m*3 -1.9 C 0 km/h
319 02-12-2005 05:05:02 -1.7 C 3.27 g/m*3 -1.7 C 0 km/h
320 02-12-2005 05:15:02 -1.7 C 3.23 g/m*3 -1.7 C 0 km/h
321 02-12-2005 05:25:02 -1.8 C 3.21 g/m*3 -1.8 C 0 km/h
322 02-12-2005 05:35:02 -1.8 C 3.21 g/m*3 -1.8 C 0 km/h
323 02-12-2005 05:45:02 -1.8 C 3.21 g/m*3 -1.8 C 0 km/h
324 02-12-2005 05:55:02 -2 C 3.16 g/m*3 -2 C 0 km/h
325 02-12-2005 06:05:01 -2.1 C 3.14 g/m*3 -2.1 C 0 km/h
Sensor: Nr:Datum:Temp:Abs-Feuchte:Windchill:Wind:
Aussen-T/F 326 02-12-2005 06:15:02 -2.1 C 3.14 g/m*3 -2.1 C 0 km/h
327 02-12-2005 06:25:02 -2 C 3.16 g/m*3 -2 C 0 km/h
328 02-12-2005 06:35:02 -1.9 C 3.14 g/m*3 -1.9 C 0 km/h
329 02-12-2005 06:45:02 -1.9 C 3.14 g/m*3 -1.9 C 0 km/h
330 02-12-2005 06:55:03 -1.8 C 3.12 g/m*3 -1.8 C 0 km/h
331 02-12-2005 07:05:02 -1.8 C 3.12 g/m*3 -1.8 C 0 km/h
332 02-12-2005 07:15:02 -1.7 C 3.14 g/m*3 -1.7 C 0 km/h
333 02-12-2005 07:25:02 -1.9 C 3.1 g/m*3 -1.9 C 0 km/h
334 02-12-2005 07:35:02 -1.8 C 3.12 g/m*3 -1.8 C 0 km/h
335 02-12-2005 07:45:02 -1.6 C 3.12 g/m*3 -1.6 C 0 km/h
336 02-12-2005 07:55:02 -1.8 C 3.08 g/m*3 -1.8 C 0 km/h
337 02-12-2005 08:05:02 -1.9 C 3.06 g/m*3 -1.9 C 0 km/h
338 02-12-2005 08:15:02 -1.9 C 3.06 g/m*3 -1.9 C 0 km/h
339 02-12-2005 08:25:02 -2 C 3.03 g/m*3 -2 C 0 km/h
340 02-12-2005 08:35:03 -1.7 C 3.1 g/m*3 -1.7 C 0 km/h
341 02-12-2005 08:45:02 -1.7 C 3.06 g/m*3 -1.7 C 0 km/h
342 02-12-2005 08:55:02 -1.7 C 3.06 g/m*3 -1.7 C 0 km/h
343 02-12-2005 09:05:02 -1.5 C 3.06 g/m*3 -1.5 C 0 km/h
344 02-12-2005 09:15:02 -1.3 C 3.1 g/m*3 -1.3 C 0 km/h
345 02-12-2005 09:25:02 -1.1 C 3.1 g/m*3 -1.1 C 0 km/h
346 02-12-2005 09:35:03 -1.1 C 3.1 g/m*3 -1.1 C 0 km/h
347 02-12-2005 09:45:02 -0.8 C 3.12 g/m*3 -0.8 C 0 km/h
348 02-12-2005 09:55:02 -0.5 C 3.04 g/m*3 -0.5 C 0 km/h
349 02-12-2005 10:05:02 -0.5 C 3.09 g/m*3 -0.5 C 0 km/h
350 02-12-2005 10:15:02 -0.5 C 3.09 g/m*3 -0.5 C 0 km/h
Sensor: Nr:Datum:Temp:Abs-Feuchte:Windchill:Wind:
Aussen-T/F 351 02-12-2005 10:25:02 -0.2 C 3.11 g/m*3 -0.2 C 0 km/h
352 02-12-2005 10:35:02 0.2 C 3 g/m*3 0.2 C 0 km/h
353 02-12-2005 10:45:02 0.6 C 3.03 g/m*3 0.6 C 0 km/h
354 02-12-2005 10:55:02 1 C 2.96 g/m*3 1 C 0 km/h
355 02-12-2005 11:05:02 1.3 C 2.91 g/m*3 1.3 C 0 km/h
356 02-12-2005 11:15:02 1.5 C 2.9 g/m*3 1.5 C 0 km/h
357 02-12-2005 11:25:02 1.7 C 2.83 g/m*3 1.7 C 0 km/h
358 02-12-2005 11:35:02 2 C 2.78 g/m*3 2 C 0 km/h
359 02-12-2005 11:45:02 2.1 C 2.8 g/m*3 2.1 C 0 km/h
360 02-12-2005 11:55:02 2.4 C 2.74 g/m*3 2.4 C 0 km/h
361 02-12-2005 12:05:02 2.4 C 2.68 g/m*3 2.4 C 0 km/h
362 02-12-2005 12:15:01 2.4 C 2.74 g/m*3 2.4 C 0 km/h
363 02-12-2005 12:25:01 2.4 C 2.68 g/m*3 2.4 C 0 km/h
364 02-12-2005 12:35:02 2.4 C 2.68 g/m*3 2.4 C 0 km/h
365 02-12-2005 12:45:02 2.5 C 2.64 g/m*3 2.5 C 0 km/h
366 02-12-2005 12:55:02 2.4 C 2.63 g/m*3 2.4 C 0 km/h
367 02-12-2005 13:05:02 2.5 C 2.64 g/m*3 2.5 C 0 km/h
368 02-12-2005 13:15:01 2.5 C 2.64 g/m*3 2.5 C 0 km/h
369 02-12-2005 13:25:01 2.4 C 2.74 g/m*3 2.4 C 0 km/h
370 02-12-2005 13:35:02 2.4 C 2.85 g/m*3 2.4 C 0 km/h
371 02-12-2005 13:45:02 2.6 C 2.89 g/m*3 2.6 C 0 km/h
372 02-12-2005 13:55:02 2.7 C 2.85 g/m*3 2.7 C 0 km/h
373 02-12-2005 14:05:01 2.8 C 2.99 g/m*3 2.8 C 0 km/h
374 02-12-2005 14:15:01 2.9 C 2.95 g/m*3 2.9 C 0 km/h
375 02-12-2005 14:25:01 2.8 C 2.87 g/m*3 2.8 C 0 km/h
Sensor: Nr:Datum:Temp:Abs-Feuchte:Windchill:Wind:
Aussen-T/F 376 02-12-2005 14:35:02 2.7 C 2.97 g/m*3 2.7 C 0 km/h
377 02-12-2005 14:45:01 2.6 C 2.95 g/m*3 2.6 C 0 km/h
378 02-12-2005 14:55:01 2.5 C 3.05 g/m*3 2.5 C 0 km/h
379 02-12-2005 15:05:01 2.5 C 2.99 g/m*3 2.5 C 0 km/h
380 02-12-2005 15:15:02 2.5 C 3.05 g/m*3 2.5 C 0 km/h
381 02-12-2005 15:25:02 2.6 C 2.95 g/m*3 2.6 C 0 km/h
382 02-12-2005 15:35:02 2.6 C 2.89 g/m*3 2.6 C 0 km/h
383 02-12-2005 15:45:02 2.6 C 2.95 g/m*3 2.6 C 0 km/h
384 02-12-2005 15:55:02 2.7 C 2.68 g/m*3 2.7 C 0 km/h
385 02-12-2005 16:05:02 2.7 C 2.74 g/m*3 2.7 C 0 km/h
386 02-12-2005 16:15:02 2.5 C 2.93 g/m*3 2.5 C 0 km/h
387 02-12-2005 16:25:02 2.4 C 2.91 g/m*3 2.4 C 0 km/h
388 02-12-2005 16:35:02 2.4 C 2.85 g/m*3 2.4 C 0 km/h
389 02-12-2005 16:45:02 2.4 C 2.85 g/m*3 2.4 C 0 km/h
390 02-12-2005 16:55:02 2.4 C 2.8 g/m*3 2.4 C 0 km/h
391 02-12-2005 17:05:02 2.3 C 2.95 g/m*3 2.3 C 0 km/h
392 02-12-2005 17:15:02 1.8 C 3.07 g/m*3 1.8 C 0 km/h
393 02-12-2005 17:25:02 1.5 C 3.28 g/m*3 1.5 C 0 km/h
394 02-12-2005 17:35:03 1.3 C 3.39 g/m*3 1.3 C 0 km/h
395 02-12-2005 17:45:02 1.3 C 3.5 g/m*3 1.3 C 0 km/h
396 02-12-2005 17:55:02 1.4 C 3.52 g/m*3 1.4 C 0 km/h
397 02-12-2005 18:05:02 1.4 C 3.52 g/m*3 1.4 C 0 km/h
398 02-12-2005 18:15:02 1.4 C 3.52 g/m*3 1.4 C 0 km/h
399 02-12-2005 18:25:02 1.6 C 3.51 g/m*3 1.6 C 0 km/h
400 02-12-2005 18:35:03 1.6 C 3.57 g/m*3 1.6 C 0 km/h
Sensor: Nr:Datum:Temp:Abs-Feuchte:Windchill:Wind:
Aussen-T/F 401 02-12-2005 18:45:02 1.6 C 3.57 g/m*3 1.6 C 0 km/h
402 02-12-2005 18:55:03 1.4 C 3.57 g/m*3 1.4 C 0 km/h
403 02-12-2005 19:05:02 1.3 C 3.55 g/m*3 1.3 C 0 km/h
404 02-12-2005 19:15:02 1.2 C 3.63 g/m*3 1.2 C 0 km/h
405 02-12-2005 19:25:02 1.2 C 3.58 g/m*3 1.2 C 0 km/h
406 02-12-2005 19:35:03 1.2 C 3.53 g/m*3 1.2 C 0 km/h
407 02-12-2005 19:45:02 1.2 C 3.68 g/m*3 1.2 C 0 km/h
408 02-12-2005 19:55:02 1.1 C 3.81 g/m*3 1.1 C 0 km/h
409 02-12-2005 20:05:02 1 C 3.94 g/m*3 1 C 0 km/h
410 02-12-2005 20:15:02 0.9 C 4.07 g/m*3 0.9 C 0 km/h
411 02-12-2005 20:25:02 1 C 4.1 g/m*3 1 C 0 km/h
412 02-12-2005 20:35:03 1 C 4.1 g/m*3 1 C 0 km/h
413 02-12-2005 20:45:02 1 C 4.1 g/m*3 1 C 0 km/h
414 02-12-2005 20:55:02 0.9 C 4.23 g/m*3 0.9 C 0 km/h
415 02-12-2005 21:05:02 0.9 C 4.28 g/m*3 0.9 C 0 km/h
416 02-12-2005 21:15:02 0.9 C 4.33 g/m*3 0.9 C 0 km/h
417 02-12-2005 21:25:02 1 C 4.36 g/m*3 1 C 0 km/h
418 02-12-2005 21:35:03 1.2 C 4.47 g/m*3 1.2 C 0 km/h
419 02-12-2005 21:45:02 1.3 C 4.45 g/m*3 1.3 C 0 km/h
420 02-12-2005 21:55:02 1.4 C 4.48 g/m*3 1.4 C 0 km/h
421 02-12-2005 22:05:02 1.4 C 4.48 g/m*3 1.4 C 0 km/h
422 02-12-2005 22:15:02 1.2 C 4.42 g/m*3 1.2 C 0 km/h
423 02-12-2005 22:25:03 1.1 C 4.39 g/m*3 1.1 C 0 km/h
424 02-12-2005 22:35:02 0.8 C 4.35 g/m*3 0.8 C 0 km/h
425 02-12-2005 22:45:02 0.8 C 4.35 g/m*3 0.8 C 0 km/h
Sensor: Nr:Datum:Temp:Abs-Feuchte:Windchill:Wind:
Aussen-T/F 426 02-12-2005 22:55:02 0.9 C 4.38 g/m*3 0.9 C 0 km/h
427 02-12-2005 23:05:02 1.2 C 4.37 g/m*3 1.2 C 0 km/h
428 02-12-2005 23:15:02 1.3 C 4.4 g/m*3 1.3 C 0 km/h
429 02-12-2005 23:25:02 1.3 C 4.4 g/m*3 1.3 C 0 km/h
430 02-12-2005 23:35:03 1.3 C 4.4 g/m*3 1.3 C 0 km/h
431 02-12-2005 23:45:02 1.4 C 4.43 g/m*3 1.4 C 0 km/h
432 02-12-2005 23:55:03 1.3 C 4.4 g/m*3 1.3 C 0 km/h
433 03-12-2005 00:05:02 1.3 C 4.4 g/m*3 1.3 C 0 km/h
434 03-12-2005 00:15:02 1.4 C 4.43 g/m*3 1.4 C 0 km/h
435 03-12-2005 00:25:02 1.4 C 4.37 g/m*3 1.4 C 0 km/h
436 03-12-2005 00:35:02 1.3 C 4.34 g/m*3 1.3 C 0 km/h
437 03-12-2005 00:45:02 1.3 C 4.34 g/m*3 1.3 C 0 km/h
438 03-12-2005 00:55:02 1.2 C 4.31 g/m*3 1.2 C 0 km/h
439 03-12-2005 01:05:02 1.2 C 4.31 g/m*3 1.2 C 0 km/h
440 03-12-2005 01:15:03 1.3 C 4.29 g/m*3 1.3 C 0 km/h
441 03-12-2005 01:25:03 1.5 C 4.3 g/m*3 1.5 C 0 km/h
442 03-12-2005 01:35:03 1.4 C 4.21 g/m*3 1.4 C 0 km/h
443 03-12-2005 01:45:01 1.4 C 4.21 g/m*3 1.4 C 0 km/h
444 03-12-2005 01:55:01 1.3 C 4.19 g/m*3 1.3 C 0 km/h
445 03-12-2005 02:05:01 1 C 4.15 g/m*3 1 C 0 km/h
446 03-12-2005 02:15:02 1 C 4.26 g/m*3 1 C 0 km/h
447 03-12-2005 02:25:02 1.2 C 4.31 g/m*3 1.2 C 0 km/h
448 03-12-2005 02:35:02 0.6 C 4.14 g/m*3 0.6 C 0 km/h
449 03-12-2005 02:46:03 0.5 C 4.16 g/m*3 0.5 C 0 km/h
450 03-12-2005 02:56:03 0.5 C 4.21 g/m*3 0.5 C 0 km/h
Sensor: Nr:Datum:Temp:Abs-Feuchte:Windchill:Wind:
Aussen-T/F 451 03-12-2005 03:06:03 0.4 C 4.23 g/m*3 0.4 C 0 km/h
452 03-12-2005 03:16:04 1.1 C 4.55 g/m*3 1.1 C 0 km/h
453 03-12-2005 03:26:04 1.6 C 4.76 g/m*3 1.6 C 0 km/h
454 03-12-2005 03:36:01 2 C 4.83 g/m*3 2 C 0 km/h
455 03-12-2005 03:46:01 2.1 C 4.87 g/m*3 2.1 C 0 km/h
456 03-12-2005 03:56:01 2 C 4.78 g/m*3 2 C 0 km/h
457 03-12-2005 04:06:01 2 C 4.67 g/m*3 2 C 0 km/h
458 03-12-2005 04:16:01 1.7 C 4.57 g/m*3 1.7 C 0 km/h
459 03-12-2005 04:26:01 1.4 C 4.43 g/m*3 1.4 C 0 km/h
460 03-12-2005 04:36:01 0.9 C 4.33 g/m*3 0.9 C 0 km/h
461 03-12-2005 04:46:02 0.6 C 4.24 g/m*3 0.6 C 0 km/h
462 03-12-2005 04:56:02 0.3 C 4.2 g/m*3 0.3 C 0 km/h
463 03-12-2005 05:06:02 0.2 C 4.22 g/m*3 0.2 C 0 km/h
464 03-12-2005 05:16:02 0.1 C 4.2 g/m*3 0.1 C 0 km/h
465 03-12-2005 05:26:02 0.2 C 4.27 g/m*3 0.2 C 0 km/h
466 03-12-2005 05:36:02 0.2 C 4.32 g/m*3 0.2 C 0 km/h
467 03-12-2005 05:46:02 0.5 C 4.46 g/m*3 0.5 C 0 km/h
468 03-12-2005 05:56:02 0.4 C 4.43 g/m*3 0.4 C 0 km/h
469 03-12-2005 06:06:02 0.4 C 4.43 g/m*3 0.4 C 0 km/h
470 03-12-2005 06:16:02 0.2 C 4.37 g/m*3 0.2 C 0 km/h
471 03-12-2005 06:26:03 0.6 C 4.49 g/m*3 0.6 C 0 km/h
472 03-12-2005 06:36:01 0.6 C 4.54 g/m*3 0.6 C 0 km/h
473 03-12-2005 06:46:02 0.6 C 4.54 g/m*3 0.6 C 0 km/h
474 03-12-2005 06:56:02 0.4 C 4.48 g/m*3 0.4 C 0 km/h
475 03-12-2005 07:06:02 0.7 C 4.58 g/m*3 0.7 C 0 km/h
Sensor: Nr:Datum:Temp:Abs-Feuchte:Windchill:Wind:
Aussen-T/F 476 03-12-2005 07:16:02 1 C 4.67 g/m*3 1 C 0 km/h
477 03-12-2005 07:26:02 1.5 C 4.89 g/m*3 1.5 C 0 km/h
478 03-12-2005 07:36:01 1.6 C 4.92 g/m*3 1.6 C 0 km/h
479 03-12-2005 07:46:02 1.6 C 4.87 g/m*3 1.6 C 0 km/h
480 03-12-2005 07:56:02 1.5 C 4.78 g/m*3 1.5 C 0 km/h
481 03-12-2005 08:06:02 1.2 C 4.63 g/m*3 1.2 C 0 km/h
482 03-12-2005 08:16:01 0.9 C 4.59 g/m*3 0.9 C 0 km/h
483 03-12-2005 08:26:01 0.8 C 4.56 g/m*3 0.8 C 0 km/h
484 03-12-2005 08:36:02 0.6 C 4.44 g/m*3 0.6 C 0 km/h
485 03-12-2005 08:46:02 0.9 C 4.59 g/m*3 0.9 C 0 km/h
486 03-12-2005 08:56:02 1.2 C 4.68 g/m*3 1.2 C 0 km/h
487 03-12-2005 09:06:01 1.6 C 4.76 g/m*3 1.6 C 0 km/h
488 03-12-2005 09:16:01 1.8 C 4.71 g/m*3 1.8 C 0 km/h
489 03-12-2005 09:26:01 2.1 C 4.7 g/m*3 2.1 C 0 km/h
490 03-12-2005 09:36:02 2.3 C 4.65 g/m*3 2.3 C 0 km/h
491 03-12-2005 09:46:01 2.4 C 4.62 g/m*3 2.4 C 0 km/h
492 03-12-2005 09:56:01 2.5 C 4.6 g/m*3 2.5 C 0 km/h
493 03-12-2005 10:06:01 2.6 C 4.63 g/m*3 2.6 C 0 km/h
494 03-12-2005 10:16:01 2.7 C 4.66 g/m*3 2.7 C 0 km/h
495 03-12-2005 10:26:01 2.7 C 4.66 g/m*3 2.7 C 0 km/h
496 03-12-2005 10:36:02 2.7 C 4.6 g/m*3 2.7 C 0 km/h
497 03-12-2005 10:46:03 2.7 C 4.6 g/m*3 2.7 C 0 km/h
498 03-12-2005 10:56:03 2.8 C 4.69 g/m*3 2.8 C 0 km/h
499 03-12-2005 11:06:02 2.9 C 4.72 g/m*3 2.9 C 0 km/h
500 03-12-2005 11:16:02 3.1 C 4.73 g/m*3 3.1 C 0 km/h
Sensor: Nr:Datum:Temp:Abs-Feuchte:Windchill:Wind:
Aussen-T/F 501 03-12-2005 11:26:02 3.4 C 4.83 g/m*3 3.4 C 0 km/h
502 03-12-2005 11:36:02 3.7 C 4.86 g/m*3 3.7 C 0 km/h
503 03-12-2005 11:46:02 4.5 C 4.93 g/m*3 4.5 C 0 km/h
504 03-12-2005 11:56:02 4.7 C 4.93 g/m*3 4.7 C 0 km/h
505 03-12-2005 12:06:02 5 C 4.96 g/m*3 5 C 0 km/h
506 03-12-2005 12:16:02 5.2 C 4.96 g/m*3 5.2 C 0 km/h
507 03-12-2005 12:26:02 5.3 C 4.92 g/m*3 5.3 C 0 km/h
508 03-12-2005 12:36:02 5.7 C 5.05 g/m*3 5.7 C 0 km/h
509 03-12-2005 12:46:02 5.9 C 5.05 g/m*3 5.9 C 0 km/h
510 03-12-2005 12:56:02 6.1 C 5.04 g/m*3 6.1 C 0 km/h
511 03-12-2005 13:06:02 6.3 C 5.11 g/m*3 6.3 C 0 km/h
512 03-12-2005 13:16:02 6.7 C 5.24 g/m*3 6.7 C 0 km/h
513 03-12-2005 13:26:02 7 C 5.19 g/m*3 7 C 0 km/h
514 03-12-2005 13:36:02 7.4 C 5.17 g/m*3 7.4 C 0 km/h
515 03-12-2005 13:46:02 7.4 C 5.17 g/m*3 7.4 C 0 km/h
516 03-12-2005 13:56:02 7.3 C 5.14 g/m*3 7.3 C 0 km/h
517 03-12-2005 14:06:02 7.2 C 5.1 g/m*3 7.2 C 0 km/h
518 03-12-2005 14:16:02 7.1 C 5.07 g/m*3 7.1 C 0 km/h
519 03-12-2005 14:26:02 7.4 C 5.25 g/m*3 7.4 C 0 km/h
520 03-12-2005 14:36:02 7.5 C 5.2 g/m*3 7.5 C 0 km/h
521 03-12-2005 14:46:02 7.5 C 5.2 g/m*3 7.5 C 0 km/h
522 03-12-2005 14:56:02 7.6 C 5.24 g/m*3 7.6 C 0 km/h
523 03-12-2005 15:06:02 7.4 C 5.25 g/m*3 7.4 C 0 km/h
524 03-12-2005 15:16:02 7.1 C 5.15 g/m*3 7.1 C 0 km/h
525 03-12-2005 15:26:02 6.9 C 5.23 g/m*3 6.9 C 0 km/h
Sensor: Nr:Datum:Temp:Abs-Feuchte:Windchill:Wind:
Aussen-T/F 526 03-12-2005 15:36:03 6.8 C 5.28 g/m*3 6.8 C 0 km/h
527 03-12-2005 15:46:02 6.8 C 5.2 g/m*3 6.8 C 0 km/h
528 03-12-2005 15:56:02 6.7 C 5.17 g/m*3 6.7 C 0 km/h
529 03-12-2005 16:06:02 6.8 C 5.2 g/m*3 6.8 C 0 km/h
530 03-12-2005 16:16:02 6.8 C 5.2 g/m*3 6.8 C 0 km/h
531 03-12-2005 16:26:02 6.7 C 5.17 g/m*3 6.7 C 0 km/h
532 03-12-2005 16:36:03 6.4 C 5.14 g/m*3 6.4 C 0 km/h
533 03-12-2005 16:46:02 6.4 C 5.22 g/m*3 6.4 C 0 km/h
534 03-12-2005 16:56:02 6.1 C 5.26 g/m*3 6.1 C 0 km/h
535 03-12-2005 17:06:02 6.2 C 5.37 g/m*3 6.2 C 0 km/h
536 03-12-2005 17:16:03 6 C 5.37 g/m*3 6 C 0 km/h
537 03-12-2005 17:26:03 6.1 C 5.41 g/m*3 6.1 C 0 km/h
538 03-12-2005 17:36:03 6 C 5.37 g/m*3 6 C 0 km/h
539 03-12-2005 17:46:02 5.8 C 5.44 g/m*3 5.8 C 0 km/h
540 03-12-2005 17:56:02 5.6 C 5.37 g/m*3 5.6 C 0 km/h
541 03-12-2005 18:06:02 5.4 C 5.37 g/m*3 5.4 C 0 km/h
542 03-12-2005 18:16:03 5.2 C 5.37 g/m*3 5.2 C 0 km/h
543 03-12-2005 18:26:03 5.1 C 5.34 g/m*3 5.1 C 0 km/h
544 03-12-2005 18:36:03 5.1 C 5.34 g/m*3 5.1 C 0 km/h
545 03-12-2005 18:46:02 5.1 C 5.34 g/m*3 5.1 C 0 km/h
546 03-12-2005 18:56:03 5 C 5.3 g/m*3 5 C 0 km/h
547 03-12-2005 19:06:02 4.7 C 5.26 g/m*3 4.7 C 0 km/h
548 03-12-2005 19:16:02 4.8 C 5.36 g/m*3 4.8 C 0 km/h
549 03-12-2005 19:26:02 5 C 5.44 g/m*3 5 C 0 km/h
550 03-12-2005 19:36:03 5.2 C 5.44 g/m*3 5.2 C 0 km/h
Sensor: Nr:Datum:Temp:Abs-Feuchte:Windchill:Wind:
Aussen-T/F 551 03-12-2005 19:46:02 5.3 C 5.41 g/m*3 5.3 C 0 km/h
552 03-12-2005 19:56:02 5.4 C 5.37 g/m*3 5.4 C 0 km/h
553 03-12-2005 20:06:02 5.5 C 5.48 g/m*3 5.5 C 0 km/h
554 03-12-2005 20:16:02 5.4 C 5.44 g/m*3 5.4 C 0 km/h
555 03-12-2005 20:26:02 5.9 C 5.7 g/m*3 5.9 C 0 km/h
556 03-12-2005 20:36:03 6.1 C 5.63 g/m*3 6.1 C 0 km/h
557 03-12-2005 20:46:02 6.4 C 5.66 g/m*3 6.4 C 0 km/h
558 03-12-2005 20:56:02 6.6 C 5.66 g/m*3 6.6 C 0 km/h
559 03-12-2005 21:06:02 6.6 C 5.66 g/m*3 6.6 C 0 km/h
560 03-12-2005 21:16:02 6.3 C 5.7 g/m*3 6.3 C 0 km/h
561 03-12-2005 21:26:02 6.1 C 5.77 g/m*3 6.1 C 0 km/h
562 03-12-2005 21:36:02 6 C 6.02 g/m*3 6 C 0 km/h
563 03-12-2005 21:46:02 5.9 C 6.13 g/m*3 5.9 C 0 km/h
564 03-12-2005 21:56:03 6 C 6.17 g/m*3 6 C 0 km/h
565 03-12-2005 22:06:02 5.9 C 6.2 g/m*3 5.9 C 0 km/h
566 03-12-2005 22:16:02 5.9 C 6.27 g/m*3 5.9 C 0 km/h
567 03-12-2005 22:26:02 6 C 6.24 g/m*3 6 C 0 km/h
568 03-12-2005 22:36:03 6.3 C 6.37 g/m*3 6.3 C 0 km/h
569 03-12-2005 22:46:02 6.4 C 6.41 g/m*3 6.4 C 0 km/h
570 03-12-2005 22:56:02 6.5 C 6.37 g/m*3 6.5 C 0 km/h
571 03-12-2005 23:06:02 6.4 C 6.33 g/m*3 6.4 C 0 km/h
572 03-12-2005 23:16:02 6.4 C 6.33 g/m*3 6.4 C 0 km/h
573 03-12-2005 23:26:02 6.3 C 6.37 g/m*3 6.3 C 0 km/h
574 03-12-2005 23:36:03 6.2 C 6.32 g/m*3 6.2 C 0 km/h
575 03-12-2005 23:46:02 6.2 C 6.4 g/m*3 6.2 C 0 km/h
Sensor: Nr:Datum:Temp:Abs-Feuchte:Windchill:Wind:
Aussen-T/F 576 03-12-2005 23:56:02 6.3 C 6.44 g/m*3 6.3 C 0 km/h
577 04-12-2005 00:06:02 6.4 C 6.56 g/m*3 6.4 C 0 km/h
578 04-12-2005 00:16:02 6.4 C 6.56 g/m*3 6.4 C 0 km/h
579 04-12-2005 00:26:02 6.3 C 6.51 g/m*3 6.3 C 0 km/h
580 04-12-2005 00:36:02 6.4 C 6.56 g/m*3 6.4 C 0 km/h
581 04-12-2005 00:46:02 6.3 C 6.51 g/m*3 6.3 C 0 km/h
582 04-12-2005 00:56:02 6.3 C 6.51 g/m*3 6.3 C 0 km/h
583 04-12-2005 01:06:02 6.4 C 6.56 g/m*3 6.4 C 0 km/h
584 04-12-2005 01:16:02 6.5 C 6.6 g/m*3 6.5 C 0 km/h
585 04-12-2005 01:26:02 6.6 C 6.64 g/m*3 6.6 C 0 km/h
586 04-12-2005 01:36:02 6.4 C 6.56 g/m*3 6.4 C 0 km/h
587 04-12-2005 01:46:03 6.5 C 6.67 g/m*3 6.5 C 0 km/h
588 04-12-2005 01:56:03 6.4 C 6.63 g/m*3 6.4 C 0 km/h
589 04-12-2005 02:06:03 6.4 C 6.63 g/m*3 6.4 C 0 km/h
590 04-12-2005 02:16:02 6.3 C 6.59 g/m*3 6.3 C 0 km/h
591 04-12-2005 02:26:02 6.3 C 6.66 g/m*3 6.3 C 0 km/h
592 04-12-2005 02:36:02 6.2 C 6.62 g/m*3 6.2 C 0 km/h
593 04-12-2005 02:47:04 6.2 C 6.69 g/m*3 6.2 C 0 km/h
594 04-12-2005 02:57:04 6.2 C 6.69 g/m*3 6.2 C 0 km/h
595 04-12-2005 03:07:04 6.2 C 6.77 g/m*3 6.2 C 0 km/h
596 04-12-2005 03:17:04 6.2 C 6.77 g/m*3 6.2 C 0 km/h
597 04-12-2005 03:27:04 6.3 C 6.81 g/m*3 6.3 C 0 km/h
598 04-12-2005 03:37:02 6.4 C 6.93 g/m*3 6.4 C 0 km/h
599 04-12-2005 03:47:02 6.3 C 6.81 g/m*3 6.3 C 0 km/h
600 04-12-2005 03:57:02 6.4 C 6.85 g/m*3 6.4 C 0 km/h
Sensor: Nr:Datum:Temp:Abs-Feuchte:Windchill:Wind:
Aussen-T/F 601 04-12-2005 04:07:02 6.3 C 6.81 g/m*3 6.3 C 0 km/h
602 04-12-2005 04:17:02 6.3 C 6.81 g/m*3 6.3 C 0 km/h
603 04-12-2005 04:27:03 6.3 C 6.81 g/m*3 6.3 C 0 km/h
604 04-12-2005 04:37:02 6.2 C 6.77 g/m*3 6.2 C 0 km/h
605 04-12-2005 04:47:02 6.2 C 6.77 g/m*3 6.2 C 0 km/h
606 04-12-2005 04:57:03 6.2 C 6.77 g/m*3 6.2 C 0 km/h
607 04-12-2005 05:07:02 6.1 C 6.72 g/m*3 6.1 C 0 km/h
608 04-12-2005 05:17:02 6 C 6.68 g/m*3 6 C 0 km/h
609 04-12-2005 05:27:03 6 C 6.68 g/m*3 6 C 0 km/h
610 04-12-2005 05:37:02 6 C 6.68 g/m*3 6 C 0 km/h
611 04-12-2005 05:47:02 6 C 6.68 g/m*3 6 C 0 km/h
612 04-12-2005 05:57:02 6 C 6.68 g/m*3 6 C 0 km/h
613 04-12-2005 06:07:02 6 C 6.68 g/m*3 6 C 0 km/h
614 04-12-2005 06:17:02 6 C 6.68 g/m*3 6 C 0 km/h
615 04-12-2005 06:27:02 6.1 C 6.79 g/m*3 6.1 C 0 km/h
616 04-12-2005 06:37:02 6.2 C 6.84 g/m*3 6.2 C 0 km/h
617 04-12-2005 06:47:02 6.2 C 6.84 g/m*3 6.2 C 0 km/h
618 04-12-2005 06:57:02 6.4 C 6.93 g/m*3 6.4 C 0 km/h
619 04-12-2005 07:07:02 6.6 C 7.02 g/m*3 6.6 C 0 km/h
620 04-12-2005 07:17:02 6.7 C 6.99 g/m*3 6.7 C 0 km/h
621 04-12-2005 07:27:02 6.9 C 7.01 g/m*3 6.9 C 0 km/h
622 04-12-2005 07:37:02 6.8 C 6.88 g/m*3 6.8 C 0 km/h
623 04-12-2005 07:47:02 6.8 C 6.88 g/m*3 6.8 C 0 km/h
624 04-12-2005 07:57:02 6.7 C 6.84 g/m*3 6.7 C 0 km/h
625 04-12-2005 08:07:02 6.5 C 6.75 g/m*3 6.5 C 0 km/h
Sensor: Nr:Datum:Temp:Abs-Feuchte:Windchill:Wind:
Aussen-T/F 626 04-12-2005 08:17:01 6.4 C 6.71 g/m*3 6.4 C 0 km/h
627 04-12-2005 08:27:01 6.2 C 6.62 g/m*3 6.2 C 0 km/h
628 04-12-2005 08:37:01 6.3 C 6.74 g/m*3 6.3 C 0 km/h
629 04-12-2005 08:47:02 6.4 C 6.78 g/m*3 6.4 C 0 km/h
630 04-12-2005 08:57:03 6.5 C 6.9 g/m*3 6.5 C 0 km/h
631 04-12-2005 09:07:02 7 C 7.05 g/m*3 7 C 0 km/h
632 04-12-2005 09:17:01 7.2 C 7.06 g/m*3 7.2 C 0 km/h
633 04-12-2005 09:27:01 7.7 C 7.14 g/m*3 7.7 C 0 km/h
634 04-12-2005 09:37:02 7.8 C 6.86 g/m*3 7.8 C 0 km/h
635 04-12-2005 09:47:02 7.7 C 6.81 g/m*3 7.7 C 0 km/h
636 04-12-2005 09:57:02 7.7 C 6.73 g/m*3 7.7 C 0 km/h
637 04-12-2005 10:07:01 7.5 C 6.72 g/m*3 7.5 C 0 km/h
638 04-12-2005 10:17:01 7.6 C 6.77 g/m*3 7.6 C 0 km/h
639 04-12-2005 10:27:01 7.6 C 6.69 g/m*3 7.6 C 0 km/h
640 04-12-2005 10:37:02 7.7 C 6.73 g/m*3 7.7 C 0 km/h
641 04-12-2005 10:47:02 7.6 C 6.77 g/m*3 7.6 C 0 km/h
642 04-12-2005 10:57:02 7.6 C 6.77 g/m*3 7.6 C 0 km/h
643 04-12-2005 11:07:02 7.9 C 6.82 g/m*3 7.9 C 0 km/h
644 04-12-2005 11:17:02 7.9 C 6.82 g/m*3 7.9 C 0 km/h
645 04-12-2005 11:27:02 7.9 C 6.82 g/m*3 7.9 C 0 km/h
646 04-12-2005 11:37:03 8 C 6.78 g/m*3 8 C 0 km/h
647 04-12-2005 11:47:01 8 C 6.86 g/m*3 8 C 0 km/h
648 04-12-2005 11:57:01 8.1 C 6.99 g/m*3 8.1 C 0 km/h
649 04-12-2005 12:07:03 8 C 6.94 g/m*3 8 C 0 km/h
650 04-12-2005 12:17:01 7.9 C 7.06 g/m*3 7.9 C 0 km/h
Sensor: Nr:Datum:Temp:Abs-Feuchte:Windchill:Wind:
Aussen-T/F 651 04-12-2005 12:27:01 7.9 C 7.06 g/m*3 7.9 C 0 km/h
652 04-12-2005 12:37:02 8 C 7.03 g/m*3 8 C 0 km/h
653 04-12-2005 12:47:02 8 C 7.03 g/m*3 8 C 0 km/h
654 04-12-2005 12:57:02 8.3 C 7.08 g/m*3 8.3 C 0 km/h
655 04-12-2005 13:07:03 8.4 C 6.87 g/m*3 8.4 C 0 km/h
656 04-12-2005 13:17:02 8.4 C 6.87 g/m*3 8.4 C 0 km/h
657 04-12-2005 13:27:02 8.5 C 6.74 g/m*3 8.5 C 0 km/h
658 04-12-2005 13:37:02 8.6 C 6.79 g/m*3 8.6 C 0 km/h
659 04-12-2005 13:47:03 8.7 C 6.83 g/m*3 8.7 C 0 km/h
660 04-12-2005 13:57:03 8.7 C 6.75 g/m*3 8.7 C 0 km/h
661 04-12-2005 14:07:02 8.5 C 6.92 g/m*3 8.5 C 0 km/h
662 04-12-2005 14:17:02 8.4 C 6.87 g/m*3 8.4 C 0 km/h
663 04-12-2005 14:27:02 8.4 C 6.96 g/m*3 8.4 C 0 km/h
664 04-12-2005 14:37:02 8.3 C 6.83 g/m*3 8.3 C 0 km/h
665 04-12-2005 14:47:02 8.3 C 6.83 g/m*3 8.3 C 0 km/h
666 04-12-2005 14:57:02 8.2 C 6.87 g/m*3 8.2 C 0 km/h
667 04-12-2005 15:07:01 8.1 C 6.91 g/m*3 8.1 C 0 km/h
668 04-12-2005 15:17:01 8 C 6.86 g/m*3 8 C 0 km/h
669 04-12-2005 15:27:01 7.9 C 6.9 g/m*3 7.9 C 0 km/h
670 04-12-2005 15:37:02 8 C 6.78 g/m*3 8 C 0 km/h
671 04-12-2005 15:47:02 8 C 6.78 g/m*3 8 C 0 km/h
672 04-12-2005 15:57:02 7.9 C 6.74 g/m*3 7.9 C 0 km/h
673 04-12-2005 16:07:02 7.9 C 6.49 g/m*3 7.9 C 0 km/h
674 04-12-2005 16:17:02 7.9 C 6.49 g/m*3 7.9 C 0 km/h
675 04-12-2005 16:27:02 8 C 6.28 g/m*3 8 C 0 km/h
Sensor: Nr:Datum:Temp:Abs-Feuchte:Windchill:Wind:
Aussen-T/F 676 04-12-2005 16:37:02 7.9 C 6.41 g/m*3 7.9 C 0 km/h
677 04-12-2005 16:47:02 7.9 C 6.41 g/m*3 7.9 C 0 km/h
678 04-12-2005 16:57:02 7.8 C 6.53 g/m*3 7.8 C 0 km/h
679 04-12-2005 17:07:01 7.8 C 6.53 g/m*3 7.8 C 0 km/h
680 04-12-2005 17:17:01 7.6 C 6.44 g/m*3 7.6 C 0 km/h
681 04-12-2005 17:27:01 7.7 C 6.57 g/m*3 7.7 C 0 km/h
682 04-12-2005 17:37:01 7.7 C 6.57 g/m*3 7.7 C 0 km/h
683 04-12-2005 17:47:02 7.8 C 6.45 g/m*3 7.8 C 0 km/h
684 04-12-2005 17:57:02 7.9 C 6.41 g/m*3 7.9 C 0 km/h
685 04-12-2005 18:07:01 7.7 C 6.32 g/m*3 7.7 C 0 km/h
686 04-12-2005 18:17:01 7.5 C 6.32 g/m*3 7.5 C 0 km/h
687 04-12-2005 18:27:01 7.3 C 6.4 g/m*3 7.3 C 0 km/h
688 04-12-2005 18:37:02 7.2 C 6.44 g/m*3 7.2 C 0 km/h
689 04-12-2005 18:47:01 7.2 C 6.44 g/m*3 7.2 C 0 km/h
690 04-12-2005 18:57:02 7 C 6.35 g/m*3 7 C 0 km/h
691 04-12-2005 19:07:01 6.8 C 6.42 g/m*3 6.8 C 0 km/h
692 04-12-2005 19:17:01 6.7 C 6.46 g/m*3 6.7 C 0 km/h
693 04-12-2005 19:27:01 6.6 C 6.49 g/m*3 6.6 C 0 km/h
694 04-12-2005 19:37:02 6.6 C 6.57 g/m*3 6.6 C 0 km/h
695 04-12-2005 19:47:02 6.7 C 6.69 g/m*3 6.7 C 0 km/h
696 04-12-2005 19:57:02 6.7 C 6.69 g/m*3 6.7 C 0 km/h
697 04-12-2005 20:07:02 6.5 C 6.67 g/m*3 6.5 C 0 km/h
698 04-12-2005 20:17:02 6.7 C 6.76 g/m*3 6.7 C 0 km/h
699 04-12-2005 20:27:02 6.6 C 6.72 g/m*3 6.6 C 0 km/h
700 04-12-2005 20:37:03 6.6 C 6.72 g/m*3 6.6 C 0 km/h
Sensor: Nr:Datum:Temp:Abs-Feuchte:Windchill:Wind:
Aussen-T/F 701 04-12-2005 20:47:02 6.6 C 6.79 g/m*3 6.6 C 0 km/h
702 04-12-2005 20:57:03 6.6 C 6.79 g/m*3 6.6 C 0 km/h
703 04-12-2005 21:07:02 6.6 C 6.79 g/m*3 6.6 C 0 km/h
704 04-12-2005 21:17:02 6.7 C 6.84 g/m*3 6.7 C 0 km/h
705 04-12-2005 21:27:02 6.7 C 6.91 g/m*3 6.7 C 0 km/h
706 04-12-2005 21:37:03 6.7 C 6.91 g/m*3 6.7 C 0 km/h
707 04-12-2005 21:47:02 6.9 C 7.01 g/m*3 6.9 C 0 km/h
708 04-12-2005 21:57:02 7 C 6.97 g/m*3 7 C 0 km/h
709 04-12-2005 22:07:02 7.1 C 6.94 g/m*3 7.1 C 0 km/h
710 04-12-2005 22:17:02 7 C 6.9 g/m*3 7 C 0 km/h
711 04-12-2005 22:27:02 7 C 6.9 g/m*3 7 C 0 km/h
712 04-12-2005 22:37:02 6.9 C 6.85 g/m*3 6.9 C 0 km/h
713 04-12-2005 22:47:02 6.9 C 6.85 g/m*3 6.9 C 0 km/h
714 04-12-2005 22:57:02 6.8 C 6.81 g/m*3 6.8 C 0 km/h
715 04-12-2005 23:07:02 6.7 C 6.69 g/m*3 6.7 C 0 km/h
716 04-12-2005 23:17:02 6.5 C 6.52 g/m*3 6.5 C 0 km/h
717 04-12-2005 23:27:02 6.4 C 6.41 g/m*3 6.4 C 0 km/h
718 04-12-2005 23:37:02 6.3 C 6.44 g/m*3 6.3 C 0 km/h
719 04-12-2005 23:47:02 6.3 C 6.44 g/m*3 6.3 C 0 km/h
720 04-12-2005 23:57:02 6.3 C 6.44 g/m*3 6.3 C 0 km/h
721 05-12-2005 00:07:02 6.3 C 6.44 g/m*3 6.3 C 0 km/h
722 05-12-2005 00:17:03 6.3 C 6.44 g/m*3 6.3 C 0 km/h
723 05-12-2005 00:27:03 6.5 C 6.45 g/m*3 6.5 C 0 km/h
724 05-12-2005 00:37:02 6.6 C 6.42 g/m*3 6.6 C 0 km/h
725 05-12-2005 00:47:02 6.8 C 6.42 g/m*3 6.8 C 0 km/h
Sensor: Nr:Datum:Temp:Abs-Feuchte:Windchill:Wind:
Aussen-T/F 726 05-12-2005 00:57:02 6.7 C 6.38 g/m*3 6.7 C 0 km/h
727 05-12-2005 01:07:01 6.7 C 6.38 g/m*3 6.7 C 0 km/h
728 05-12-2005 01:17:02 6.7 C 6.38 g/m*3 6.7 C 0 km/h
729 05-12-2005 01:27:03 6.7 C 6.38 g/m*3 6.7 C 0 km/h
730 05-12-2005 01:37:02 6.7 C 6.31 g/m*3 6.7 C 0 km/h
731 05-12-2005 01:47:01 6.8 C 6.35 g/m*3 6.8 C 0 km/h
732 05-12-2005 01:57:01 6.8 C 6.35 g/m*3 6.8 C 0 km/h
733 05-12-2005 02:07:01 6.9 C 6.31 g/m*3 6.9 C 0 km/h
734 05-12-2005 02:17:01 7 C 6.28 g/m*3 7 C 0 km/h
735 05-12-2005 02:27:01 7 C 6.28 g/m*3 7 C 0 km/h
736 05-12-2005 02:37:01 6.8 C 6.35 g/m*3 6.8 C 0 km/h
737 05-12-2005 02:48:03 6.9 C 6.39 g/m*3 6.9 C 0 km/h
738 05-12-2005 02:58:03 7 C 6.28 g/m*3 7 C 0 km/h
739 05-12-2005 03:08:03 7 C 6.28 g/m*3 7 C 0 km/h
740 05-12-2005 03:18:03 7 C 6.28 g/m*3 7 C 0 km/h
741 05-12-2005 03:28:03 7 C 6.28 g/m*3 7 C 0 km/h
742 05-12-2005 03:38:03 6.9 C 6.31 g/m*3 6.9 C 0 km/h
743 05-12-2005 03:48:03 6.9 C 6.39 g/m*3 6.9 C 0 km/h
744 05-12-2005 03:58:03 6.7 C 6.31 g/m*3 6.7 C 0 km/h
745 05-12-2005 04:08:02 6.2 C 6.1 g/m*3 6.2 C 0 km/h
746 05-12-2005 04:18:02 5.8 C 6.02 g/m*3 5.8 C 0 km/h
747 05-12-2005 04:28:02 5.7 C 6.12 g/m*3 5.7 C 0 km/h
748 05-12-2005 04:38:02 5.3 C 6.03 g/m*3 5.3 C 0 km/h
749 05-12-2005 04:48:02 5.2 C 5.99 g/m*3 5.2 C 0 km/h
750 05-12-2005 04:58:02 5.1 C 6.02 g/m*3 5.1 C 0 km/h
Sensor: Nr:Datum:Temp:Abs-Feuchte:Windchill:Wind:
Aussen-T/F 751 05-12-2005 05:08:02 5.1 C 6.02 g/m*3 5.1 C 0 km/h
752 05-12-2005 05:18:02 5.1 C 6.02 g/m*3 5.1 C 0 km/h
753 05-12-2005 05:28:02 4.9 C 6.01 g/m*3 4.9 C 0 km/h
754 05-12-2005 05:38:02 4.9 C 6.01 g/m*3 4.9 C 0 km/h
755 05-12-2005 05:48:02 5 C 6.05 g/m*3 5 C 0 km/h
756 05-12-2005 05:58:02 4.9 C 6.01 g/m*3 4.9 C 0 km/h
757 05-12-2005 06:08:02 5.1 C 6.02 g/m*3 5.1 C 0 km/h
758 05-12-2005 06:18:02 5.3 C 6.03 g/m*3 5.3 C 0 km/h
759 05-12-2005 06:28:02 5.1 C 5.88 g/m*3 5.1 C 0 km/h
760 05-12-2005 06:38:01 5 C 5.84 g/m*3 5 C 0 km/h
761 05-12-2005 06:48:02 5 C 5.78 g/m*3 5 C 0 km/h
762 05-12-2005 06:58:02 4.9 C 5.81 g/m*3 4.9 C 0 km/h
763 05-12-2005 07:08:02 5.2 C 5.78 g/m*3 5.2 C 0 km/h
764 05-12-2005 07:18:02 5.2 C 5.65 g/m*3 5.2 C 0 km/h
765 05-12-2005 07:28:02 5.1 C 5.47 g/m*3 5.1 C 0 km/h
766 05-12-2005 07:38:02 4.9 C 5.4 g/m*3 4.9 C 0 km/h
767 05-12-2005 07:48:02 5.2 C 5.44 g/m*3 5.2 C 0 km/h
768 05-12-2005 07:58:02 5.7 C 5.55 g/m*3 5.7 C 0 km/h
769 05-12-2005 08:08:02 5.6 C 5.37 g/m*3 5.6 C 0 km/h
770 05-12-2005 08:18:02 5.5 C 5.41 g/m*3 5.5 C 0 km/h
771 05-12-2005 08:28:02 5.4 C 5.44 g/m*3 5.4 C 0 km/h
772 05-12-2005 08:38:01 5.3 C 5.48 g/m*3 5.3 C 0 km/h
773 05-12-2005 08:48:02 5.2 C 5.51 g/m*3 5.2 C 0 km/h
774 05-12-2005 08:58:02 5.4 C 5.65 g/m*3 5.4 C 0 km/h
775 05-12-2005 09:08:02 5.5 C 5.69 g/m*3 5.5 C 0 km/h
Sensor: Nr:Datum:Temp:Abs-Feuchte:Windchill:Wind:
Aussen-T/F 776 05-12-2005 09:18:02 5.7 C 5.69 g/m*3 5.7 C 0 km/h
777 05-12-2005 09:28:02 5.8 C 5.66 g/m*3 5.8 C 0 km/h
778 05-12-2005 09:38:01 6.2 C 5.66 g/m*3 6.2 C 0 km/h
779 05-12-2005 09:48:02 6.4 C 5.66 g/m*3 6.4 C 0 km/h
780 05-12-2005 09:58:03 6.4 C 5.66 g/m*3 6.4 C 0 km/h
781 05-12-2005 10:08:02 6.6 C 5.66 g/m*3 6.6 C 0 km/h
782 05-12-2005 10:18:02 6.8 C 5.66 g/m*3 6.8 C 0 km/h
783 05-12-2005 10:28:02 6.9 C 5.7 g/m*3 6.9 C 0 km/h
784 05-12-2005 10:38:01 7.1 C 5.62 g/m*3 7.1 C 0 km/h
785 05-12-2005 10:48:02 7.2 C 5.65 g/m*3 7.2 C 0 km/h
786 05-12-2005 10:58:02 7.3 C 5.61 g/m*3 7.3 C 0 km/h
787 05-12-2005 11:08:02 7.3 C 5.61 g/m*3 7.3 C 0 km/h
788 05-12-2005 11:18:01 7.2 C 5.65 g/m*3 7.2 C 0 km/h
789 05-12-2005 11:28:01 6.9 C 5.85 g/m*3 6.9 C 0 km/h
790 05-12-2005 11:38:02 7 C 5.81 g/m*3 7 C 0 km/h
791 05-12-2005 11:48:02 6.8 C 6.04 g/m*3 6.8 C 0 km/h
792 05-12-2005 11:58:02 6.6 C 6.11 g/m*3 6.6 C 0 km/h
793 05-12-2005 12:08:02 6.6 C 6.11 g/m*3 6.6 C 0 km/h
794 05-12-2005 12:18:01 6.6 C 6.04 g/m*3 6.6 C 0 km/h
795 05-12-2005 12:28:01 6.8 C 5.97 g/m*3 6.8 C 0 km/h
796 05-12-2005 12:38:01 7 C 5.81 g/m*3 7 C 0 km/h
797 05-12-2005 12:48:02 7.2 C 5.73 g/m*3 7.2 C 0 km/h
798 05-12-2005 12:58:02 7.3 C 5.77 g/m*3 7.3 C 0 km/h
799 05-12-2005 13:08:01 7.1 C 5.69 g/m*3 7.1 C 0 km/h
800 05-12-2005 13:18:02 7 C 5.66 g/m*3 7 C 0 km/h
Sensor: Nr:Datum:Temp:Abs-Feuchte:Windchill:Wind:
Aussen-T/F 801 05-12-2005 13:28:02 6.9 C 5.77 g/m*3 6.9 C 0 km/h
802 05-12-2005 13:38:02 7.1 C 5.69 g/m*3 7.1 C 0 km/h
803 05-12-2005 13:48:01 7.1 C 5.62 g/m*3 7.1 C 0 km/h
804 05-12-2005 13:58:02 7.3 C 5.61 g/m*3 7.3 C 0 km/h
805 05-12-2005 14:08:01 7.4 C 5.65 g/m*3 7.4 C 0 km/h
806 05-12-2005 14:18:01 7.5 C 5.6 g/m*3 7.5 C 0 km/h
807 05-12-2005 14:28:01 7.6 C 5.64 g/m*3 7.6 C 0 km/h
808 05-12-2005 14:38:02 7.6 C 5.56 g/m*3 7.6 C 0 km/h
809 05-12-2005 14:48:02 7.7 C 5.51 g/m*3 7.7 C 0 km/h
810 05-12-2005 14:58:03 7.6 C 5.48 g/m*3 7.6 C 0 km/h
811 05-12-2005 15:08:02 7.5 C 5.44 g/m*3 7.5 C 0 km/h
812 05-12-2005 15:18:02 7.2 C 5.49 g/m*3 7.2 C 0 km/h
813 05-12-2005 15:28:02 7.2 C 5.49 g/m*3 7.2 C 0 km/h
814 05-12-2005 15:38:03 7.3 C 5.53 g/m*3 7.3 C 0 km/h
815 05-12-2005 15:48:02 7.3 C 5.61 g/m*3 7.3 C 0 km/h
816 05-12-2005 15:58:02 7.3 C 5.61 g/m*3 7.3 C 0 km/h
817 05-12-2005 16:08:02 7.1 C 5.54 g/m*3 7.1 C 0 km/h
818 05-12-2005 16:18:02 7.1 C 5.62 g/m*3 7.1 C 0 km/h
819 05-12-2005 16:28:02 7 C 5.58 g/m*3 7 C 0 km/h
820 05-12-2005 16:38:03 7.1 C 5.62 g/m*3 7.1 C 0 km/h
821 05-12-2005 16:48:02 7 C 5.58 g/m*3 7 C 0 km/h
822 05-12-2005 16:58:03 7 C 5.66 g/m*3 7 C 0 km/h
823 05-12-2005 17:08:02 6.9 C 5.7 g/m*3 6.9 C 0 km/h
824 05-12-2005 17:18:02 6.8 C 5.66 g/m*3 6.8 C 0 km/h
825 05-12-2005 17:28:02 6.9 C 5.7 g/m*3 6.9 C 0 km/h
Sensor: Nr:Datum:Temp:Abs-Feuchte:Windchill:Wind:
Aussen-T/F 826 05-12-2005 17:38:02 7 C 5.58 g/m*3 7 C 0 km/h
827 05-12-2005 17:48:02 6.8 C 5.58 g/m*3 6.8 C 0 km/h
828 05-12-2005 17:58:03 6.6 C 5.59 g/m*3 6.6 C 0 km/h
829 05-12-2005 18:08:02 6.4 C 5.59 g/m*3 6.4 C 0 km/h
830 05-12-2005 18:18:02 6.2 C 5.59 g/m*3 6.2 C 0 km/h
831 05-12-2005 18:28:02 6.2 C 5.59 g/m*3 6.2 C 0 km/h
832 05-12-2005 18:38:02 6.4 C 5.59 g/m*3 6.4 C 0 km/h
833 05-12-2005 18:48:02 6.4 C 5.59 g/m*3 6.4 C 0 km/h
834 05-12-2005 18:58:02 6.4 C 5.59 g/m*3 6.4 C 0 km/h
835 05-12-2005 19:08:02 6.5 C 5.55 g/m*3 6.5 C 0 km/h
836 05-12-2005 19:18:02 6.4 C 5.59 g/m*3 6.4 C 0 km/h
837 05-12-2005 19:28:02 6.4 C 5.59 g/m*3 6.4 C 0 km/h
838 05-12-2005 19:38:02 6.5 C 5.62 g/m*3 6.5 C 0 km/h
839 05-12-2005 19:48:02 6.5 C 5.62 g/m*3 6.5 C 0 km/h
840 05-12-2005 19:58:02 6.4 C 5.51 g/m*3 6.4 C 0 km/h
841 05-12-2005 20:08:01 6.3 C 5.55 g/m*3 6.3 C 0 km/h
842 05-12-2005 20:18:01 6.2 C 5.59 g/m*3 6.2 C 0 km/h
843 05-12-2005 20:28:01 6.2 C 5.59 g/m*3 6.2 C 0 km/h
844 05-12-2005 20:38:02 6.2 C 5.52 g/m*3 6.2 C 0 km/h
845 05-12-2005 20:48:02 6.1 C 5.48 g/m*3 6.1 C 0 km/h
846 05-12-2005 20:58:02 5.9 C 5.55 g/m*3 5.9 C 0 km/h
847 05-12-2005 21:08:01 5.9 C 5.55 g/m*3 5.9 C 0 km/h
848 05-12-2005 21:18:01 5.7 C 5.55 g/m*3 5.7 C 0 km/h
849 05-12-2005 21:28:01 5.8 C 5.59 g/m*3 5.8 C 0 km/h
850 05-12-2005 21:38:02 5.7 C 5.55 g/m*3 5.7 C 0 km/h
Sensor: Nr:Datum:Temp:Abs-Feuchte:Windchill:Wind:
Aussen-T/F 851 05-12-2005 21:48:02 5.8 C 5.59 g/m*3 5.8 C 0 km/h
852 05-12-2005 21:58:02 5.8 C 5.52 g/m*3 5.8 C 0 km/h
853 05-12-2005 22:08:01 5.8 C 5.52 g/m*3 5.8 C 0 km/h
854 05-12-2005 22:18:01 5.8 C 5.52 g/m*3 5.8 C 0 km/h
855 05-12-2005 22:28:01 5.8 C 5.52 g/m*3 5.8 C 0 km/h
856 05-12-2005 22:38:02 6 C 5.44 g/m*3 6 C 0 km/h
857 05-12-2005 22:48:02 6 C 5.37 g/m*3 6 C 0 km/h
858 05-12-2005 22:58:02 6 C 5.3 g/m*3 6 C 0 km/h
859 05-12-2005 23:08:01 6 C 5.3 g/m*3 6 C 0 km/h
860 05-12-2005 23:18:01 6 C 5.3 g/m*3 6 C 0 km/h
861 05-12-2005 23:28:01 5.8 C 5.37 g/m*3 5.8 C 0 km/h
862 05-12-2005 23:38:02 5.8 C 5.44 g/m*3 5.8 C 0 km/h
863 05-12-2005 23:48:01 5.6 C 5.44 g/m*3 5.6 C 0 km/h
864 05-12-2005 23:58:01 5.6 C 5.44 g/m*3 5.6 C 0 km/h
865 06-12-2005 00:08:01 5.6 C 5.51 g/m*3 5.6 C 0 km/h
866 06-12-2005 00:18:02 5.6 C 5.51 g/m*3 5.6 C 0 km/h
867 06-12-2005 00:28:03 5.5 C 5.41 g/m*3 5.5 C 0 km/h
868 06-12-2005 00:38:02 5.1 C 5.27 g/m*3 5.1 C 0 km/h
869 06-12-2005 00:48:02 5 C 5.3 g/m*3 5 C 0 km/h
870 06-12-2005 00:58:02 4.7 C 5.33 g/m*3 4.7 C 0 km/h
871 06-12-2005 01:08:02 4.5 C 5.32 g/m*3 4.5 C 0 km/h
872 06-12-2005 01:18:02 4.6 C 5.36 g/m*3 4.6 C 0 km/h
873 06-12-2005 01:28:02 4.6 C 5.29 g/m*3 4.6 C 0 km/h
874 06-12-2005 01:38:02 4.3 C 5.19 g/m*3 4.3 C 0 km/h
875 06-12-2005 01:48:02 4.4 C 5.29 g/m*3 4.4 C 0 km/h
Sensor: Nr:Datum:Temp:Abs-Feuchte:Windchill:Wind:
Aussen-T/F 876 06-12-2005 01:58:02 4.4 C 5.29 g/m*3 4.4 C 0 km/h
877 06-12-2005 02:08:02 4.4 C 5.35 g/m*3 4.4 C 0 km/h
878 06-12-2005 02:18:02 4.5 C 5.39 g/m*3 4.5 C 0 km/h
879 06-12-2005 02:28:02 4.5 C 5.39 g/m*3 4.5 C 0 km/h
880 06-12-2005 02:38:02 4.6 C 5.49 g/m*3 4.6 C 0 km/h
881 06-12-2005 02:49:03 4.7 C 5.53 g/m*3 4.7 C 0 km/h
882 06-12-2005 02:59:03 4.8 C 5.5 g/m*3 4.8 C 0 km/h
883 06-12-2005 03:09:03 4.8 C 5.5 g/m*3 4.8 C 0 km/h
884 06-12-2005 03:19:04 4.8 C 5.43 g/m*3 4.8 C 0 km/h
885 06-12-2005 03:29:04 4.7 C 5.4 g/m*3 4.7 C 0 km/h
886 06-12-2005 03:39:02 4.7 C 5.4 g/m*3 4.7 C 0 km/h
887 06-12-2005 03:49:02 4.7 C 5.4 g/m*3 4.7 C 0 km/h
888 06-12-2005 03:59:02 4.6 C 5.36 g/m*3 4.6 C 0 km/h
889 06-12-2005 04:09:01 4.6 C 5.36 g/m*3 4.6 C 0 km/h
890 06-12-2005 04:19:02 4.6 C 5.36 g/m*3 4.6 C 0 km/h
891 06-12-2005 04:29:02 4.4 C 5.29 g/m*3 4.4 C 0 km/h
892 06-12-2005 04:39:02 4.3 C 5.25 g/m*3 4.3 C 0 km/h
893 06-12-2005 04:49:02 4.3 C 5.25 g/m*3 4.3 C 0 km/h
894 06-12-2005 04:59:02 4.2 C 5.28 g/m*3 4.2 C 0 km/h
895 06-12-2005 05:09:02 4.2 C 5.28 g/m*3 4.2 C 0 km/h
896 06-12-2005 05:19:02 4.2 C 5.28 g/m*3 4.2 C 0 km/h
897 06-12-2005 05:29:02 4.3 C 5.32 g/m*3 4.3 C 0 km/h
898 06-12-2005 05:39:02 4.3 C 5.32 g/m*3 4.3 C 0 km/h
899 06-12-2005 05:49:02 4.3 C 5.38 g/m*3 4.3 C 0 km/h
900 06-12-2005 05:59:02 4.4 C 5.42 g/m*3 4.4 C 0 km/h
Sensor: Nr:Datum:Temp:Abs-Feuchte:Windchill:Wind:
Aussen-T/F 901 06-12-2005 06:09:02 4.3 C 5.38 g/m*3 4.3 C 0 km/h
902 06-12-2005 06:19:01 4.3 C 5.38 g/m*3 4.3 C 0 km/h
903 06-12-2005 06:29:01 4.4 C 5.42 g/m*3 4.4 C 0 km/h
904 06-12-2005 06:39:02 4.6 C 5.43 g/m*3 4.6 C 0 km/h
905 06-12-2005 06:49:02 4.4 C 5.29 g/m*3 4.4 C 0 km/h
906 06-12-2005 06:59:02 4.3 C 5.32 g/m*3 4.3 C 0 km/h
907 06-12-2005 07:09:01 4.4 C 5.35 g/m*3 4.4 C 0 km/h
908 06-12-2005 07:19:01 4.4 C 5.29 g/m*3 4.4 C 0 km/h
909 06-12-2005 07:29:01 4.5 C 5.32 g/m*3 4.5 C 0 km/h
910 06-12-2005 07:39:02 4.6 C 5.29 g/m*3 4.6 C 0 km/h
911 06-12-2005 07:49:02 4.7 C 5.26 g/m*3 4.7 C 0 km/h
912 06-12-2005 07:59:02 4.7 C 5.2 g/m*3 4.7 C 0 km/h
913 06-12-2005 08:09:02 4.6 C 5.16 g/m*3 4.6 C 0 km/h
914 06-12-2005 08:19:01 4.5 C 5.19 g/m*3 4.5 C 0 km/h
915 06-12-2005 08:29:01 4.4 C 5.16 g/m*3 4.4 C 0 km/h
916 06-12-2005 08:39:01 4.4 C 5.16 g/m*3 4.4 C 0 km/h
917 06-12-2005 08:49:02 4.5 C 5.19 g/m*3 4.5 C 0 km/h
918 06-12-2005 08:59:02 4.5 C 5.19 g/m*3 4.5 C 0 km/h
919 06-12-2005 09:09:01 4.4 C 5.16 g/m*3 4.4 C 0 km/h
920 06-12-2005 09:19:01 4.4 C 5.16 g/m*3 4.4 C 0 km/h
921 06-12-2005 09:29:01 4.5 C 5.26 g/m*3 4.5 C 0 km/h
922 06-12-2005 09:39:02 4.5 C 5.32 g/m*3 4.5 C 0 km/h
923 06-12-2005 09:49:02 4.7 C 5.4 g/m*3 4.7 C 0 km/h
924 06-12-2005 09:59:02 4.6 C 5.36 g/m*3 4.6 C 0 km/h
925 06-12-2005 10:09:01 4.6 C 5.36 g/m*3 4.6 C 0 km/h
Sensor: Nr:Datum:Temp:Abs-Feuchte:Windchill:Wind:
Aussen-T/F 926 06-12-2005 10:19:01 4.4 C 5.29 g/m*3 4.4 C 0 km/h
927 06-12-2005 10:29:01 4.2 C 5.22 g/m*3 4.2 C 0 km/h
928 06-12-2005 10:39:01 4.4 C 5.35 g/m*3 4.4 C 0 km/h
929 06-12-2005 10:49:03 4.4 C 5.35 g/m*3 4.4 C 0 km/h
930 06-12-2005 10:59:03 4.6 C 5.43 g/m*3 4.6 C 0 km/h
931 06-12-2005 11:09:02 4.9 C 5.54 g/m*3 4.9 C 0 km/h
932 06-12-2005 11:19:02 5.1 C 5.54 g/m*3 5.1 C 0 km/h
933 06-12-2005 11:29:02 5.2 C 5.51 g/m*3 5.2 C 0 km/h
934 06-12-2005 11:39:03 5.4 C 5.65 g/m*3 5.4 C 0 km/h
935 06-12-2005 11:49:02 5.6 C 5.66 g/m*3 5.6 C 0 km/h
936 06-12-2005 11:59:02 5.9 C 5.55 g/m*3 5.9 C 0 km/h
937 06-12-2005 12:09:02 6.1 C 5.19 g/m*3 6.1 C 0 km/h
938 06-12-2005 12:19:02 6.2 C 5.22 g/m*3 6.2 C 0 km/h
939 06-12-2005 12:29:02 6 C 5.08 g/m*3 6 C 0 km/h
940 06-12-2005 12:39:02 5.8 C 5.09 g/m*3 5.8 C 0 km/h
941 06-12-2005 12:49:02 5.8 C 5.16 g/m*3 5.8 C 0 km/h
942 06-12-2005 12:59:02 6.2 C 5.07 g/m*3 6.2 C 0 km/h
943 06-12-2005 13:09:02 6.5 C 5.02 g/m*3 6.5 C 0 km/h
944 06-12-2005 13:19:02 6.5 C 4.87 g/m*3 6.5 C 0 km/h
945 06-12-2005 13:29:02 6.6 C 4.91 g/m*3 6.6 C 0 km/h
946 06-12-2005 13:39:03 6.6 C 4.68 g/m*3 6.6 C 0 km/h
947 06-12-2005 13:49:02 6.5 C 4.57 g/m*3 6.5 C 0 km/h
948 06-12-2005 13:59:02 6.7 C 4.64 g/m*3 6.7 C 0 km/h
949 06-12-2005 14:09:02 6.7 C 4.64 g/m*3 6.7 C 0 km/h
950 06-12-2005 14:19:02 6.6 C 4.6 g/m*3 6.6 C 0 km/h
Sensor: Nr:Datum:Temp:Abs-Feuchte:Windchill:Wind:
Aussen-T/F 951 06-12-2005 14:29:02 6.6 C 4.68 g/m*3 6.6 C 0 km/h
952 06-12-2005 14:39:03 6.7 C 4.71 g/m*3 6.7 C 0 km/h
953 06-12-2005 14:49:02 6.7 C 4.71 g/m*3 6.7 C 0 km/h
954 06-12-2005 14:59:02 6.5 C 4.57 g/m*3 6.5 C 0 km/h
955 06-12-2005 15:09:02 6.2 C 4.63 g/m*3 6.2 C 0 km/h
956 06-12-2005 15:19:02 5.9 C 4.61 g/m*3 5.9 C 0 km/h
957 06-12-2005 15:29:02 5.8 C 4.66 g/m*3 5.8 C 0 km/h
958 06-12-2005 15:39:03 5.7 C 4.63 g/m*3 5.7 C 0 km/h
959 06-12-2005 15:49:02 5.7 C 4.63 g/m*3 5.7 C 0 km/h
960 06-12-2005 15:59:02 5.8 C 4.51 g/m*3 5.8 C 0 km/h
961 06-12-2005 16:09:02 5.8 C 4.51 g/m*3 5.8 C 0 km/h
962 06-12-2005 16:19:02 5.7 C 4.55 g/m*3 5.7 C 0 km/h
963 06-12-2005 16:29:02 5.7 C 4.55 g/m*3 5.7 C 0 km/h
964 06-12-2005 16:39:02 5.6 C 4.6 g/m*3 5.6 C 0 km/h
965 06-12-2005 16:49:02 5.6 C 4.74 g/m*3 5.6 C 0 km/h
966 06-12-2005 16:59:03 5.5 C 4.78 g/m*3 5.5 C 0 km/h
967 06-12-2005 17:09:02 5.5 C 4.78 g/m*3 5.5 C 0 km/h
968 06-12-2005 17:19:02 5.4 C 4.81 g/m*3 5.4 C 0 km/h
969 06-12-2005 17:29:02 5.4 C 4.81 g/m*3 5.4 C 0 km/h
970 06-12-2005 17:39:02 5.3 C 4.85 g/m*3 5.3 C 0 km/h
971 06-12-2005 17:49:02 5.3 C 4.92 g/m*3 5.3 C 0 km/h
972 06-12-2005 17:59:02 5.3 C 4.99 g/m*3 5.3 C 0 km/h
973 06-12-2005 18:09:02 5.3 C 4.99 g/m*3 5.3 C 0 km/h
974 06-12-2005 18:19:03 5.3 C 5.06 g/m*3 5.3 C 0 km/h
975 06-12-2005 18:29:03 5.3 C 5.06 g/m*3 5.3 C 0 km/h
Sensor: Nr:Datum:Temp:Abs-Feuchte:Windchill:Wind:
Aussen-T/F 976 06-12-2005 18:39:02 5.3 C 5.06 g/m*3 5.3 C 0 km/h
977 06-12-2005 18:49:03 5.2 C 5.1 g/m*3 5.2 C 0 km/h
978 06-12-2005 18:59:03 5.2 C 5.1 g/m*3 5.2 C 0 km/h
979 06-12-2005 19:09:02 5.2 C 5.1 g/m*3 5.2 C 0 km/h
980 06-12-2005 19:19:02 5.1 C 5.06 g/m*3 5.1 C 0 km/h
981 06-12-2005 19:29:03 5.1 C 5.06 g/m*3 5.1 C 0 km/h
982 06-12-2005 19:39:02 5.1 C 5.06 g/m*3 5.1 C 0 km/h
983 06-12-2005 19:49:02 5 C 5.03 g/m*3 5 C 0 km/h
984 06-12-2005 19:59:02 5 C 5.1 g/m*3 5 C 0 km/h
985 06-12-2005 20:09:02 4.9 C 5.13 g/m*3 4.9 C 0 km/h
986 06-12-2005 20:19:02 4.7 C 5.06 g/m*3 4.7 C 0 km/h
987 06-12-2005 20:29:02 4.7 C 5.06 g/m*3 4.7 C 0 km/h
988 06-12-2005 20:39:03 4.5 C 5.06 g/m*3 4.5 C 0 km/h
989 06-12-2005 20:49:02 4.4 C 5.03 g/m*3 4.4 C 0 km/h
990 06-12-2005 20:59:02 4.2 C 4.96 g/m*3 4.2 C 0 km/h
991 06-12-2005 21:09:02 4.2 C 4.96 g/m*3 4.2 C 0 km/h
992 06-12-2005 21:19:02 4.4 C 5.03 g/m*3 4.4 C 0 km/h
993 06-12-2005 21:29:02 4.6 C 5.1 g/m*3 4.6 C 0 km/h
994 06-12-2005 21:39:03 4.6 C 5.03 g/m*3 4.6 C 0 km/h
995 06-12-2005 21:49:02 4.6 C 5.03 g/m*3 4.6 C 0 km/h
996 06-12-2005 21:59:02 4.6 C 5.03 g/m*3 4.6 C 0 km/h
997 06-12-2005 22:09:02 4.5 C 4.93 g/m*3 4.5 C 0 km/h
998 06-12-2005 22:19:02 4.6 C 4.9 g/m*3 4.6 C 0 km/h
999 06-12-2005 22:29:02 4.6 C 4.96 g/m*3 4.6 C 0 km/h
1000 06-12-2005 22:39:02 4.7 C 4.93 g/m*3 4.7 C 0 km/h
Sensor: Nr:Datum:Temp:Abs-Feuchte:Windchill:Wind:
Aussen-T/F 1001 06-12-2005 22:49:02 4.7 C 5 g/m*3 4.7 C 0 km/h
1002 06-12-2005 22:59:02 4.7 C 5 g/m*3 4.7 C 0 km/h
1003 06-12-2005 23:09:01 4.6 C 5.03 g/m*3 4.6 C 0 km/h
1004 06-12-2005 23:19:01 4.5 C 5.13 g/m*3 4.5 C 0 km/h
1005 06-12-2005 23:29:01 4.3 C 5.19 g/m*3 4.3 C 0 km/h
1006 06-12-2005 23:39:02 4.2 C 5.28 g/m*3 4.2 C 0 km/h
1007 06-12-2005 23:49:02 4.2 C 5.35 g/m*3 4.2 C 0 km/h
1008 06-12-2005 23:59:03 4.3 C 5.45 g/m*3 4.3 C 0 km/h
1009 07-12-2005 00:09:01 4 C 5.4 g/m*3 4 C 0 km/h
1010 07-12-2005 00:19:02 3.9 C 5.49 g/m*3 3.9 C 0 km/h
1011 07-12-2005 00:29:02 4 C 5.47 g/m*3 4 C 0 km/h
1012 07-12-2005 00:39:01 4 C 5.47 g/m*3 4 C 0 km/h
1013 07-12-2005 00:49:02 4 C 5.47 g/m*3 4 C 0 km/h
1014 07-12-2005 00:59:02 3.9 C 5.56 g/m*3 3.9 C 0 km/h
1015 07-12-2005 01:09:02 3.9 C 5.56 g/m*3 3.9 C 0 km/h
1016 07-12-2005 01:19:02 3.9 C 5.49 g/m*3 3.9 C 0 km/h
1017 07-12-2005 01:29:03 3.9 C 5.49 g/m*3 3.9 C 0 km/h
1018 07-12-2005 01:39:02 3.8 C 5.46 g/m*3 3.8 C 0 km/h
1019 07-12-2005 01:49:02 3.8 C 5.46 g/m*3 3.8 C 0 km/h
1020 07-12-2005 01:59:02 3.8 C 5.4 g/m*3 3.8 C 0 km/h
1021 07-12-2005 02:09:02 3.8 C 5.4 g/m*3 3.8 C 0 km/h
1022 07-12-2005 02:19:02 3.8 C 5.4 g/m*3 3.8 C 0 km/h
1023 07-12-2005 02:29:02 3.8 C 5.46 g/m*3 3.8 C 0 km/h
1024 07-12-2005 02:39:02 3.8 C 5.52 g/m*3 3.8 C 0 km/h
1025 07-12-2005 02:50:03 3.7 C 5.48 g/m*3 3.7 C 0 km/h
Sensor: Nr:Datum:Temp:Abs-Feuchte:Windchill:Wind:
Aussen-T/F 1026 07-12-2005 03:00:03 3.7 C 5.55 g/m*3 3.7 C 0 km/h
1027 07-12-2005 03:10:04 3.7 C 5.55 g/m*3 3.7 C 0 km/h
1028 07-12-2005 03:20:04 3.7 C 5.55 g/m*3 3.7 C 0 km/h
1029 07-12-2005 03:30:04 3.7 C 5.55 g/m*3 3.7 C 0 km/h
1030 07-12-2005 03:40:03 3.7 C 5.55 g/m*3 3.7 C 0 km/h
1031 07-12-2005 03:50:03 3.7 C 5.55 g/m*3 3.7 C 0 km/h
1032 07-12-2005 04:00:03 3.7 C 5.55 g/m*3 3.7 C 0 km/h
1033 07-12-2005 04:10:02 3.7 C 5.55 g/m*3 3.7 C 0 km/h
1034 07-12-2005 04:20:03 3.5 C 5.47 g/m*3 3.5 C 0 km/h
1035 07-12-2005 04:30:03 3.5 C 5.47 g/m*3 3.5 C 0 km/h
1036 07-12-2005 04:40:03 3.4 C 5.5 g/m*3 3.4 C 0 km/h
1037 07-12-2005 04:50:03 3.5 C 5.53 g/m*3 3.5 C 0 km/h
1038 07-12-2005 05:00:03 3.4 C 5.5 g/m*3 3.4 C 0 km/h
1039 07-12-2005 05:10:03 3.4 C 5.56 g/m*3 3.4 C 0 km/h
1040 07-12-2005 05:20:03 3.4 C 5.56 g/m*3 3.4 C 0 km/h
1041 07-12-2005 05:30:03 3.5 C 5.6 g/m*3 3.5 C 0 km/h
1042 07-12-2005 05:40:03 3.6 C 5.63 g/m*3 3.6 C 0 km/h
1043 07-12-2005 05:50:03 3.7 C 5.67 g/m*3 3.7 C 0 km/h
1044 07-12-2005 06:00:03 3.7 C 5.67 g/m*3 3.7 C 0 km/h
1045 07-12-2005 06:10:03 3.8 C 5.71 g/m*3 3.8 C 0 km/h
1046 07-12-2005 06:20:02 3.7 C 5.67 g/m*3 3.7 C 0 km/h
1047 07-12-2005 06:30:02 3.8 C 5.77 g/m*3 3.8 C 0 km/h
1048 07-12-2005 06:40:02 3.8 C 5.77 g/m*3 3.8 C 0 km/h
1049 07-12-2005 06:50:02 3.8 C 5.77 g/m*3 3.8 C 0 km/h
1050 07-12-2005 07:00:02 3.8 C 5.77 g/m*3 3.8 C 0 km/h
Sensor: Nr:Datum:Temp:Abs-Feuchte:Windchill:Wind:
Aussen-T/F 1051 07-12-2005 07:10:02 3.9 C 5.81 g/m*3 3.9 C 0 km/h
1052 07-12-2005 07:20:01 4 C 5.85 g/m*3 4 C 0 km/h
1053 07-12-2005 07:30:01 3.9 C 5.81 g/m*3 3.9 C 0 km/h
1054 07-12-2005 07:40:01 4 C 5.85 g/m*3 4 C 0 km/h
1055 07-12-2005 07:50:02 4.1 C 5.89 g/m*3 4.1 C 0 km/h
1056 07-12-2005 08:00:02 4.1 C 5.89 g/m*3 4.1 C 0 km/h
1057 07-12-2005 08:10:02 4.1 C 5.89 g/m*3 4.1 C 0 km/h
1058 07-12-2005 08:20:01 4.2 C 5.93 g/m*3 4.2 C 0 km/h
1059 07-12-2005 08:30:01 4.2 C 5.93 g/m*3 4.2 C 0 km/h
1060 07-12-2005 08:40:02 4.2 C 5.93 g/m*3 4.2 C 0 km/h
1061 07-12-2005 08:50:02 4.3 C 5.97 g/m*3 4.3 C 0 km/h
1062 07-12-2005 09:00:03 4.3 C 5.97 g/m*3 4.3 C 0 km/h
1063 07-12-2005 09:10:01 4.3 C 5.9 g/m*3 4.3 C 0 km/h
1064 07-12-2005 09:20:01 4.4 C 5.94 g/m*3 4.4 C 0 km/h
1065 07-12-2005 09:30:01 4.5 C 5.98 g/m*3 4.5 C 0 km/h
1066 07-12-2005 09:40:02 4.5 C 5.92 g/m*3 4.5 C 0 km/h
1067 07-12-2005 09:50:02 4.7 C 6 g/m*3 4.7 C 0 km/h
1068 07-12-2005 10:00:03 4.7 C 5.93 g/m*3 4.7 C 0 km/h
1069 07-12-2005 10:10:01 4.8 C 5.97 g/m*3 4.8 C 0 km/h
1070 07-12-2005 10:20:01 4.8 C 5.97 g/m*3 4.8 C 0 km/h
1071 07-12-2005 10:30:01 4.9 C 5.94 g/m*3 4.9 C 0 km/h
1072 07-12-2005 10:40:01 5.1 C 5.95 g/m*3 5.1 C 0 km/h
1073 07-12-2005 10:50:02 5.2 C 5.99 g/m*3 5.2 C 0 km/h
1074 07-12-2005 11:00:02 5.2 C 5.92 g/m*3 5.2 C 0 km/h
1075 07-12-2005 11:10:01 5.4 C 5.93 g/m*3 5.4 C 0 km/h
Sensor: Nr:Datum:Temp:Abs-Feuchte:Windchill:Wind:
Aussen-T/F 1076 07-12-2005 11:20:01 5.4 C 5.93 g/m*3 5.4 C 0 km/h
1077 07-12-2005 11:30:01 5.6 C 5.94 g/m*3 5.6 C 0 km/h
1078 07-12-2005 11:40:02 5.7 C 5.98 g/m*3 5.7 C 0 km/h
1079 07-12-2005 11:50:01 5.9 C 5.91 g/m*3 5.9 C 0 km/h
1080 07-12-2005 12:00:01 6 C 5.81 g/m*3 6 C 0 km/h
1081 07-12-2005 12:10:01 6 C 5.73 g/m*3 6 C 0 km/h
1082 07-12-2005 12:20:01 6.2 C 5.74 g/m*3 6.2 C 0 km/h
1083 07-12-2005 12:30:01 6.4 C 5.74 g/m*3 6.4 C 0 km/h
1084 07-12-2005 12:40:02 6.5 C 5.62 g/m*3 6.5 C 0 km/h
1085 07-12-2005 12:50:02 6.6 C 5.59 g/m*3 6.6 C 0 km/h
1086 07-12-2005 13:00:02 6.5 C 5.47 g/m*3 6.5 C 0 km/h
1087 07-12-2005 13:10:02 6.5 C 5.47 g/m*3 6.5 C 0 km/h
1088 07-12-2005 13:20:02 6.5 C 5.47 g/m*3 6.5 C 0 km/h
1089 07-12-2005 13:30:02 6.7 C 5.47 g/m*3 6.7 C 0 km/h
1090 07-12-2005 13:40:03 6.8 C 5.35 g/m*3 6.8 C 0 km/h
1091 07-12-2005 13:50:02 6.8 C 5.35 g/m*3 6.8 C 0 km/h
1092 07-12-2005 14:00:02 6.6 C 5.28 g/m*3 6.6 C 0 km/h
1093 07-12-2005 14:10:02 6.5 C 5.25 g/m*3 6.5 C 0 km/h
1094 07-12-2005 14:20:02 6.7 C 5.32 g/m*3 6.7 C 0 km/h
1095 07-12-2005 14:30:02 6.5 C 5.25 g/m*3 6.5 C 0 km/h
1096 07-12-2005 14:40:03 6.6 C 5.28 g/m*3 6.6 C 0 km/h
1097 07-12-2005 14:50:02 6.7 C 5.32 g/m*3 6.7 C 0 km/h
1098 07-12-2005 15:00:02 6.8 C 5.28 g/m*3 6.8 C 0 km/h
1099 07-12-2005 15:10:02 6.7 C 5.24 g/m*3 6.7 C 0 km/h
1100 07-12-2005 15:20:02 6.7 C 5.32 g/m*3 6.7 C 0 km/h
Sensor: Nr:Datum:Temp:Abs-Feuchte:Windchill:Wind:
Aussen-T/F 1101 07-12-2005 15:30:02 6.6 C 5.36 g/m*3 6.6 C 0 km/h
1102 07-12-2005 15:40:02 6.5 C 5.25 g/m*3 6.5 C 0 km/h
1103 07-12-2005 15:50:02 6.3 C 5.33 g/m*3 6.3 C 0 km/h
1104 07-12-2005 16:00:02 6.3 C 5.33 g/m*3 6.3 C 0 km/h
1105 07-12-2005 16:10:02 6.3 C 5.33 g/m*3 6.3 C 0 km/h
1106 07-12-2005 16:20:02 6.3 C 5.33 g/m*3 6.3 C 0 km/h
1107 07-12-2005 16:30:02 6.3 C 5.33 g/m*3 6.3 C 0 km/h
1108 07-12-2005 16:40:02 6.3 C 5.33 g/m*3 6.3 C 0 km/h
1109 07-12-2005 16:50:02 6.2 C 5.29 g/m*3 6.2 C 0 km/h
1110 07-12-2005 17:00:02 6.3 C 5.33 g/m*3 6.3 C 0 km/h
1111 07-12-2005 17:10:01 6.2 C 5.29 g/m*3 6.2 C 0 km/h
1112 07-12-2005 17:20:01 6.1 C 5.19 g/m*3 6.1 C 0 km/h
1113 07-12-2005 17:30:01 5.9 C 5.26 g/m*3 5.9 C 0 km/h
1114 07-12-2005 17:40:02 5.8 C 5.3 g/m*3 5.8 C 0 km/h
1115 07-12-2005 17:50:02 5.7 C 5.27 g/m*3 5.7 C 0 km/h
1116 07-12-2005 18:00:02 5.6 C 5.23 g/m*3 5.6 C 0 km/h
1117 07-12-2005 18:10:02 5.5 C 5.27 g/m*3 5.5 C 0 km/h
1118 07-12-2005 18:20:01 5.7 C 5.27 g/m*3 5.7 C 0 km/h
1119 07-12-2005 18:30:01 5.8 C 5.3 g/m*3 5.8 C 0 km/h
1120 07-12-2005 18:40:02 5.8 C 5.23 g/m*3 5.8 C 0 km/h
1121 07-12-2005 18:50:02 5.9 C 5.26 g/m*3 5.9 C 0 km/h
1122 07-12-2005 19:00:02 5.8 C 5.3 g/m*3 5.8 C 0 km/h
1123 07-12-2005 19:10:02 5.7 C 5.34 g/m*3 5.7 C 0 km/h
1124 07-12-2005 19:20:01 5.6 C 5.37 g/m*3 5.6 C 0 km/h
1125 07-12-2005 19:30:01 5.6 C 5.44 g/m*3 5.6 C 0 km/h
Sensor: Nr:Datum:Temp:Abs-Feuchte:Windchill:Wind:
Aussen-T/F 1126 07-12-2005 19:40:02 5.4 C 5.44 g/m*3 5.4 C 0 km/h
1127 07-12-2005 19:50:02 5.3 C 5.48 g/m*3 5.3 C 0 km/h
1128 07-12-2005 20:00:02 5.3 C 5.54 g/m*3 5.3 C 0 km/h
1129 07-12-2005 20:10:02 5.2 C 5.51 g/m*3 5.2 C 0 km/h
1130 07-12-2005 20:20:01 5.2 C 5.51 g/m*3 5.2 C 0 km/h
1131 07-12-2005 20:30:01 5.3 C 5.48 g/m*3 5.3 C 0 km/h
1132 07-12-2005 20:40:01 5.3 C 5.48 g/m*3 5.3 C 0 km/h
1133 07-12-2005 20:50:02 5.3 C 5.48 g/m*3 5.3 C 0 km/h
1134 07-12-2005 21:00:02 5.2 C 5.51 g/m*3 5.2 C 0 km/h
1135 07-12-2005 21:10:03 5.2 C 5.44 g/m*3 5.2 C 0 km/h
1136 07-12-2005 21:20:02 5.3 C 5.34 g/m*3 5.3 C 0 km/h
1137 07-12-2005 21:30:03 5.1 C 5.27 g/m*3 5.1 C 0 km/h
1138 07-12-2005 21:40:02 4.9 C 5.33 g/m*3 4.9 C 0 km/h
1139 07-12-2005 21:50:02 4.8 C 5.36 g/m*3 4.8 C 0 km/h
1140 07-12-2005 22:00:02 4.8 C 5.3 g/m*3 4.8 C 0 km/h
1141 07-12-2005 22:10:02 4.9 C 5.33 g/m*3 4.9 C 0 km/h
1142 07-12-2005 22:20:02 4.8 C 5.3 g/m*3 4.8 C 0 km/h
1143 07-12-2005 22:30:02 4.9 C 5.33 g/m*3 4.9 C 0 km/h
1144 07-12-2005 22:40:02 4.8 C 5.3 g/m*3 4.8 C 0 km/h
1145 07-12-2005 22:50:02 4.7 C 5.26 g/m*3 4.7 C 0 km/h
1146 07-12-2005 23:00:02 4.5 C 5.26 g/m*3 4.5 C 0 km/h
1147 07-12-2005 23:10:02 4.3 C 5.25 g/m*3 4.3 C 0 km/h
1148 07-12-2005 23:20:03 4.1 C 5.18 g/m*3 4.1 C 0 km/h
1149 07-12-2005 23:30:03 4.2 C 5.28 g/m*3 4.2 C 0 km/h
1150 07-12-2005 23:40:03 4.3 C 5.38 g/m*3 4.3 C 0 km/h
Sensor: Nr:Datum:Temp:Abs-Feuchte:Windchill:Wind:
Aussen-T/F 1151 07-12-2005 23:50:02 4.4 C 5.42 g/m*3 4.4 C 0 km/h
1152 08-12-2005 00:00:02 4.6 C 5.43 g/m*3 4.6 C 0 km/h
1153 08-12-2005 00:10:02 4.8 C 5.43 g/m*3 4.8 C 0 km/h
1154 08-12-2005 00:20:02 5 C 5.37 g/m*3 5 C 0 km/h
1155 08-12-2005 00:30:02 4.6 C 5.23 g/m*3 4.6 C 0 km/h
1156 08-12-2005 00:40:02 4.5 C 5.26 g/m*3 4.5 C 0 km/h
1157 08-12-2005 00:50:03 4.7 C 5.4 g/m*3 4.7 C 0 km/h
1158 08-12-2005 01:00:03 4.6 C 5.29 g/m*3 4.6 C 0 km/h
1159 08-12-2005 01:10:03 4.7 C 5.33 g/m*3 4.7 C 0 km/h
1160 08-12-2005 01:20:02 4.7 C 5.33 g/m*3 4.7 C 0 km/h
1161 08-12-2005 01:30:02 4.7 C 5.26 g/m*3 4.7 C 0 km/h
1162 08-12-2005 01:40:02 4.6 C 5.23 g/m*3 4.6 C 0 km/h
1163 08-12-2005 01:50:02 4.5 C 5.19 g/m*3 4.5 C 0 km/h
1164 08-12-2005 02:00:02 4.7 C 5.2 g/m*3 4.7 C 0 km/h
1165 08-12-2005 02:10:02 4.7 C 5.13 g/m*3 4.7 C 0 km/h
1166 08-12-2005 02:20:02 4.6 C 5.03 g/m*3 4.6 C 0 km/h
1167 08-12-2005 02:30:02 4.4 C 4.96 g/m*3 4.4 C 0 km/h
1168 08-12-2005 02:40:02 4.5 C 5.06 g/m*3 4.5 C 0 km/h
1169 08-12-2005 02:51:04 4.7 C 5 g/m*3 4.7 C 0 km/h
1170 08-12-2005 03:01:04 4.8 C 4.96 g/m*3 4.8 C 0 km/h
1171 08-12-2005 03:11:03 4.7 C 5 g/m*3 4.7 C 0 km/h
1172 08-12-2005 03:21:03 4.7 C 5 g/m*3 4.7 C 0 km/h
1173 08-12-2005 03:31:02 4.7 C 5 g/m*3 4.7 C 0 km/h
1174 08-12-2005 03:41:02 4.7 C 4.93 g/m*3 4.7 C 0 km/h
1175 08-12-2005 03:51:03 4.7 C 4.93 g/m*3 4.7 C 0 km/h
Sensor: Nr:Datum:Temp:Abs-Feuchte:Windchill:Wind:
Aussen-T/F 1176 08-12-2005 04:01:02 4.6 C 4.9 g/m*3 4.6 C 0 km/h
1177 08-12-2005 04:11:02 4.6 C 4.96 g/m*3 4.6 C 0 km/h
1178 08-12-2005 04:21:02 4.6 C 4.96 g/m*3 4.6 C 0 km/h
1179 08-12-2005 04:31:02 4.6 C 4.96 g/m*3 4.6 C 0 km/h
1180 08-12-2005 04:41:02 4.6 C 4.96 g/m*3 4.6 C 0 km/h
1181 08-12-2005 04:51:01 4.5 C 4.93 g/m*3 4.5 C 0 km/h
1182 08-12-2005 05:01:02 4.6 C 4.96 g/m*3 4.6 C 0 km/h
1183 08-12-2005 05:11:02 4.5 C 5 g/m*3 4.5 C 0 km/h
1184 08-12-2005 05:21:01 4.4 C 5.03 g/m*3 4.4 C 0 km/h
1185 08-12-2005 05:31:01 4.3 C 4.99 g/m*3 4.3 C 0 km/h
1186 08-12-2005 05:41:01 4.3 C 5.06 g/m*3 4.3 C 0 km/h
1187 08-12-2005 05:51:03 4.3 C 5.06 g/m*3 4.3 C 0 km/h
1188 08-12-2005 06:01:02 4.2 C 5.09 g/m*3 4.2 C 0 km/h
1189 08-12-2005 06:11:02 4.2 C 5.09 g/m*3 4.2 C 0 km/h
1190 08-12-2005 06:21:02 4.2 C 5.09 g/m*3 4.2 C 0 km/h
1191 08-12-2005 06:31:02 4.3 C 5.06 g/m*3 4.3 C 0 km/h
1192 08-12-2005 06:41:02 4.3 C 5.06 g/m*3 4.3 C 0 km/h
1193 08-12-2005 06:51:02 4.3 C 4.99 g/m*3 4.3 C 0 km/h
1194 08-12-2005 07:01:01 4.2 C 4.9 g/m*3 4.2 C 0 km/h
1195 08-12-2005 07:11:01 4.2 C 4.9 g/m*3 4.2 C 0 km/h
1196 08-12-2005 07:21:01 4.2 C 4.9 g/m*3 4.2 C 0 km/h
1197 08-12-2005 07:31:01 4.1 C 4.86 g/m*3 4.1 C 0 km/h
1198 08-12-2005 07:41:01 4.1 C 4.8 g/m*3 4.1 C 0 km/h
1199 08-12-2005 07:51:02 4.1 C 4.8 g/m*3 4.1 C 0 km/h
1200 08-12-2005 08:01:02 4 C 4.83 g/m*3 4 C 0 km/h
Sensor: Nr:Datum:Temp:Abs-Feuchte:Windchill:Wind:
Aussen-T/F 1201 08-12-2005 08:11:02 3.9 C 4.86 g/m*3 3.9 C 0 km/h
1202 08-12-2005 08:21:02 3.8 C 4.83 g/m*3 3.8 C 0 km/h
1203 08-12-2005 08:31:01 3.9 C 4.86 g/m*3 3.9 C 0 km/h
1204 08-12-2005 08:41:01 4 C 4.9 g/m*3 4 C 0 km/h
1205 08-12-2005 08:51:02 4.1 C 4.86 g/m*3 4.1 C 0 km/h
1206 08-12-2005 09:01:02 4.1 C 4.86 g/m*3 4.1 C 0 km/h
1207 08-12-2005 09:11:02 4.2 C 4.9 g/m*3 4.2 C 0 km/h
1208 08-12-2005 09:21:02 4.2 C 4.83 g/m*3 4.2 C 0 km/h
1209 08-12-2005 09:31:01 4.3 C 4.86 g/m*3 4.3 C 0 km/h
1210 08-12-2005 09:41:01 4.5 C 4.93 g/m*3 4.5 C 0 km/h
1211 08-12-2005 09:51:02 4.6 C 4.9 g/m*3 4.6 C 0 km/h
1212 08-12-2005 10:01:02 4.8 C 4.96 g/m*3 4.8 C 0 km/h
1213 08-12-2005 10:11:02 4.9 C 5 g/m*3 4.9 C 0 km/h
1214 08-12-2005 10:21:02 5.1 C 4.99 g/m*3 5.1 C 0 km/h
1215 08-12-2005 10:31:01 5.3 C 5.06 g/m*3 5.3 C 0 km/h
1216 08-12-2005 10:41:01 5.3 C 4.92 g/m*3 5.3 C 0 km/h
1217 08-12-2005 10:51:02 5.2 C 4.89 g/m*3 5.2 C 0 km/h
1218 08-12-2005 11:01:02 5.4 C 4.88 g/m*3 5.4 C 0 km/h
1219 08-12-2005 11:11:02 5.8 C 4.94 g/m*3 5.8 C 0 km/h
1220 08-12-2005 11:21:02 6.2 C 4.93 g/m*3 6.2 C 0 km/h
1221 08-12-2005 11:31:02 6.2 C 4.78 g/m*3 6.2 C 0 km/h
1222 08-12-2005 11:41:02 6.2 C 4.78 g/m*3 6.2 C 0 km/h
1223 08-12-2005 11:51:02 6.3 C 4.81 g/m*3 6.3 C 0 km/h
1224 08-12-2005 12:01:02 6.3 C 4.81 g/m*3 6.3 C 0 km/h
1225 08-12-2005 12:11:02 6.6 C 4.91 g/m*3 6.6 C 0 km/h
Sensor: Nr:Datum:Temp:Abs-Feuchte:Windchill:Wind:
Aussen-T/F 1226 08-12-2005 12:21:02 6.8 C 4.97 g/m*3 6.8 C 0 km/h
1227 08-12-2005 12:31:02 6.8 C 4.82 g/m*3 6.8 C 0 km/h
1228 08-12-2005 12:41:02 7 C 4.8 g/m*3 7 C 0 km/h
1229 08-12-2005 12:51:02 6.9 C 4.85 g/m*3 6.9 C 0 km/h
1230 08-12-2005 13:01:02 7 C 4.73 g/m*3 7 C 0 km/h
1231 08-12-2005 13:11:02 6.9 C 4.77 g/m*3 6.9 C 0 km/h
1232 08-12-2005 13:21:02 6.8 C 4.89 g/m*3 6.8 C 0 km/h
1233 08-12-2005 13:31:03 6.6 C 4.76 g/m*3 6.6 C 0 km/h
1234 08-12-2005 13:41:03 6.6 C 4.83 g/m*3 6.6 C 0 km/h
1235 08-12-2005 13:51:02 6.5 C 4.72 g/m*3 6.5 C 0 km/h
1236 08-12-2005 14:01:02 6.5 C 4.72 g/m*3 6.5 C 0 km/h
1237 08-12-2005 14:11:02 6.5 C 4.72 g/m*3 6.5 C 0 km/h
1238 08-12-2005 14:21:02 6.6 C 4.83 g/m*3 6.6 C 0 km/h
1239 08-12-2005 14:31:03 6.6 C 4.76 g/m*3 6.6 C 0 km/h
1240 08-12-2005 14:41:03 6.7 C 4.79 g/m*3 6.7 C 0 km/h
1241 08-12-2005 14:51:02 6.6 C 4.76 g/m*3 6.6 C 0 km/h
1242 08-12-2005 15:01:02 6.5 C 4.72 g/m*3 6.5 C 0 km/h
1243 08-12-2005 15:11:02 6.5 C 4.72 g/m*3 6.5 C 0 km/h
1244 08-12-2005 15:21:02 6.3 C 4.74 g/m*3 6.3 C 0 km/h
1245 08-12-2005 15:31:03 6.1 C 4.89 g/m*3 6.1 C 0 km/h
1246 08-12-2005 15:41:03 5.7 C 5.05 g/m*3 5.7 C 0 km/h
1247 08-12-2005 15:51:02 5.4 C 5.09 g/m*3 5.4 C 0 km/h
1248 08-12-2005 16:01:02 5.2 C 5.23 g/m*3 5.2 C 0 km/h
1249 08-12-2005 16:11:02 5.2 C 5.37 g/m*3 5.2 C 0 km/h
1250 08-12-2005 16:21:02 5.1 C 5.4 g/m*3 5.1 C 0 km/h
Sensor: Nr:Datum:Temp:Abs-Feuchte:Windchill:Wind:
Aussen-T/F 1251 08-12-2005 16:31:03 4.9 C 5.47 g/m*3 4.9 C 0 km/h
1252 08-12-2005 16:41:03 4.9 C 5.54 g/m*3 4.9 C 0 km/h
1253 08-12-2005 16:51:02 4.8 C 5.5 g/m*3 4.8 C 0 km/h
1254 08-12-2005 17:01:02 4.7 C 5.53 g/m*3 4.7 C 0 km/h
1255 08-12-2005 17:11:02 4.6 C 5.49 g/m*3 4.6 C 0 km/h
1256 08-12-2005 17:21:02 4.7 C 5.6 g/m*3 4.7 C 0 km/h
1257 08-12-2005 17:31:02 4.6 C 5.56 g/m*3 4.6 C 0 km/h
1258 08-12-2005 17:41:02 4.5 C 5.52 g/m*3 4.5 C 0 km/h
1259 08-12-2005 17:51:02 4.5 C 5.59 g/m*3 4.5 C 0 km/h
1260 08-12-2005 18:01:02 4.5 C 5.59 g/m*3 4.5 C 0 km/h
1261 08-12-2005 18:11:02 4.4 C 5.55 g/m*3 4.4 C 0 km/h
1262 08-12-2005 18:21:01 4.3 C 5.58 g/m*3 4.3 C 0 km/h
1263 08-12-2005 18:31:02 4.4 C 5.62 g/m*3 4.4 C 0 km/h
1264 08-12-2005 18:41:02 4.3 C 5.58 g/m*3 4.3 C 0 km/h
1265 08-12-2005 18:51:01 4.2 C 5.61 g/m*3 4.2 C 0 km/h
1266 08-12-2005 19:01:02 4.2 C 5.61 g/m*3 4.2 C 0 km/h
1267 08-12-2005 19:11:02 4.1 C 5.57 g/m*3 4.1 C 0 km/h
1268 08-12-2005 19:21:02 4.2 C 5.61 g/m*3 4.2 C 0 km/h
1269 08-12-2005 19:31:02 4 C 5.53 g/m*3 4 C 0 km/h
1270 08-12-2005 19:41:02 4 C 5.59 g/m*3 4 C 0 km/h
1271 08-12-2005 19:51:03 3.9 C 5.62 g/m*3 3.9 C 0 km/h
1272 08-12-2005 20:01:03 4 C 5.59 g/m*3 4 C 0 km/h
1273 08-12-2005 20:11:03 4.1 C 5.7 g/m*3 4.1 C 0 km/h
1274 08-12-2005 20:21:02 4.2 C 5.73 g/m*3 4.2 C 0 km/h
1275 08-12-2005 20:31:02 4 C 5.66 g/m*3 4 C 0 km/h
Sensor: Nr:Datum:Temp:Abs-Feuchte:Windchill:Wind:
Aussen-T/F 1276 08-12-2005 20:41:02 3.8 C 5.58 g/m*3 3.8 C 0 km/h
1277 08-12-2005 20:51:02 3.8 C 5.58 g/m*3 3.8 C 0 km/h
1278 08-12-2005 21:01:02 3.8 C 5.65 g/m*3 3.8 C 0 km/h
1279 08-12-2005 21:11:03 3.9 C 5.68 g/m*3 3.9 C 0 km/h
1280 08-12-2005 21:21:02 3.8 C 5.65 g/m*3 3.8 C 0 km/h
1281 08-12-2005 21:31:01 3.8 C 5.65 g/m*3 3.8 C 0 km/h
1282 08-12-2005 21:41:01 3.6 C 5.57 g/m*3 3.6 C 0 km/h
1283 08-12-2005 21:51:02 3.7 C 5.61 g/m*3 3.7 C 0 km/h
1284 08-12-2005 22:01:02 3.7 C 5.67 g/m*3 3.7 C 0 km/h
1285 08-12-2005 22:11:02 3.8 C 5.71 g/m*3 3.8 C 0 km/h
1286 08-12-2005 22:21:02 3.8 C 5.71 g/m*3 3.8 C 0 km/h
1287 08-12-2005 22:31:03 3.8 C 5.71 g/m*3 3.8 C 0 km/h
1288 08-12-2005 22:41:03 3.7 C 5.67 g/m*3 3.7 C 0 km/h
1289 08-12-2005 22:51:02 3.3 C 5.46 g/m*3 3.3 C 0 km/h
1290 08-12-2005 23:01:02 3 C 5.35 g/m*3 3 C 0 km/h
1291 08-12-2005 23:11:02 2.7 C 5.24 g/m*3 2.7 C 0 km/h
1292 08-12-2005 23:21:02 2.8 C 5.28 g/m*3 2.8 C 0 km/h
1293 08-12-2005 23:31:02 3 C 5.41 g/m*3 3 C 0 km/h
1294 08-12-2005 23:41:02 3 C 5.41 g/m*3 3 C 0 km/h
1295 08-12-2005 23:51:02 2.9 C 5.37 g/m*3 2.9 C 0 km/h
1296 09-12-2005 00:01:02 2.8 C 5.34 g/m*3 2.8 C 0 km/h
1297 09-12-2005 00:11:02 2.9 C 5.43 g/m*3 2.9 C 0 km/h
1298 09-12-2005 00:21:02 3 C 5.41 g/m*3 3 C 0 km/h
1299 09-12-2005 00:31:02 3 C 5.41 g/m*3 3 C 0 km/h
1300 09-12-2005 00:41:02 3 C 5.41 g/m*3 3 C 0 km/h
Sensor: Nr:Datum:Temp:Abs-Feuchte:Windchill:Wind:
Aussen-T/F 1301 09-12-2005 00:51:02 3 C 5.41 g/m*3 3 C 0 km/h
1302 09-12-2005 01:01:02 2.8 C 5.4 g/m*3 2.8 C 0 km/h
1303 09-12-2005 01:11:02 2.8 C 5.4 g/m*3 2.8 C 0 km/h
1304 09-12-2005 01:21:03 2.9 C 5.43 g/m*3 2.9 C 0 km/h
1305 09-12-2005 01:31:02 2.9 C 5.43 g/m*3 2.9 C 0 km/h
1306 09-12-2005 01:41:02 2.9 C 5.43 g/m*3 2.9 C 0 km/h
1307 09-12-2005 01:51:02 3 C 5.47 g/m*3 3 C 0 km/h
1308 09-12-2005 02:01:02 3 C 5.47 g/m*3 3 C 0 km/h
1309 09-12-2005 02:11:02 3.1 C 5.51 g/m*3 3.1 C 0 km/h
1310 09-12-2005 02:21:01 3.1 C 5.51 g/m*3 3.1 C 0 km/h
1311 09-12-2005 02:31:01 3.1 C 5.51 g/m*3 3.1 C 0 km/h
1312 09-12-2005 02:41:01 3.1 C 5.51 g/m*3 3.1 C 0 km/h
1313 09-12-2005 02:52:03 3.1 C 5.51 g/m*3 3.1 C 0 km/h
1314 09-12-2005 03:02:04 3 C 5.41 g/m*3 3 C 0 km/h
1315 09-12-2005 03:12:03 3 C 5.41 g/m*3 3 C 0 km/h
1316 09-12-2005 03:22:03 3 C 5.41 g/m*3 3 C 0 km/h
1317 09-12-2005 03:32:02 2.9 C 5.43 g/m*3 2.9 C 0 km/h
1318 09-12-2005 03:42:02 3 C 5.41 g/m*3 3 C 0 km/h
1319 09-12-2005 03:52:02 3 C 5.41 g/m*3 3 C 0 km/h
1320 09-12-2005 04:02:03 3.1 C 5.51 g/m*3 3.1 C 0 km/h
1321 09-12-2005 04:12:03 3.1 C 5.51 g/m*3 3.1 C 0 km/h
1322 09-12-2005 04:22:02 3.2 C 5.54 g/m*3 3.2 C 0 km/h
1323 09-12-2005 04:32:02 3.2 C 5.48 g/m*3 3.2 C 0 km/h
1324 09-12-2005 04:42:02 3.2 C 5.48 g/m*3 3.2 C 0 km/h
1325 09-12-2005 04:52:01 3.2 C 5.48 g/m*3 3.2 C 0 km/h
Sensor: Nr:Datum:Temp:Abs-Feuchte:Windchill:Wind:
Aussen-T/F 1326 09-12-2005 05:02:02 3.3 C 5.52 g/m*3 3.3 C 0 km/h
1327 09-12-2005 05:12:02 3.3 C 5.52 g/m*3 3.3 C 0 km/h
1328 09-12-2005 05:22:02 3.3 C 5.52 g/m*3 3.3 C 0 km/h
1329 09-12-2005 05:32:01 3.2 C 5.42 g/m*3 3.2 C 0 km/h
1330 09-12-2005 05:42:01 3.1 C 5.39 g/m*3 3.1 C 0 km/h
1331 09-12-2005 05:52:02 3.1 C 5.39 g/m*3 3.1 C 0 km/h
1332 09-12-2005 06:02:02 3.2 C 5.48 g/m*3 3.2 C 0 km/h
1333 09-12-2005 06:12:02 3.3 C 5.52 g/m*3 3.3 C 0 km/h
1334 09-12-2005 06:22:02 3.3 C 5.52 g/m*3 3.3 C 0 km/h
1335 09-12-2005 06:32:02 3.4 C 5.56 g/m*3 3.4 C 0 km/h
1336 09-12-2005 06:42:02 3.4 C 5.56 g/m*3 3.4 C 0 km/h
1337 09-12-2005 06:52:02 3.5 C 5.53 g/m*3 3.5 C 0 km/h
1338 09-12-2005 07:02:02 3.5 C 5.53 g/m*3 3.5 C 0 km/h
1339 09-12-2005 07:12:02 3.5 C 5.53 g/m*3 3.5 C 0 km/h
1340 09-12-2005 07:22:02 3.5 C 5.53 g/m*3 3.5 C 0 km/h
1341 09-12-2005 07:32:02 3.5 C 5.53 g/m*3 3.5 C 0 km/h
1342 09-12-2005 07:42:02 3.5 C 5.53 g/m*3 3.5 C 0 km/h
1343 09-12-2005 07:52:02 3.5 C 5.47 g/m*3 3.5 C 0 km/h
1344 09-12-2005 08:02:02 3.5 C 5.47 g/m*3 3.5 C 0 km/h
1345 09-12-2005 08:12:02 3.6 C 5.51 g/m*3 3.6 C 0 km/h
1346 09-12-2005 08:22:02 3.6 C 5.51 g/m*3 3.6 C 0 km/h
1347 09-12-2005 08:32:02 3.6 C 5.51 g/m*3 3.6 C 0 km/h
1348 09-12-2005 08:42:02 3.5 C 5.47 g/m*3 3.5 C 0 km/h
1349 09-12-2005 08:52:02 3.6 C 5.51 g/m*3 3.6 C 0 km/h
1350 09-12-2005 09:02:02 3.6 C 5.51 g/m*3 3.6 C 0 km/h
Sensor: Nr:Datum:Temp:Abs-Feuchte:Windchill:Wind:
Aussen-T/F 1351 09-12-2005 09:12:02 3.6 C 5.51 g/m*3 3.6 C 0 km/h
1352 09-12-2005 09:22:02 3.6 C 5.51 g/m*3 3.6 C 0 km/h
1353 09-12-2005 09:32:02 3.7 C 5.55 g/m*3 3.7 C 0 km/h
1354 09-12-2005 09:42:02 3.8 C 5.58 g/m*3 3.8 C 0 km/h
1355 09-12-2005 09:52:02 3.9 C 5.62 g/m*3 3.9 C 0 km/h
1356 09-12-2005 10:02:02 4.1 C 5.63 g/m*3 4.1 C 0 km/h
1357 09-12-2005 10:12:02 4.1 C 5.57 g/m*3 4.1 C 0 km/h
1358 09-12-2005 10:22:02 4.3 C 5.64 g/m*3 4.3 C 0 km/h
1359 09-12-2005 10:32:02 4.3 C 5.64 g/m*3 4.3 C 0 km/h
1360 09-12-2005 10:42:02 4.4 C 5.62 g/m*3 4.4 C 0 km/h
1361 09-12-2005 10:52:02 4.4 C 5.55 g/m*3 4.4 C 0 km/h
1362 09-12-2005 11:02:01 4.5 C 5.52 g/m*3 4.5 C 0 km/h
1363 09-12-2005 11:12:01 4.6 C 5.56 g/m*3 4.6 C 0 km/h
1364 09-12-2005 11:22:01 4.7 C 5.53 g/m*3 4.7 C 0 km/h
1365 09-12-2005 11:32:02 4.7 C 5.26 g/m*3 4.7 C 0 km/h
1366 09-12-2005 11:42:02 4.7 C 5.2 g/m*3 4.7 C 0 km/h
1367 09-12-2005 11:52:01 4.9 C 5.27 g/m*3 4.9 C 0 km/h
1368 09-12-2005 12:02:01 5 C 5.03 g/m*3 5 C 0 km/h
1369 09-12-2005 12:12:01 4.9 C 5 g/m*3 4.9 C 0 km/h
1370 09-12-2005 12:22:01 4.7 C 4.66 g/m*3 4.7 C 0 km/h
1371 09-12-2005 12:32:02 4.4 C 4.44 g/m*3 4.4 C 0 km/h
1372 09-12-2005 12:42:02 4.3 C 4.41 g/m*3 4.3 C 0 km/h
1373 09-12-2005 12:52:02 4.3 C 4.48 g/m*3 4.3 C 0 km/h
1374 09-12-2005 13:02:01 4.2 C 4.38 g/m*3 4.2 C 0 km/h
1375 09-12-2005 13:12:01 4.2 C 4.45 g/m*3 4.2 C 0 km/h
Sensor: Nr:Datum:Temp:Abs-Feuchte:Windchill:Wind:
Aussen-T/F 1376 09-12-2005 13:22:01 4.3 C 4.48 g/m*3 4.3 C 0 km/h
1377 09-12-2005 13:32:02 4.3 C 4.48 g/m*3 4.3 C 0 km/h
1378 09-12-2005 13:42:02 4.4 C 4.51 g/m*3 4.4 C 0 km/h
1379 09-12-2005 13:52:02 4.5 C 4.54 g/m*3 4.5 C 0 km/h
1380 09-12-2005 14:02:01 4.6 C 4.57 g/m*3 4.6 C 0 km/h
1381 09-12-2005 14:12:01 4.8 C 4.56 g/m*3 4.8 C 0 km/h
1382 09-12-2005 14:22:01 4.8 C 4.63 g/m*3 4.8 C 0 km/h
1383 09-12-2005 14:32:01 4.8 C 4.56 g/m*3 4.8 C 0 km/h
1384 09-12-2005 14:42:01 4.8 C 4.49 g/m*3 4.8 C 0 km/h
1385 09-12-2005 14:52:02 4.7 C 4.53 g/m*3 4.7 C 0 km/h
1386 09-12-2005 15:02:01 4.7 C 4.6 g/m*3 4.7 C 0 km/h
1387 09-12-2005 15:12:01 4.7 C 4.6 g/m*3 4.7 C 0 km/h
1388 09-12-2005 15:22:02 4.7 C 4.53 g/m*3 4.7 C 0 km/h
1389 09-12-2005 15:32:01 4.7 C 4.53 g/m*3 4.7 C 0 km/h
1390 09-12-2005 15:42:01 4.7 C 4.53 g/m*3 4.7 C 0 km/h
1391 09-12-2005 15:52:03 4.6 C 4.63 g/m*3 4.6 C 0 km/h
1392 09-12-2005 16:02:03 4.5 C 4.6 g/m*3 4.5 C 0 km/h
1393 09-12-2005 16:12:04 4.3 C 4.61 g/m*3 4.3 C 0 km/h
1394 09-12-2005 16:22:01 4.2 C 4.64 g/m*3 4.2 C 0 km/h
1395 09-12-2005 16:32:02 4.1 C 4.67 g/m*3 4.1 C 0 km/h
1396 09-12-2005 16:42:02 4 C 4.64 g/m*3 4 C 0 km/h
1397 09-12-2005 16:52:02 3.9 C 4.67 g/m*3 3.9 C 0 km/h
1398 09-12-2005 17:02:02 3.8 C 4.64 g/m*3 3.8 C 0 km/h
1399 09-12-2005 17:12:02 3.8 C 4.64 g/m*3 3.8 C 0 km/h
1400 09-12-2005 17:22:02 3.8 C 4.64 g/m*3 3.8 C 0 km/h
Sensor: Nr:Datum:Temp:Abs-Feuchte:Windchill:Wind:
Aussen-T/F 1401 09-12-2005 17:32:02 3.7 C 4.67 g/m*3 3.7 C 0 km/h
1402 09-12-2005 17:42:02 3.7 C 4.67 g/m*3 3.7 C 0 km/h
1403 09-12-2005 17:52:02 3.7 C 4.74 g/m*3 3.7 C 0 km/h
1404 09-12-2005 18:02:02 3.7 C 4.74 g/m*3 3.7 C 0 km/h
1405 09-12-2005 18:12:02 3.7 C 4.74 g/m*3 3.7 C 0 km/h
1406 09-12-2005 18:22:02 3.6 C 4.7 g/m*3 3.6 C 0 km/h
1407 09-12-2005 18:32:03 3.6 C 4.7 g/m*3 3.6 C 0 km/h
1408 09-12-2005 18:42:03 3.6 C 4.7 g/m*3 3.6 C 0 km/h
1409 09-12-2005 18:52:02 3.5 C 4.67 g/m*3 3.5 C 0 km/h
1410 09-12-2005 19:02:02 3.4 C 4.7 g/m*3 3.4 C 0 km/h
1411 09-12-2005 19:12:02 3.5 C 4.73 g/m*3 3.5 C 0 km/h
1412 09-12-2005 19:22:02 3.5 C 4.8 g/m*3 3.5 C 0 km/h
1413 09-12-2005 19:32:03 3.5 C 4.8 g/m*3 3.5 C 0 km/h
1414 09-12-2005 19:42:03 3.5 C 4.8 g/m*3 3.5 C 0 km/h
1415 09-12-2005 19:52:02 3.4 C 4.76 g/m*3 3.4 C 0 km/h
1416 09-12-2005 20:02:02 3.4 C 4.76 g/m*3 3.4 C 0 km/h
1417 09-12-2005 20:12:02 3.4 C 4.83 g/m*3 3.4 C 0 km/h
1418 09-12-2005 20:22:02 3.4 C 4.83 g/m*3 3.4 C 0 km/h
1419 09-12-2005 20:32:03 3.4 C 4.83 g/m*3 3.4 C 0 km/h
1420 09-12-2005 20:42:03 3.3 C 4.79 g/m*3 3.3 C 0 km/h
1421 09-12-2005 20:52:03 3.3 C 4.79 g/m*3 3.3 C 0 km/h
1422 09-12-2005 21:02:03 3.3 C 4.79 g/m*3 3.3 C 0 km/h
1423 09-12-2005 21:12:03 3.3 C 4.79 g/m*3 3.3 C 0 km/h
1424 09-12-2005 21:22:15 3.3 C 4.73 g/m*3 3.3 C 0 km/h
1425 09-12-2005 21:32:15 3.4 C 4.76 g/m*3 3.4 C 0 km/h
Sensor: Nr:Datum:Temp:Abs-Feuchte:Windchill:Wind:
Aussen-T/F 1426 09-12-2005 21:42:15 3.4 C 4.76 g/m*3 3.4 C 0 km/h
1427 09-12-2005 21:52:16 3.3 C 4.73 g/m*3 3.3 C 0 km/h
1428 09-12-2005 22:02:02 3.3 C 4.79 g/m*3 3.3 C 0 km/h
1429 09-12-2005 22:12:02 3.3 C 4.79 g/m*3 3.3 C 0 km/h
1430 09-12-2005 22:22:02 3.3 C 4.79 g/m*3 3.3 C 0 km/h
1431 09-12-2005 22:32:02 3.2 C 4.76 g/m*3 3.2 C 0 km/h
1432 09-12-2005 22:42:02 3.2 C 4.82 g/m*3 3.2 C 0 km/h
1433 09-12-2005 22:52:02 3.2 C 4.82 g/m*3 3.2 C 0 km/h
1434 09-12-2005 23:02:02 3.2 C 4.7 g/m*3 3.2 C 0 km/h
1435 09-12-2005 23:12:02 3.4 C 4.76 g/m*3 3.4 C 0 km/h
1436 09-12-2005 23:22:02 3.3 C 4.73 g/m*3 3.3 C 0 km/h
1437 09-12-2005 23:32:02 3.4 C 4.64 g/m*3 3.4 C 0 km/h
1438 09-12-2005 23:42:02 3.3 C 4.61 g/m*3 3.3 C 0 km/h
1439 09-12-2005 23:52:02 3.2 C 4.58 g/m*3 3.2 C 0 km/h
1440 10-12-2005 00:02:02 3.1 C 4.61 g/m*3 3.1 C 0 km/h
1441 10-12-2005 00:12:02 3.1 C 4.61 g/m*3 3.1 C 0 km/h
1442 10-12-2005 00:22:02 3 C 4.58 g/m*3 3 C 0 km/h
1443 10-12-2005 00:32:02 3 C 4.58 g/m*3 3 C 0 km/h
1444 10-12-2005 00:42:03 2.9 C 4.61 g/m*3 2.9 C 0 km/h
1445 10-12-2005 00:52:02 2.8 C 4.58 g/m*3 2.8 C 0 km/h
1446 10-12-2005 01:02:02 2.7 C 4.54 g/m*3 2.7 C 0 km/h
1447 10-12-2005 01:12:02 2.6 C 4.46 g/m*3 2.6 C 0 km/h
1448 10-12-2005 01:22:02 2.5 C 4.43 g/m*3 2.5 C 0 km/h
1449 10-12-2005 01:32:02 2.5 C 4.43 g/m*3 2.5 C 0 km/h
1450 10-12-2005 01:42:02 2.4 C 4.4 g/m*3 2.4 C 0 km/h
Sensor: Nr:Datum:Temp:Abs-Feuchte:Windchill:Wind:
Aussen-T/F 1451 10-12-2005 01:52:02 2.5 C 4.48 g/m*3 2.5 C 0 km/h
1452 10-12-2005 02:02:02 2.5 C 4.48 g/m*3 2.5 C 0 km/h
1453 10-12-2005 02:12:02 2.5 C 4.48 g/m*3 2.5 C 0 km/h
1454 10-12-2005 02:22:02 2.5 C 4.48 g/m*3 2.5 C 0 km/h
1455 10-12-2005 02:32:02 2.6 C 4.46 g/m*3 2.6 C 0 km/h
1456 10-12-2005 02:42:02 2.3 C 4.31 g/m*3 2.3 C 0 km/h
1457 10-12-2005 02:53:04 1.9 C 4.25 g/m*3 1.9 C 0 km/h
1458 10-12-2005 03:03:04 1.5 C 4.19 g/m*3 1.5 C 0 km/h
1459 10-12-2005 03:13:05 1.1 C 4.13 g/m*3 1.1 C 0 km/h
1460 10-12-2005 03:23:05 0.9 C 4.18 g/m*3 0.9 C 0 km/h
1461 10-12-2005 03:33:04 0.7 C 4.12 g/m*3 0.7 C 0 km/h
1462 10-12-2005 03:43:04 0.4 C 4.08 g/m*3 0.4 C 0 km/h
1463 10-12-2005 03:53:04 0.3 C 4.06 g/m*3 0.3 C 0 km/h
1464 10-12-2005 04:03:04 0.2 C 4.08 g/m*3 0.2 C 0 km/h
1465 10-12-2005 04:13:04 0 C 4.02 g/m*3 0 C 0 km/h
1466 10-12-2005 04:23:04 -0.1 C 3.99 g/m*3 -0.1 C 0 km/h
1467 10-12-2005 04:33:05 -0.3 C 3.94 g/m*3 -0.3 C 0 km/h
1468 10-12-2005 04:43:05 -0.3 C 3.99 g/m*3 -0.3 C 0 km/h
1469 10-12-2005 04:53:04 -0.4 C 3.96 g/m*3 -0.4 C 0 km/h
1470 10-12-2005 05:03:05 -0.5 C 3.93 g/m*3 -0.5 C 0 km/h
1471 10-12-2005 05:13:05 -0.6 C 3.9 g/m*3 -0.6 C 0 km/h
1472 10-12-2005 05:23:05 -0.7 C 3.92 g/m*3 -0.7 C 0 km/h
1473 10-12-2005 05:33:05 -0.7 C 3.92 g/m*3 -0.7 C 0 km/h
1474 10-12-2005 05:43:05 -0.9 C 3.87 g/m*3 -0.9 C 0 km/h
1475 10-12-2005 05:53:04 -1.2 C 3.79 g/m*3 -1.2 C 0 km/h
Sensor: Nr:Datum:Temp:Abs-Feuchte:Windchill:Wind:
Aussen-T/F 1476 10-12-2005 06:03:05 -1.3 C 3.76 g/m*3 -1.3 C 0 km/h
1477 10-12-2005 06:13:05 -1.3 C 3.76 g/m*3 -1.3 C 0 km/h
1478 10-12-2005 06:23:05 -1.4 C 3.74 g/m*3 -1.4 C 0 km/h
1479 10-12-2005 06:33:04 -1.4 C 3.74 g/m*3 -1.4 C 0 km/h
1480 10-12-2005 06:43:04 -1.6 C 3.68 g/m*3 -1.6 C 0 km/h
1481 10-12-2005 06:53:05 -1.6 C 3.68 g/m*3 -1.6 C 0 km/h
1482 10-12-2005 07:03:04 -1.7 C 3.7 g/m*3 -1.7 C 0 km/h
1483 10-12-2005 07:13:04 -1.8 C 3.68 g/m*3 -1.8 C 0 km/h
1484 10-12-2005 07:23:04 -1.9 C 3.65 g/m*3 -1.9 C 0 km/h
1485 10-12-2005 07:33:05 -2 C 3.63 g/m*3 -2 C 0 km/h
1486 10-12-2005 07:43:05 -2.2 C 3.57 g/m*3 -2.2 C 0 km/h
1487 10-12-2005 07:53:04 -2.3 C 3.55 g/m*3 -2.3 C 0 km/h
1488 10-12-2005 08:03:05 -2.3 C 3.55 g/m*3 -2.3 C 0 km/h
1489 10-12-2005 08:13:05 -2.3 C 3.59 g/m*3 -2.3 C 0 km/h
1490 10-12-2005 08:23:05 -2.1 C 3.68 g/m*3 -2.1 C 0 km/h
1491 10-12-2005 08:33:04 -2.1 C 3.68 g/m*3 -2.1 C 0 km/h
1492 10-12-2005 08:43:04 -2 C 3.71 g/m*3 -2 C 0 km/h
1493 10-12-2005 08:53:05 -2.1 C 3.73 g/m*3 -2.1 C 0 km/h
1494 10-12-2005 09:03:04 -2 C 3.75 g/m*3 -2 C 0 km/h
1495 10-12-2005 09:13:04 -1.9 C 3.82 g/m*3 -1.9 C 0 km/h
1496 10-12-2005 09:23:05 -1.9 C 3.82 g/m*3 -1.9 C 0 km/h
1497 10-12-2005 09:33:05 -1.8 C 3.89 g/m*3 -1.8 C 0 km/h
1498 10-12-2005 09:43:05 -1.7 C 3.92 g/m*3 -1.7 C 0 km/h
1499 10-12-2005 09:53:05 -1.7 C 3.92 g/m*3 -1.7 C 0 km/h
1500 10-12-2005 10:03:05 -1.7 C 3.92 g/m*3 -1.7 C 0 km/h
Sensor: Nr:Datum:Temp:Abs-Feuchte:Windchill:Wind:
Aussen-T/F 1501 10-12-2005 10:13:05 -1.7 C 3.92 g/m*3 -1.7 C 0 km/h
1502 10-12-2005 10:23:05 -1.7 C 3.92 g/m*3 -1.7 C 0 km/h
1503 10-12-2005 10:33:04 -1.6 C 3.99 g/m*3 -1.6 C 0 km/h
1504 10-12-2005 10:43:04 -1.5 C 4.02 g/m*3 -1.5 C 0 km/h
1505 10-12-2005 10:53:05 -1.3 C 4.07 g/m*3 -1.3 C 0 km/h
1506 10-12-2005 11:03:05 -1.2 C 4.1 g/m*3 -1.2 C 0 km/h
1507 10-12-2005 11:13:05 -1.2 C 4.06 g/m*3 -1.2 C 0 km/h
1508 10-12-2005 11:23:05 -1.4 C 4 g/m*3 -1.4 C 0 km/h
1509 10-12-2005 11:33:05 -1.5 C 3.97 g/m*3 -1.5 C 0 km/h
1510 10-12-2005 11:43:05 -1.5 C 3.93 g/m*3 -1.5 C 0 km/h
1511 10-12-2005 11:53:05 -1.4 C 3.96 g/m*3 -1.4 C 0 km/h
1512 10-12-2005 12:03:05 -1.4 C 3.96 g/m*3 -1.4 C 0 km/h
1513 10-12-2005 12:13:05 -1.3 C 3.98 g/m*3 -1.3 C 0 km/h
1514 10-12-2005 12:23:05 -1.3 C 3.98 g/m*3 -1.3 C 0 km/h
1515 10-12-2005 12:33:05 -1.3 C 3.98 g/m*3 -1.3 C 0 km/h
1516 10-12-2005 12:43:05 -1 C 4.07 g/m*3 -1 C 0 km/h
1517 10-12-2005 12:53:04 -0.9 C 4.14 g/m*3 -0.9 C 0 km/h
1518 10-12-2005 13:03:05 -0.6 C 4.23 g/m*3 -0.6 C 0 km/h
1519 10-12-2005 13:13:05 -0.5 C 4.26 g/m*3 -0.5 C 0 km/h
1520 10-12-2005 13:23:05 -0.5 C 4.26 g/m*3 -0.5 C 0 km/h
1521 10-12-2005 13:33:05 -0.4 C 4.29 g/m*3 -0.4 C 0 km/h
1522 10-12-2005 13:43:05 -0.4 C 4.29 g/m*3 -0.4 C 0 km/h
1523 10-12-2005 13:53:05 -0.2 C 4.35 g/m*3 -0.2 C 0 km/h
1524 10-12-2005 14:03:05 -0.1 C 4.33 g/m*3 -0.1 C 0 km/h
1525 10-12-2005 14:13:05 -0.1 C 4.33 g/m*3 -0.1 C 0 km/h
Sensor: Nr:Datum:Temp:Abs-Feuchte:Windchill:Wind:
Aussen-T/F 1526 10-12-2005 14:23:06 0 C 4.31 g/m*3 0 C 0 km/h
1527 10-12-2005 14:33:05 -0.1 C 4.23 g/m*3 -0.1 C 0 km/h
1528 10-12-2005 14:43:05 0 C 4.22 g/m*3 0 C 0 km/h
1529 10-12-2005 14:53:06 0 C 4.07 g/m*3 0 C 0 km/h
1530 10-12-2005 15:03:05 0.1 C 4 g/m*3 0.1 C 0 km/h
1531 10-12-2005 15:13:05 0.1 C 3.85 g/m*3 0.1 C 0 km/h
1532 10-12-2005 15:23:05 0 C 3.78 g/m*3 0 C 0 km/h
1533 10-12-2005 15:33:05 0 C 3.73 g/m*3 0 C 0 km/h
1534 10-12-2005 15:43:05 -0.1 C 3.56 g/m*3 -0.1 C 0 km/h
1535 10-12-2005 15:53:05 0 C 3.54 g/m*3 0 C 0 km/h
1536 10-12-2005 16:03:06 -0.1 C 3.46 g/m*3 -0.1 C 0 km/h
1537 10-12-2005 16:13:06 0 C 3.39 g/m*3 0 C 0 km/h
1538 10-12-2005 16:23:05 -0.2 C 3.35 g/m*3 -0.2 C 0 km/h
1539 10-12-2005 16:33:05 -0.4 C 3.39 g/m*3 -0.4 C 0 km/h
1540 10-12-2005 16:43:05 -0.5 C 3.46 g/m*3 -0.5 C 0 km/h
1541 10-12-2005 16:53:05 -0.4 C 3.49 g/m*3 -0.4 C 0 km/h
1542 10-12-2005 17:03:06 -0.4 C 3.44 g/m*3 -0.4 C 0 km/h
1543 10-12-2005 17:13:06 -0.6 C 3.39 g/m*3 -0.6 C 0 km/h
1544 10-12-2005 17:23:06 -0.4 C 3.35 g/m*3 -0.4 C 0 km/h
1545 10-12-2005 17:33:05 -0.6 C 3.3 g/m*3 -0.6 C 0 km/h
1546 10-12-2005 17:43:05 -1 C 3.3 g/m*3 -1 C 0 km/h
1547 10-12-2005 17:53:06 -1.4 C 3.25 g/m*3 -1.4 C 0 km/h
1548 10-12-2005 18:03:05 -1.5 C 3.27 g/m*3 -1.5 C 0 km/h
1549 10-12-2005 18:13:05 -1.7 C 3.31 g/m*3 -1.7 C 0 km/h
1550 10-12-2005 18:23:05 -1.7 C 3.31 g/m*3 -1.7 C 0 km/h
Sensor: Nr:Datum:Temp:Abs-Feuchte:Windchill:Wind:
Aussen-T/F 1551 10-12-2005 18:33:06 -1.8 C 3.33 g/m*3 -1.8 C 0 km/h
1552 10-12-2005 18:43:06 -1.9 C 3.31 g/m*3 -1.9 C 0 km/h
1553 10-12-2005 18:53:06 -2 C 3.33 g/m*3 -2 C 0 km/h
1554 10-12-2005 19:03:06 -2.2 C 3.33 g/m*3 -2.2 C 0 km/h
1555 10-12-2005 19:13:06 -2.4 C 3.28 g/m*3 -2.4 C 0 km/h
1556 10-12-2005 19:23:06 -2.5 C 3.26 g/m*3 -2.5 C 0 km/h
1557 10-12-2005 19:33:06 -2.6 C 3.23 g/m*3 -2.6 C 0 km/h
1558 10-12-2005 19:43:06 -2.6 C 3.27 g/m*3 -2.6 C 0 km/h
1559 10-12-2005 19:53:05 -2.7 C 3.25 g/m*3 -2.7 C 0 km/h
1560 10-12-2005 20:03:06 -2.7 C 3.29 g/m*3 -2.7 C 0 km/h
1561 10-12-2005 20:13:06 -2.7 C 3.29 g/m*3 -2.7 C 0 km/h
1562 10-12-2005 20:23:06 -2.7 C 3.29 g/m*3 -2.7 C 0 km/h
1563 10-12-2005 20:33:06 -2.9 C 3.24 g/m*3 -2.9 C 0 km/h
1564 10-12-2005 20:43:06 -2.9 C 3.24 g/m*3 -2.9 C 0 km/h
1565 10-12-2005 20:53:06 -2.8 C 3.31 g/m*3 -2.8 C 0 km/h
1566 10-12-2005 21:03:06 -2.8 C 3.31 g/m*3 -2.8 C 0 km/h
1567 10-12-2005 21:13:06 -3 C 3.26 g/m*3 -3 C 0 km/h
1568 10-12-2005 21:23:05 -3 C 3.26 g/m*3 -3 C 0 km/h
1569 10-12-2005 21:33:06 -3 C 3.3 g/m*3 -3 C 0 km/h
1570 10-12-2005 21:43:06 -3 C 3.3 g/m*3 -3 C 0 km/h
1571 10-12-2005 21:53:06 -3.3 C 3.23 g/m*3 -3.3 C 0 km/h
1572 10-12-2005 22:03:06 -3 C 3.34 g/m*3 -3 C 0 km/h
1573 10-12-2005 22:13:06 -3.1 C 3.32 g/m*3 -3.1 C 0 km/h
1574 10-12-2005 22:23:06 -3.2 C 3.29 g/m*3 -3.2 C 0 km/h
1575 10-12-2005 22:33:06 -3.4 C 3.25 g/m*3 -3.4 C 0 km/h
Sensor: Nr:Datum:Temp:Abs-Feuchte:Windchill:Wind:
Aussen-T/F 1576 10-12-2005 22:43:06 -3.5 C 3.22 g/m*3 -3.5 C 0 km/h
1577 10-12-2005 22:53:06 -3.6 C 3.2 g/m*3 -3.6 C 0 km/h
1578 10-12-2005 23:03:06 -3.5 C 3.22 g/m*3 -3.5 C 0 km/h
1579 10-12-2005 23:13:06 -3.5 C 3.22 g/m*3 -3.5 C 0 km/h
1580 10-12-2005 23:23:06 -3.3 C 3.31 g/m*3 -3.3 C 0 km/h
1581 10-12-2005 23:33:06 -3.5 C 3.26 g/m*3 -3.5 C 0 km/h
1582 10-12-2005 23:43:06 -3.7 C 3.21 g/m*3 -3.7 C 0 km/h
1583 10-12-2005 23:53:06 -3.9 C 3.17 g/m*3 -3.9 C 0 km/h
1584 11-12-2005 00:03:06 -3.9 C 3.17 g/m*3 -3.9 C 0 km/h
1585 11-12-2005 00:13:06 -3.9 C 3.17 g/m*3 -3.9 C 0 km/h
1586 11-12-2005 00:23:07 -3.8 C 3.19 g/m*3 -3.8 C 0 km/h
1587 11-12-2005 00:33:07 -4 C 3.15 g/m*3 -4 C 0 km/h
1588 11-12-2005 00:43:07 -3.9 C 3.17 g/m*3 -3.9 C 0 km/h
1589 11-12-2005 00:53:07 -3.9 C 3.17 g/m*3 -3.9 C 0 km/h
1590 11-12-2005 01:03:07 -4.1 C 3.12 g/m*3 -4.1 C 0 km/h
1591 11-12-2005 01:13:07 -4.2 C 3.1 g/m*3 -4.2 C 0 km/h
1592 11-12-2005 01:23:06 -4.2 C 3.1 g/m*3 -4.2 C 0 km/h
1593 11-12-2005 01:33:07 -4.2 C 3.1 g/m*3 -4.2 C 0 km/h
1594 11-12-2005 01:43:07 -4.2 C 3.1 g/m*3 -4.2 C 0 km/h
1595 11-12-2005 01:53:06 -4.3 C 3.08 g/m*3 -4.3 C 0 km/h
1596 11-12-2005 02:03:06 -4.2 C 3.1 g/m*3 -4.2 C 0 km/h
1597 11-12-2005 02:13:06 -4.2 C 3.1 g/m*3 -4.2 C 0 km/h
1598 11-12-2005 02:23:06 -4.4 C 3.06 g/m*3 -4.4 C 0 km/h
1599 11-12-2005 02:33:06 -4.5 C 3.04 g/m*3 -4.5 C 0 km/h
1600 11-12-2005 02:43:06 -4.5 C 3.04 g/m*3 -4.5 C 0 km/h
Sensor: Nr:Datum:Temp:Abs-Feuchte:Windchill:Wind:
Aussen-T/F 1601 11-12-2005 02:54:07 -4.2 C 3.14 g/m*3 -4.2 C 0 km/h
1602 11-12-2005 03:04:07 -4.2 C 3.14 g/m*3 -4.2 C 0 km/h
1603 11-12-2005 03:14:08 -4.1 C 3.16 g/m*3 -4.1 C 0 km/h
1604 11-12-2005 03:24:08 -4.4 C 3.09 g/m*3 -4.4 C 0 km/h
1605 11-12-2005 03:34:08 -4.5 C 3.07 g/m*3 -4.5 C 0 km/h
1606 11-12-2005 03:44:08 -4.7 C 3.03 g/m*3 -4.7 C 0 km/h
1607 11-12-2005 03:54:08 -4.7 C 3.03 g/m*3 -4.7 C 0 km/h
1608 11-12-2005 04:04:08 -4.8 C 3.01 g/m*3 -4.8 C 0 km/h
1609 11-12-2005 04:14:08 -4.8 C 3.01 g/m*3 -4.8 C 0 km/h
1610 11-12-2005 04:24:08 -4.7 C 3.03 g/m*3 -4.7 C 0 km/h
1611 11-12-2005 04:34:08 -4.5 C 3.07 g/m*3 -4.5 C 0 km/h
1612 11-12-2005 04:44:08 -4.7 C 3.03 g/m*3 -4.7 C 0 km/h
1613 11-12-2005 04:54:08 -4.8 C 3.01 g/m*3 -4.8 C 0 km/h
1614 11-12-2005 05:04:08 -4.9 C 2.98 g/m*3 -4.9 C 0 km/h
1615 11-12-2005 05:14:08 -5 C 2.96 g/m*3 -5 C 0 km/h
1616 11-12-2005 05:24:08 -5 C 2.96 g/m*3 -5 C 0 km/h
1617 11-12-2005 05:34:08 -5.1 C 2.94 g/m*3 -5.1 C 0 km/h
1618 11-12-2005 05:44:08 -5.1 C 2.94 g/m*3 -5.1 C 0 km/h
1619 11-12-2005 05:54:07 -5 C 2.96 g/m*3 -5 C 0 km/h
1620 11-12-2005 06:04:08 -5 C 2.96 g/m*3 -5 C 0 km/h
1621 11-12-2005 06:14:08 -5 C 2.96 g/m*3 -5 C 0 km/h
1622 11-12-2005 06:24:08 -5 C 2.96 g/m*3 -5 C 0 km/h
1623 11-12-2005 06:34:08 -5.2 C 2.92 g/m*3 -5.2 C 0 km/h
1624 11-12-2005 06:44:08 -5.2 C 2.92 g/m*3 -5.2 C 0 km/h
1625 11-12-2005 06:54:08 -5.2 C 2.92 g/m*3 -5.2 C 0 km/h
Sensor: Nr:Datum:Temp:Abs-Feuchte:Windchill:Wind:
Aussen-T/F 1626 11-12-2005 07:04:08 -5.2 C 2.92 g/m*3 -5.2 C 0 km/h
1627 11-12-2005 07:14:08 -5.2 C 2.92 g/m*3 -5.2 C 0 km/h
1628 11-12-2005 07:24:07 -5.2 C 2.92 g/m*3 -5.2 C 0 km/h
1629 11-12-2005 07:34:08 -5.2 C 2.92 g/m*3 -5.2 C 0 km/h
1630 11-12-2005 07:44:08 -5.2 C 2.92 g/m*3 -5.2 C 0 km/h
1631 11-12-2005 07:54:08 -5.2 C 2.92 g/m*3 -5.2 C 0 km/h
1632 11-12-2005 08:04:08 -5.2 C 2.92 g/m*3 -5.2 C 0 km/h
1633 11-12-2005 08:14:08 -5.2 C 2.92 g/m*3 -5.2 C 0 km/h
1634 11-12-2005 08:24:08 -5.3 C 2.9 g/m*3 -5.3 C 0 km/h
1635 11-12-2005 08:34:08 -5.3 C 2.9 g/m*3 -5.3 C 0 km/h
1636 11-12-2005 08:44:08 -5.2 C 2.92 g/m*3 -5.2 C 0 km/h
1637 11-12-2005 08:54:08 -5.2 C 2.92 g/m*3 -5.2 C 0 km/h
1638 11-12-2005 09:04:08 -5.1 C 2.94 g/m*3 -5.1 C 0 km/h
1639 11-12-2005 09:14:08 -5 C 2.96 g/m*3 -5 C 0 km/h
1640 11-12-2005 09:24:09 -4.9 C 2.98 g/m*3 -4.9 C 0 km/h
1641 11-12-2005 09:34:08 -4.8 C 3.01 g/m*3 -4.8 C 0 km/h
1642 11-12-2005 09:44:08 -4.6 C 3.08 g/m*3 -4.6 C 0 km/h
1643 11-12-2005 09:54:09 -4.6 C 3.08 g/m*3 -4.6 C 0 km/h
1644 11-12-2005 10:04:08 -4.5 C 3.11 g/m*3 -4.5 C 0 km/h
1645 11-12-2005 10:14:08 -4.4 C 3.13 g/m*3 -4.4 C 0 km/h
1646 11-12-2005 10:24:08 -4.3 C 3.15 g/m*3 -4.3 C 0 km/h
1647 11-12-2005 10:34:08 -4.1 C 3.2 g/m*3 -4.1 C 0 km/h
1648 11-12-2005 10:44:08 -3.8 C 3.27 g/m*3 -3.8 C 0 km/h
1649 11-12-2005 10:54:08 -3.4 C 3.4 g/m*3 -3.4 C 0 km/h
1650 11-12-2005 11:04:09 -3.3 C 3.42 g/m*3 -3.3 C 0 km/h
Sensor: Nr:Datum:Temp:Abs-Feuchte:Windchill:Wind:
Aussen-T/F 1651 11-12-2005 11:14:09 -2.7 C 3.57 g/m*3 -2.7 C 0 km/h
1652 11-12-2005 11:24:09 -2.2 C 3.7 g/m*3 -2.2 C 0 km/h
1653 11-12-2005 11:34:09 -1.8 C 3.8 g/m*3 -1.8 C 0 km/h
1654 11-12-2005 11:44:09 -1.4 C 3.91 g/m*3 -1.4 C 0 km/h
1655 11-12-2005 11:54:09 -1.2 C 3.97 g/m*3 -1.2 C 0 km/h
1656 11-12-2005 12:04:08 -1.2 C 3.92 g/m*3 -1.2 C 0 km/h
1657 11-12-2005 12:14:08 -1.3 C 3.85 g/m*3 -1.3 C 0 km/h
1658 11-12-2005 12:24:08 -1.4 C 3.82 g/m*3 -1.4 C 0 km/h
1659 11-12-2005 12:34:08 -1.6 C 3.73 g/m*3 -1.6 C 0 km/h
1660 11-12-2005 12:44:08 -1.7 C 3.7 g/m*3 -1.7 C 0 km/h
1661 11-12-2005 12:54:08 -1.7 C 3.7 g/m*3 -1.7 C 0 km/h
1662 11-12-2005 13:04:09 -1.7 C 3.66 g/m*3 -1.7 C 0 km/h
1663 11-12-2005 13:14:09 -1.7 C 3.66 g/m*3 -1.7 C 0 km/h
1664 11-12-2005 13:24:09 -1.4 C 3.78 g/m*3 -1.4 C 0 km/h
1665 11-12-2005 13:34:09 -1 C 3.89 g/m*3 -1 C 0 km/h
1666 11-12-2005 13:44:10 -0.3 C 4.08 g/m*3 -0.3 C 0 km/h
1667 11-12-2005 13:54:09 -0.2 C 4.11 g/m*3 -0.2 C 0 km/h
1668 11-12-2005 14:04:09 -0.2 C 4.06 g/m*3 -0.2 C 0 km/h
1669 11-12-2005 14:14:09 -0.3 C 3.99 g/m*3 -0.3 C 0 km/h
1670 11-12-2005 14:24:08 -0.1 C 3.99 g/m*3 -0.1 C 0 km/h
1671 11-12-2005 14:34:09 0 C 3.97 g/m*3 0 C 0 km/h
1672 11-12-2005 14:44:09 0 C 3.97 g/m*3 0 C 0 km/h
1673 11-12-2005 14:54:08 -0.1 C 3.9 g/m*3 -0.1 C 0 km/h
1674 11-12-2005 15:04:09 -0.2 C 3.87 g/m*3 -0.2 C 0 km/h
1675 11-12-2005 15:14:09 -0.2 C 3.87 g/m*3 -0.2 C 0 km/h
Sensor: Nr:Datum:Temp:Abs-Feuchte:Windchill:Wind:
Aussen-T/F 1676 11-12-2005 15:24:09 0.1 C 3.95 g/m*3 0.1 C 0 km/h
1677 11-12-2005 15:34:09 0.4 C 3.98 g/m*3 0.4 C 0 km/h
1678 11-12-2005 15:44:09 0.5 C 4.01 g/m*3 0.5 C 0 km/h
1679 11-12-2005 15:54:09 0.5 C 3.96 g/m*3 0.5 C 0 km/h
1680 11-12-2005 16:04:09 0.2 C 3.83 g/m*3 0.2 C 0 km/h
1681 11-12-2005 16:14:09 0 C 3.78 g/m*3 0 C 0 km/h
1682 11-12-2005 16:24:09 -0.4 C 3.68 g/m*3 -0.4 C 0 km/h
1683 11-12-2005 16:34:09 -0.6 C 3.63 g/m*3 -0.6 C 0 km/h
1684 11-12-2005 16:44:09 -0.9 C 3.6 g/m*3 -0.9 C 0 km/h
1685 11-12-2005 16:54:09 -0.9 C 3.6 g/m*3 -0.9 C 0 km/h
1686 11-12-2005 17:04:09 -1.1 C 3.59 g/m*3 -1.1 C 0 km/h
1687 11-12-2005 17:14:09 -1.1 C 3.59 g/m*3 -1.1 C 0 km/h
1688 11-12-2005 17:24:09 -0.9 C 3.69 g/m*3 -0.9 C 0 km/h
1689 11-12-2005 17:34:09 -0.6 C 3.76 g/m*3 -0.6 C 0 km/h
1690 11-12-2005 17:44:09 -0.4 C 3.82 g/m*3 -0.4 C 0 km/h
1691 11-12-2005 17:54:09 -0.2 C 3.87 g/m*3 -0.2 C 0 km/h
1692 11-12-2005 18:04:09 0 C 3.88 g/m*3 0 C 0 km/h
1693 11-12-2005 18:14:09 0 C 3.88 g/m*3 0 C 0 km/h
1694 11-12-2005 18:24:09 0.1 C 3.9 g/m*3 0.1 C 0 km/h
1695 11-12-2005 18:34:10 0.2 C 3.93 g/m*3 0.2 C 0 km/h
1696 11-12-2005 18:44:10 0.2 C 3.93 g/m*3 0.2 C 0 km/h
1697 11-12-2005 18:54:09 0.3 C 3.91 g/m*3 0.3 C 0 km/h
1698 11-12-2005 19:04:09 0.3 C 3.86 g/m*3 0.3 C 0 km/h
1699 11-12-2005 19:14:09 0.2 C 3.83 g/m*3 0.2 C 0 km/h
1700 11-12-2005 19:24:09 0.3 C 3.91 g/m*3 0.3 C 0 km/h
Sensor: Nr:Datum:Temp:Abs-Feuchte:Windchill:Wind:
Aussen-T/F 1701 11-12-2005 19:34:09 0.4 C 3.88 g/m*3 0.4 C 0 km/h
1702 11-12-2005 19:44:09 0.4 C 3.88 g/m*3 0.4 C 0 km/h
1703 11-12-2005 19:54:09 0.4 C 3.88 g/m*3 0.4 C 0 km/h
1704 11-12-2005 20:04:09 0.4 C 3.93 g/m*3 0.4 C 0 km/h
1705 11-12-2005 20:14:09 0.4 C 3.93 g/m*3 0.4 C 0 km/h
1706 11-12-2005 20:24:09 0.5 C 3.96 g/m*3 0.5 C 0 km/h
1707 11-12-2005 20:34:10 0.5 C 3.96 g/m*3 0.5 C 0 km/h
1708 11-12-2005 20:44:10 0.5 C 3.96 g/m*3 0.5 C 0 km/h
1709 11-12-2005 20:54:10 0.5 C 3.96 g/m*3 0.5 C 0 km/h
1710 11-12-2005 21:04:10 0.4 C 3.93 g/m*3 0.4 C 0 km/h
1711 11-12-2005 21:14:10 0.4 C 3.93 g/m*3 0.4 C 0 km/h
1712 11-12-2005 21:24:09 0.4 C 3.93 g/m*3 0.4 C 0 km/h
1713 11-12-2005 21:34:09 0.4 C 3.93 g/m*3 0.4 C 0 km/h
1714 11-12-2005 21:44:09 0.4 C 3.93 g/m*3 0.4 C 0 km/h
1715 11-12-2005 21:54:09 0.5 C 3.96 g/m*3 0.5 C 0 km/h
1716 11-12-2005 22:04:09 0.4 C 3.93 g/m*3 0.4 C 0 km/h
1717 11-12-2005 22:14:09 0.4 C 3.93 g/m*3 0.4 C 0 km/h
1718 11-12-2005 22:24:09 0.1 C 3.85 g/m*3 0.1 C 0 km/h
1719 11-12-2005 22:34:10 0 C 3.83 g/m*3 0 C 0 km/h
1720 11-12-2005 22:44:10 -0.2 C 3.78 g/m*3 -0.2 C 0 km/h
1721 11-12-2005 22:54:09 -0.2 C 3.82 g/m*3 -0.2 C 0 km/h
1722 11-12-2005 23:04:09 -0.2 C 3.82 g/m*3 -0.2 C 0 km/h
1723 11-12-2005 23:14:09 0 C 3.88 g/m*3 0 C 0 km/h
1724 11-12-2005 23:24:10 0.1 C 3.95 g/m*3 0.1 C 0 km/h
1725 11-12-2005 23:34:10 0.2 C 3.98 g/m*3 0.2 C 0 km/h
Sensor: Nr:Datum:Temp:Abs-Feuchte:Windchill:Wind:
Aussen-T/F 1726 11-12-2005 23:44:11 0.3 C 3.96 g/m*3 0.3 C 0 km/h
1727 11-12-2005 23:54:10 0.3 C 3.96 g/m*3 0.3 C 0 km/h
1728 12-12-2005 00:04:10 0.4 C 3.98 g/m*3 0.4 C 0 km/h
1729 12-12-2005 00:14:10 0.3 C 3.96 g/m*3 0.3 C 0 km/h
1730 12-12-2005 00:24:10 0.2 C 3.93 g/m*3 0.2 C 0 km/h
1731 12-12-2005 00:34:09 0.2 C 3.93 g/m*3 0.2 C 0 km/h
1732 12-12-2005 00:44:09 0.2 C 3.93 g/m*3 0.2 C 0 km/h
1733 12-12-2005 00:54:10 0.2 C 3.93 g/m*3 0.2 C 0 km/h
1734 12-12-2005 01:04:10 0.3 C 4.01 g/m*3 0.3 C 0 km/h
1735 12-12-2005 01:14:10 0.3 C 4.01 g/m*3 0.3 C 0 km/h
1736 12-12-2005 01:24:10 0.3 C 4.01 g/m*3 0.3 C 0 km/h
1737 12-12-2005 01:34:09 0.3 C 4.01 g/m*3 0.3 C 0 km/h
1738 12-12-2005 01:44:09 0.3 C 4.01 g/m*3 0.3 C 0 km/h
1739 12-12-2005 01:54:10 0.3 C 4.01 g/m*3 0.3 C 0 km/h
1740 12-12-2005 02:04:10 0.3 C 4.01 g/m*3 0.3 C 0 km/h
1741 12-12-2005 02:14:10 0.2 C 3.98 g/m*3 0.2 C 0 km/h
1742 12-12-2005 02:24:10 0.1 C 3.95 g/m*3 0.1 C 0 km/h
1743 12-12-2005 02:34:10 0.1 C 3.95 g/m*3 0.1 C 0 km/h
1744 12-12-2005 02:44:10 0 C 3.92 g/m*3 0 C 0 km/h
1745 12-12-2005 02:55:12 0.1 C 3.95 g/m*3 0.1 C 0 km/h
1746 12-12-2005 03:05:12 0.1 C 4 g/m*3 0.1 C 0 km/h
1747 12-12-2005 03:15:12 0.1 C 4 g/m*3 0.1 C 0 km/h
1748 12-12-2005 03:25:12 0.2 C 4.03 g/m*3 0.2 C 0 km/h
1749 12-12-2005 03:35:12 0.2 C 4.03 g/m*3 0.2 C 0 km/h
1750 12-12-2005 03:45:12 0.2 C 4.03 g/m*3 0.2 C 0 km/h
Sensor: Nr:Datum:Temp:Abs-Feuchte:Windchill:Wind:
Aussen-T/F 1751 12-12-2005 03:55:12 0.2 C 4.03 g/m*3 0.2 C 0 km/h
1752 12-12-2005 04:05:12 0.3 C 4.06 g/m*3 0.3 C 0 km/h
1753 12-12-2005 04:15:12 0.3 C 4.06 g/m*3 0.3 C 0 km/h
1754 12-12-2005 04:25:12 0.4 C 4.08 g/m*3 0.4 C 0 km/h
1755 12-12-2005 04:35:12 0.4 C 4.08 g/m*3 0.4 C 0 km/h
1756 12-12-2005 04:45:12 0.5 C 4.11 g/m*3 0.5 C 0 km/h
1757 12-12-2005 04:55:12 0.5 C 4.11 g/m*3 0.5 C 0 km/h
1758 12-12-2005 05:05:12 0.6 C 4.14 g/m*3 0.6 C 0 km/h
1759 12-12-2005 05:15:12 0.6 C 4.14 g/m*3 0.6 C 0 km/h
1760 12-12-2005 05:25:12 0.6 C 4.14 g/m*3 0.6 C 0 km/h
1761 12-12-2005 05:35:12 0.6 C 4.19 g/m*3 0.6 C 0 km/h
1762 12-12-2005 05:45:12 0.6 C 4.19 g/m*3 0.6 C 0 km/h
1763 12-12-2005 05:55:12 0.6 C 4.19 g/m*3 0.6 C 0 km/h
1764 12-12-2005 06:05:11 0.6 C 4.19 g/m*3 0.6 C 0 km/h
1765 12-12-2005 06:15:12 0.6 C 4.19 g/m*3 0.6 C 0 km/h
1766 12-12-2005 06:25:12 0.7 C 4.22 g/m*3 0.7 C 0 km/h
1767 12-12-2005 06:35:12 0.7 C 4.22 g/m*3 0.7 C 0 km/h
1768 12-12-2005 06:45:12 0.7 C 4.22 g/m*3 0.7 C 0 km/h
1769 12-12-2005 06:55:12 0.7 C 4.22 g/m*3 0.7 C 0 km/h
1770 12-12-2005 07:05:12 0.7 C 4.22 g/m*3 0.7 C 0 km/h
1771 12-12-2005 07:15:12 0.7 C 4.27 g/m*3 0.7 C 0 km/h
1772 12-12-2005 07:25:12 0.8 C 4.3 g/m*3 0.8 C 0 km/h
1773 12-12-2005 07:35:12 0.8 C 4.3 g/m*3 0.8 C 0 km/h
1774 12-12-2005 07:45:12 0.8 C 4.3 g/m*3 0.8 C 0 km/h
1775 12-12-2005 07:55:12 0.9 C 4.33 g/m*3 0.9 C 0 km/h
Sensor: Nr:Datum:Temp:Abs-Feuchte:Windchill:Wind:
Aussen-T/F 1776 12-12-2005 08:05:12 0.8 C 4.3 g/m*3 0.8 C 0 km/h
1777 12-12-2005 08:15:12 0.9 C 4.33 g/m*3 0.9 C 0 km/h
1778 12-12-2005 08:25:12 0.8 C 4.35 g/m*3 0.8 C 0 km/h
1779 12-12-2005 08:35:12 0.8 C 4.35 g/m*3 0.8 C 0 km/h
1780 12-12-2005 08:45:12 0.8 C 4.4 g/m*3 0.8 C 0 km/h
1781 12-12-2005 08:55:12 0.9 C 4.48 g/m*3 0.9 C 0 km/h
1782 12-12-2005 09:05:12 0.9 C 4.48 g/m*3 0.9 C 0 km/h
1783 12-12-2005 09:15:12 0.9 C 4.54 g/m*3 0.9 C 0 km/h
1784 12-12-2005 09:25:12 1 C 4.57 g/m*3 1 C 0 km/h
1785 12-12-2005 09:35:13 1 C 4.57 g/m*3 1 C 0 km/h
1786 12-12-2005 09:45:12 1.1 C 4.6 g/m*3 1.1 C 0 km/h
1787 12-12-2005 09:55:12 1.3 C 4.66 g/m*3 1.3 C 0 km/h
1788 12-12-2005 10:05:13 1.3 C 4.72 g/m*3 1.3 C 0 km/h
1789 12-12-2005 10:15:12 1.4 C 4.75 g/m*3 1.4 C 0 km/h
1790 12-12-2005 10:25:12 1.5 C 4.78 g/m*3 1.5 C 0 km/h
1791 12-12-2005 10:35:12 1.8 C 4.88 g/m*3 1.8 C 0 km/h
1792 12-12-2005 10:45:12 1.9 C 4.97 g/m*3 1.9 C 0 km/h
1793 12-12-2005 10:55:12 2 C 4.95 g/m*3 2 C 0 km/h
1794 12-12-2005 11:05:12 2.1 C 4.98 g/m*3 2.1 C 0 km/h
1795 12-12-2005 11:15:12 2.3 C 5.05 g/m*3 2.3 C 0 km/h
1796 12-12-2005 11:25:12 2.4 C 5.08 g/m*3 2.4 C 0 km/h
1797 12-12-2005 11:35:13 2.4 C 5.08 g/m*3 2.4 C 0 km/h
1798 12-12-2005 11:45:12 2.5 C 5.12 g/m*3 2.5 C 0 km/h
1799 12-12-2005 11:55:12 2.7 C 5.19 g/m*3 2.7 C 0 km/h
1800 12-12-2005 12:05:13 2.7 C 5.19 g/m*3 2.7 C 0 km/h
Sensor: Nr:Datum:Temp:Abs-Feuchte:Windchill:Wind:
Aussen-T/F 1801 12-12-2005 12:15:12 2.6 C 5.15 g/m*3 2.6 C 0 km/h
1802 12-12-2005 12:25:13 2.6 C 5.15 g/m*3 2.6 C 0 km/h
1803 12-12-2005 12:35:12 2.7 C 5.19 g/m*3 2.7 C 0 km/h
1804 12-12-2005 12:45:12 2.7 C 5.19 g/m*3 2.7 C 0 km/h
1805 12-12-2005 12:55:12 2.7 C 5.19 g/m*3 2.7 C 0 km/h
1806 12-12-2005 13:05:12 2.7 C 5.19 g/m*3 2.7 C 0 km/h
1807 12-12-2005 13:15:13 2.8 C 5.22 g/m*3 2.8 C 0 km/h
1808 12-12-2005 13:25:13 2.8 C 5.22 g/m*3 2.8 C 0 km/h
1809 12-12-2005 13:35:13 2.9 C 5.26 g/m*3 2.9 C 0 km/h
1810 12-12-2005 13:45:13 3 C 5.29 g/m*3 3 C 0 km/h
1811 12-12-2005 13:55:13 3 C 5.29 g/m*3 3 C 0 km/h
1812 12-12-2005 14:05:13 3 C 5.29 g/m*3 3 C 0 km/h
1813 12-12-2005 14:15:13 3 C 5.29 g/m*3 3 C 0 km/h
1814 12-12-2005 14:25:13 3 C 5.29 g/m*3 3 C 0 km/h
1815 12-12-2005 14:35:12 3 C 5.29 g/m*3 3 C 0 km/h
1816 12-12-2005 14:45:12 3 C 5.29 g/m*3 3 C 0 km/h
1817 12-12-2005 14:55:12 3 C 5.29 g/m*3 3 C 0 km/h
1818 12-12-2005 15:05:13 3 C 5.29 g/m*3 3 C 0 km/h
1819 12-12-2005 15:15:13 3 C 5.29 g/m*3 3 C 0 km/h
1820 12-12-2005 15:25:13 3 C 5.29 g/m*3 3 C 0 km/h
1821 12-12-2005 15:35:13 3 C 5.35 g/m*3 3 C 0 km/h
1822 12-12-2005 15:45:13 3 C 5.35 g/m*3 3 C 0 km/h
1823 12-12-2005 15:55:13 3.1 C 5.45 g/m*3 3.1 C 0 km/h
1824 12-12-2005 16:05:13 3.1 C 5.45 g/m*3 3.1 C 0 km/h
1825 12-12-2005 16:15:13 3.3 C 5.58 g/m*3 3.3 C 0 km/h
Sensor: Nr:Datum:Temp:Abs-Feuchte:Windchill:Wind:
Aussen-T/F 1826 12-12-2005 16:25:13 3.3 C 5.58 g/m*3 3.3 C 0 km/h
1827 12-12-2005 16:35:12 3.4 C 5.62 g/m*3 3.4 C 0 km/h
1828 12-12-2005 16:45:13 3.4 C 5.62 g/m*3 3.4 C 0 km/h
1829 12-12-2005 16:55:13 3.4 C 5.62 g/m*3 3.4 C 0 km/h
1830 12-12-2005 17:05:13 3.5 C 5.72 g/m*3 3.5 C 0 km/h
1831 12-12-2005 17:15:13 3.6 C 5.76 g/m*3 3.6 C 0 km/h
1832 12-12-2005 17:25:13 3.6 C 5.69 g/m*3 3.6 C 0 km/h
1833 12-12-2005 17:35:13 3.7 C 5.73 g/m*3 3.7 C 0 km/h
1834 12-12-2005 17:45:14 3.8 C 5.77 g/m*3 3.8 C 0 km/h
1835 12-12-2005 17:55:14 3.8 C 5.77 g/m*3 3.8 C 0 km/h
1836 12-12-2005 18:05:14 3.8 C 5.71 g/m*3 3.8 C 0 km/h
1837 12-12-2005 18:15:13 3.8 C 5.71 g/m*3 3.8 C 0 km/h
1838 12-12-2005 18:25:13 3.8 C 5.71 g/m*3 3.8 C 0 km/h
1839 12-12-2005 18:35:13 3.8 C 5.71 g/m*3 3.8 C 0 km/h
1840 12-12-2005 18:45:13 3.6 C 5.57 g/m*3 3.6 C 0 km/h
1841 12-12-2005 18:55:13 3.5 C 5.53 g/m*3 3.5 C 0 km/h
1842 12-12-2005 19:05:13 3.3 C 5.46 g/m*3 3.3 C 0 km/h
1843 12-12-2005 19:15:13 3.1 C 5.39 g/m*3 3.1 C 0 km/h
1844 12-12-2005 19:25:13 3.4 C 5.56 g/m*3 3.4 C 0 km/h
1845 12-12-2005 19:35:14 3.5 C 5.6 g/m*3 3.5 C 0 km/h
1846 12-12-2005 19:45:13 3.5 C 5.6 g/m*3 3.5 C 0 km/h
1847 12-12-2005 19:55:13 3.4 C 5.56 g/m*3 3.4 C 0 km/h
1848 12-12-2005 20:05:14 3.2 C 5.48 g/m*3 3.2 C 0 km/h
1849 12-12-2005 20:15:13 2.9 C 5.37 g/m*3 2.9 C 0 km/h
1850 12-12-2005 20:25:13 2.7 C 5.3 g/m*3 2.7 C 0 km/h
Sensor: Nr:Datum:Temp:Abs-Feuchte:Windchill:Wind:
Aussen-T/F 1851 12-12-2005 20:35:13 2.6 C 5.27 g/m*3 2.6 C 0 km/h
1852 12-12-2005 20:45:13 2.4 C 5.2 g/m*3 2.4 C 0 km/h
1853 12-12-2005 20:55:13 2.1 C 5.09 g/m*3 2.1 C 0 km/h
1854 12-12-2005 21:05:13 2.2 C 5.13 g/m*3 2.2 C 0 km/h
1855 12-12-2005 21:15:14 2.3 C 5.16 g/m*3 2.3 C 0 km/h
1856 12-12-2005 21:25:14 2 C 5.06 g/m*3 2 C 0 km/h
1857 12-12-2005 21:35:13 1.8 C 5.04 g/m*3 1.8 C 0 km/h
1858 12-12-2005 21:45:14 1.7 C 5.01 g/m*3 1.7 C 0 km/h
1859 12-12-2005 21:55:14 1.7 C 5.01 g/m*3 1.7 C 0 km/h
1860 12-12-2005 22:05:13 1.6 C 4.97 g/m*3 1.6 C 0 km/h
1861 12-12-2005 22:15:13 1.5 C 4.94 g/m*3 1.5 C 0 km/h
1862 12-12-2005 22:25:13 1.3 C 4.87 g/m*3 1.3 C 0 km/h
1863 12-12-2005 22:35:13 1.1 C 4.81 g/m*3 1.1 C 0 km/h
1864 12-12-2005 22:45:13 1.3 C 4.87 g/m*3 1.3 C 0 km/h
1865 12-12-2005 22:55:13 1.2 C 4.84 g/m*3 1.2 C 0 km/h
1866 12-12-2005 23:05:14 1.1 C 4.81 g/m*3 1.1 C 0 km/h
1867 12-12-2005 23:15:14 1 C 4.78 g/m*3 1 C 0 km/h
1868 12-12-2005 23:25:14 0.8 C 4.71 g/m*3 0.8 C 0 km/h
1869 12-12-2005 23:35:14 0.6 C 4.65 g/m*3 0.6 C 0 km/h
1870 12-12-2005 23:45:14 0.5 C 4.61 g/m*3 0.5 C 0 km/h
1871 12-12-2005 23:55:14 0.3 C 4.55 g/m*3 0.3 C 0 km/h
1872 13-12-2005 00:05:13 0.1 C 4.49 g/m*3 0.1 C 0 km/h
1873 13-12-2005 00:15:14 0.2 C 4.52 g/m*3 0.2 C 0 km/h
1874 13-12-2005 00:25:14 0.1 C 4.49 g/m*3 0.1 C 0 km/h
1875 13-12-2005 00:35:14 0 C 4.46 g/m*3 0 C 0 km/h
Sensor: Nr:Datum:Temp:Abs-Feuchte:Windchill:Wind:
Aussen-T/F 1876 13-12-2005 00:45:14 -0.3 C 4.37 g/m*3 -0.3 C 0 km/h
1877 13-12-2005 00:55:14 -0.3 C 4.37 g/m*3 -0.3 C 0 km/h
1878 13-12-2005 01:05:14 -0.3 C 4.37 g/m*3 -0.3 C 0 km/h
1879 13-12-2005 01:15:14 -0.6 C 4.28 g/m*3 -0.6 C 0 km/h
1880 13-12-2005 01:25:14 -0.8 C 4.22 g/m*3 -0.8 C 0 km/h
1881 13-12-2005 01:35:14 -0.8 C 4.17 g/m*3 -0.8 C 0 km/h
1882 13-12-2005 01:45:14 -0.9 C 4.14 g/m*3 -0.9 C 0 km/h
1883 13-12-2005 01:55:14 -1 C 4.16 g/m*3 -1 C 0 km/h
1884 13-12-2005 02:05:14 -1.3 C 4.03 g/m*3 -1.3 C 0 km/h
1885 13-12-2005 02:15:14 -1.2 C 4.1 g/m*3 -1.2 C 0 km/h
1886 13-12-2005 02:25:14 -1.4 C 4.04 g/m*3 -1.4 C 0 km/h
1887 13-12-2005 02:35:15 -1.5 C 4.02 g/m*3 -1.5 C 0 km/h
1888 13-12-2005 02:46:16 -1.6 C 3.94 g/m*3 -1.6 C 0 km/h
1889 13-12-2005 02:56:16 -1.8 C 3.89 g/m*3 -1.8 C 0 km/h
1890 13-12-2005 03:06:16 -1.8 C 3.89 g/m*3 -1.8 C 0 km/h
1891 13-12-2005 03:16:16 -1.7 C 3.92 g/m*3 -1.7 C 0 km/h
1892 13-12-2005 03:26:16 -1.9 C 3.86 g/m*3 -1.9 C 0 km/h
1893 13-12-2005 03:36:16 -1.7 C 3.96 g/m*3 -1.7 C 0 km/h
1894 13-12-2005 03:46:16 -1.9 C 3.91 g/m*3 -1.9 C 0 km/h
1895 13-12-2005 03:56:16 -2.1 C 3.85 g/m*3 -2.1 C 0 km/h
1896 13-12-2005 04:06:15 -2.3 C 3.76 g/m*3 -2.3 C 0 km/h
1897 13-12-2005 04:16:15 -2.1 C 3.85 g/m*3 -2.1 C 0 km/h
1898 13-12-2005 04:26:15 -1.8 C 3.93 g/m*3 -1.8 C 0 km/h
1899 13-12-2005 04:36:15 -1.8 C 3.93 g/m*3 -1.8 C 0 km/h
1900 13-12-2005 04:46:16 -1.8 C 3.98 g/m*3 -1.8 C 0 km/h
Sensor: Nr:Datum:Temp:Abs-Feuchte:Windchill:Wind:
Aussen-T/F 1901 13-12-2005 04:56:16 -1.9 C 3.91 g/m*3 -1.9 C 0 km/h
1902 13-12-2005 05:06:16 -1.9 C 3.91 g/m*3 -1.9 C 0 km/h
1903 13-12-2005 05:16:16 -1.8 C 3.98 g/m*3 -1.8 C 0 km/h
1904 13-12-2005 05:26:16 -1.7 C 4 g/m*3 -1.7 C 0 km/h
1905 13-12-2005 05:36:16 -1.6 C 4.03 g/m*3 -1.6 C 0 km/h
1906 13-12-2005 05:46:16 -1.5 C 4.06 g/m*3 -1.5 C 0 km/h
1907 13-12-2005 05:56:16 -1.4 C 4.13 g/m*3 -1.4 C 0 km/h
1908 13-12-2005 06:06:15 -1.1 C 4.22 g/m*3 -1.1 C 0 km/h
1909 13-12-2005 06:16:16 -1 C 4.25 g/m*3 -1 C 0 km/h
1910 13-12-2005 06:26:16 -0.9 C 4.32 g/m*3 -0.9 C 0 km/h
1911 13-12-2005 06:36:16 -0.6 C 4.42 g/m*3 -0.6 C 0 km/h
1912 13-12-2005 06:46:16 -0.6 C 4.42 g/m*3 -0.6 C 0 km/h
1913 13-12-2005 06:56:16 -0.7 C 4.39 g/m*3 -0.7 C 0 km/h
1914 13-12-2005 07:06:16 -0.5 C 4.45 g/m*3 -0.5 C 0 km/h
1915 13-12-2005 07:16:16 -0.5 C 4.45 g/m*3 -0.5 C 0 km/h
1916 13-12-2005 07:26:16 -0.5 C 4.45 g/m*3 -0.5 C 0 km/h
1917 13-12-2005 07:36:15 -0.8 C 4.35 g/m*3 -0.8 C 0 km/h
1918 13-12-2005 07:46:16 -1 C 4.29 g/m*3 -1 C 0 km/h
1919 13-12-2005 07:56:17 -1.4 C 4.18 g/m*3 -1.4 C 0 km/h
1920 13-12-2005 08:06:16 -1.6 C 4.12 g/m*3 -1.6 C 0 km/h
1921 13-12-2005 08:16:15 -1.4 C 4.18 g/m*3 -1.4 C 0 km/h
1922 13-12-2005 08:26:15 -1.2 C 4.24 g/m*3 -1.2 C 0 km/h
1923 13-12-2005 08:36:16 -0.9 C 4.32 g/m*3 -0.9 C 0 km/h
1924 13-12-2005 08:46:16 -0.7 C 4.39 g/m*3 -0.7 C 0 km/h
1925 13-12-2005 08:56:16 -0.5 C 4.45 g/m*3 -0.5 C 0 km/h
Sensor: Nr:Datum:Temp:Abs-Feuchte:Windchill:Wind:
Aussen-T/F 1926 13-12-2005 09:06:16 -0.4 C 4.48 g/m*3 -0.4 C 0 km/h
1927 13-12-2005 09:16:16 -0.3 C 4.51 g/m*3 -0.3 C 0 km/h
1928 13-12-2005 09:26:16 -0.2 C 4.54 g/m*3 -0.2 C 0 km/h
1929 13-12-2005 09:36:16 -0.1 C 4.57 g/m*3 -0.1 C 0 km/h
1930 13-12-2005 09:46:16 0.1 C 4.63 g/m*3 0.1 C 0 km/h
1931 13-12-2005 09:56:16 0.1 C 4.63 g/m*3 0.1 C 0 km/h
1932 13-12-2005 10:06:16 0.2 C 4.67 g/m*3 0.2 C 0 km/h
1933 13-12-2005 10:16:16 0.4 C 4.73 g/m*3 0.4 C 0 km/h
1934 13-12-2005 10:26:16 0.5 C 4.76 g/m*3 0.5 C 0 km/h
1935 13-12-2005 10:36:16 0.6 C 4.8 g/m*3 0.6 C 0 km/h
1936 13-12-2005 10:46:16 0.8 C 4.86 g/m*3 0.8 C 0 km/h
1937 13-12-2005 10:56:16 1.1 C 4.96 g/m*3 1.1 C 0 km/h
1938 13-12-2005 11:06:16 1.3 C 5.03 g/m*3 1.3 C 0 km/h
1939 13-12-2005 11:16:17 1.4 C 5.07 g/m*3 1.4 C 0 km/h
1940 13-12-2005 11:26:17 1.6 C 5.14 g/m*3 1.6 C 0 km/h
1941 13-12-2005 11:36:16 1.7 C 5.17 g/m*3 1.7 C 0 km/h
1942 13-12-2005 11:46:16 1.9 C 5.24 g/m*3 1.9 C 0 km/h
1943 13-12-2005 11:56:16 2.2 C 5.35 g/m*3 2.2 C 0 km/h
1944 13-12-2005 12:06:16 2.4 C 5.42 g/m*3 2.4 C 0 km/h
1945 13-12-2005 12:16:16 2.4 C 5.42 g/m*3 2.4 C 0 km/h
1946 13-12-2005 12:26:16 2.4 C 5.42 g/m*3 2.4 C 0 km/h
1947 13-12-2005 12:36:17 3 C 5.65 g/m*3 3 C 0 km/h
1948 13-12-2005 12:46:16 3 C 5.65 g/m*3 3 C 0 km/h
1949 13-12-2005 12:56:16 3.1 C 5.69 g/m*3 3.1 C 0 km/h
1950 13-12-2005 13:06:17 2.9 C 5.61 g/m*3 2.9 C 0 km/h
Sensor: Nr:Datum:Temp:Abs-Feuchte:Windchill:Wind:
Aussen-T/F 1951 13-12-2005 13:16:17 3 C 5.65 g/m*3 3 C 0 km/h
1952 13-12-2005 13:26:17 3 C 5.65 g/m*3 3 C 0 km/h
1953 13-12-2005 13:36:16 3.1 C 5.63 g/m*3 3.1 C 0 km/h
1954 13-12-2005 13:46:17 3.3 C 5.7 g/m*3 3.3 C 0 km/h
1955 13-12-2005 13:56:17 3.4 C 5.68 g/m*3 3.4 C 0 km/h
1956 13-12-2005 14:06:16 3.6 C 5.69 g/m*3 3.6 C 0 km/h
1957 13-12-2005 14:16:16 3.7 C 5.73 g/m*3 3.7 C 0 km/h
1958 13-12-2005 14:26:16 3.9 C 5.81 g/m*3 3.9 C 0 km/h
1959 13-12-2005 14:36:17 4 C 5.79 g/m*3 4 C 0 km/h
1960 13-12-2005 14:46:16 4 C 5.72 g/m*3 4 C 0 km/h
1961 13-12-2005 14:56:16 3.9 C 5.75 g/m*3 3.9 C 0 km/h
1962 13-12-2005 15:06:17 3.8 C 5.65 g/m*3 3.8 C 0 km/h
1963 13-12-2005 15:16:17 3.8 C 5.65 g/m*3 3.8 C 0 km/h
1964 13-12-2005 15:26:18 3.8 C 5.65 g/m*3 3.8 C 0 km/h
1965 13-12-2005 15:36:16 3.7 C 5.61 g/m*3 3.7 C 0 km/h
1966 13-12-2005 15:46:17 3.8 C 5.65 g/m*3 3.8 C 0 km/h
1967 13-12-2005 15:56:17 3.8 C 5.65 g/m*3 3.8 C 0 km/h
1968 13-12-2005 16:06:16 3.7 C 5.61 g/m*3 3.7 C 0 km/h
1969 13-12-2005 16:16:16 3.7 C 5.61 g/m*3 3.7 C 0 km/h
1970 13-12-2005 16:26:16 3.6 C 5.57 g/m*3 3.6 C 0 km/h
1971 13-12-2005 16:36:17 3.5 C 5.53 g/m*3 3.5 C 0 km/h
1972 13-12-2005 16:46:17 3.4 C 5.56 g/m*3 3.4 C 0 km/h
1973 13-12-2005 16:56:17 3.4 C 5.56 g/m*3 3.4 C 0 km/h
1974 13-12-2005 17:06:17 3.4 C 5.56 g/m*3 3.4 C 0 km/h
1975 13-12-2005 17:16:17 3.4 C 5.56 g/m*3 3.4 C 0 km/h
Sensor: Nr:Datum:Temp:Abs-Feuchte:Windchill:Wind:
Aussen-T/F 1976 13-12-2005 17:26:17 3.5 C 5.6 g/m*3 3.5 C 0 km/h
1977 13-12-2005 17:36:17 3.5 C 5.6 g/m*3 3.5 C 0 km/h
1978 13-12-2005 17:46:17 3.4 C 5.56 g/m*3 3.4 C 0 km/h
1979 13-12-2005 17:56:17 3.4 C 5.56 g/m*3 3.4 C 0 km/h
1980 13-12-2005 18:06:16 3.3 C 5.52 g/m*3 3.3 C 0 km/h
1981 13-12-2005 18:16:17 3.4 C 5.56 g/m*3 3.4 C 0 km/h
1982 13-12-2005 18:26:17 3.3 C 5.52 g/m*3 3.3 C 0 km/h
1983 13-12-2005 18:36:17 3.3 C 5.52 g/m*3 3.3 C 0 km/h
1984 13-12-2005 18:46:17 3.3 C 5.52 g/m*3 3.3 C 0 km/h
1985 13-12-2005 18:56:17 3.2 C 5.48 g/m*3 3.2 C 0 km/h
1986 13-12-2005 19:06:17 3.3 C 5.52 g/m*3 3.3 C 0 km/h
1987 13-12-2005 19:16:17 3.3 C 5.58 g/m*3 3.3 C 0 km/h
1988 13-12-2005 19:26:17 3.3 C 5.58 g/m*3 3.3 C 0 km/h
1989 13-12-2005 19:36:18 3.3 C 5.58 g/m*3 3.3 C 0 km/h
1990 13-12-2005 19:46:17 3.2 C 5.54 g/m*3 3.2 C 0 km/h
1991 13-12-2005 19:56:17 3.2 C 5.54 g/m*3 3.2 C 0 km/h
1992 13-12-2005 20:06:17 3.2 C 5.54 g/m*3 3.2 C 0 km/h
1993 13-12-2005 20:16:17 3.1 C 5.51 g/m*3 3.1 C 0 km/h
1994 13-12-2005 20:26:17 3.1 C 5.51 g/m*3 3.1 C 0 km/h
1995 13-12-2005 20:36:17 3.1 C 5.51 g/m*3 3.1 C 0 km/h
1996 13-12-2005 20:46:17 3.1 C 5.51 g/m*3 3.1 C 0 km/h
1997 13-12-2005 20:56:17 3.1 C 5.51 g/m*3 3.1 C 0 km/h
1998 13-12-2005 21:06:17 3 C 5.47 g/m*3 3 C 0 km/h
1999 13-12-2005 21:16:18 3 C 5.47 g/m*3 3 C 0 km/h
2000 13-12-2005 21:26:18 3 C 5.53 g/m*3 3 C 0 km/h
Sensor: Nr:Datum:Temp:Abs-Feuchte:Windchill:Wind:
Aussen-T/F 2001 13-12-2005 21:36:17 3 C 5.53 g/m*3 3 C 0 km/h
2002 13-12-2005 21:46:18 3 C 5.53 g/m*3 3 C 0 km/h
2003 13-12-2005 21:56:18 3.1 C 5.57 g/m*3 3.1 C 0 km/h
2004 13-12-2005 22:06:18 3.1 C 5.57 g/m*3 3.1 C 0 km/h
2005 13-12-2005 22:16:18 3 C 5.53 g/m*3 3 C 0 km/h
2006 13-12-2005 22:26:18 3 C 5.53 g/m*3 3 C 0 km/h
2007 13-12-2005 22:36:17 3 C 5.53 g/m*3 3 C 0 km/h
2008 13-12-2005 22:46:17 3 C 5.53 g/m*3 3 C 0 km/h
2009 13-12-2005 22:56:17 2.9 C 5.49 g/m*3 2.9 C 0 km/h
2010 13-12-2005 23:06:18 2.9 C 5.49 g/m*3 2.9 C 0 km/h
2011 13-12-2005 23:16:18 2.9 C 5.49 g/m*3 2.9 C 0 km/h
2012 13-12-2005 23:26:18 2.8 C 5.46 g/m*3 2.8 C 0 km/h
2013 13-12-2005 23:36:17 2.8 C 5.46 g/m*3 2.8 C 0 km/h
2014 13-12-2005 23:46:18 2.9 C 5.49 g/m*3 2.9 C 0 km/h
2015 13-12-2005 23:56:18 2.9 C 5.49 g/m*3 2.9 C 0 km/h
2016 14-12-2005 00:06:18 2.9 C 5.49 g/m*3 2.9 C 0 km/h
2017 14-12-2005 00:16:18 2.9 C 5.49 g/m*3 2.9 C 0 km/h
2018 14-12-2005 00:26:18 2.9 C 5.49 g/m*3 2.9 C 0 km/h
2019 14-12-2005 00:36:18 2.9 C 5.49 g/m*3 2.9 C 0 km/h
2020 14-12-2005 00:46:17 2.9 C 5.49 g/m*3 2.9 C 0 km/h
2021 14-12-2005 00:56:17 2.9 C 5.43 g/m*3 2.9 C 0 km/h
2022 14-12-2005 01:06:17 2.8 C 5.4 g/m*3 2.8 C 0 km/h
2023 14-12-2005 01:16:17 2.8 C 5.4 g/m*3 2.8 C 0 km/h
2024 14-12-2005 01:26:17 2.8 C 5.4 g/m*3 2.8 C 0 km/h
2025 14-12-2005 01:36:17 2.8 C 5.4 g/m*3 2.8 C 0 km/h
Sensor: Nr:Datum:Temp:Abs-Feuchte:Windchill:Wind:
Aussen-T/F 2026 14-12-2005 01:46:18 2.7 C 5.36 g/m*3 2.7 C 0 km/h
2027 14-12-2005 01:56:18 2.7 C 5.36 g/m*3 2.7 C 0 km/h
2028 14-12-2005 02:06:18 2.8 C 5.4 g/m*3 2.8 C 0 km/h
2029 14-12-2005 02:16:18 2.8 C 5.4 g/m*3 2.8 C 0 km/h
2030 14-12-2005 02:26:18 2.9 C 5.43 g/m*3 2.9 C 0 km/h
2031 14-12-2005 02:36:18 2.9 C 5.43 g/m*3 2.9 C 0 km/h
2032 14-12-2005 02:47:19 3 C 5.41 g/m*3 3 C 0 km/h
2033 14-12-2005 02:57:19 3 C 5.41 g/m*3 3 C 0 km/h
2034 14-12-2005 03:07:19 2.9 C 5.37 g/m*3 2.9 C 0 km/h
2035 14-12-2005 03:17:19 2.9 C 5.37 g/m*3 2.9 C 0 km/h
2036 14-12-2005 03:27:20 2.9 C 5.37 g/m*3 2.9 C 0 km/h
2037 14-12-2005 03:37:19 2.9 C 5.37 g/m*3 2.9 C 0 km/h
2038 14-12-2005 03:47:19 2.9 C 5.37 g/m*3 2.9 C 0 km/h
2039 14-12-2005 03:57:19 2.9 C 5.37 g/m*3 2.9 C 0 km/h
2040 14-12-2005 04:07:20 2.9 C 5.37 g/m*3 2.9 C 0 km/h
2041 14-12-2005 04:17:19 2.8 C 5.34 g/m*3 2.8 C 0 km/h
2042 14-12-2005 04:27:20 2.8 C 5.34 g/m*3 2.8 C 0 km/h
2043 14-12-2005 04:37:19 2.8 C 5.34 g/m*3 2.8 C 0 km/h
2044 14-12-2005 04:47:20 2.8 C 5.34 g/m*3 2.8 C 0 km/h
2045 14-12-2005 04:57:20 2.9 C 5.37 g/m*3 2.9 C 0 km/h
2046 14-12-2005 05:07:20 2.9 C 5.37 g/m*3 2.9 C 0 km/h
2047 14-12-2005 05:17:19 2.9 C 5.37 g/m*3 2.9 C 0 km/h
2048 14-12-2005 05:27:19 2.9 C 5.32 g/m*3 2.9 C 0 km/h
2049 14-12-2005 05:37:19 3 C 5.29 g/m*3 3 C 0 km/h
2050 14-12-2005 05:47:19 3 C 5.29 g/m*3 3 C 0 km/h
Sensor: Nr:Datum:Temp:Abs-Feuchte:Windchill:Wind:
Aussen-T/F 2051 14-12-2005 05:57:19 3 C 5.29 g/m*3 3 C 0 km/h
2052 14-12-2005 06:07:20 3 C 5.29 g/m*3 3 C 0 km/h
2053 14-12-2005 06:17:20 2.8 C 5.22 g/m*3 2.8 C 0 km/h
2054 14-12-2005 06:27:20 2.8 C 5.28 g/m*3 2.8 C 0 km/h
2055 14-12-2005 06:37:20 2.9 C 5.32 g/m*3 2.9 C 0 km/h
2056 14-12-2005 06:47:20 2.9 C 5.32 g/m*3 2.9 C 0 km/h
2057 14-12-2005 06:57:20 2.9 C 5.32 g/m*3 2.9 C 0 km/h
2058 14-12-2005 07:07:20 2.8 C 5.28 g/m*3 2.8 C 0 km/h
2059 14-12-2005 07:17:19 2.8 C 5.28 g/m*3 2.8 C 0 km/h
2060 14-12-2005 07:27:19 2.8 C 5.28 g/m*3 2.8 C 0 km/h
2061 14-12-2005 07:37:20 2.9 C 5.32 g/m*3 2.9 C 0 km/h
2062 14-12-2005 07:47:20 2.9 C 5.32 g/m*3 2.9 C 0 km/h
2063 14-12-2005 07:57:20 2.9 C 5.26 g/m*3 2.9 C 0 km/h
2064 14-12-2005 08:07:19 2.9 C 5.26 g/m*3 2.9 C 0 km/h
2065 14-12-2005 08:17:20 2.9 C 5.26 g/m*3 2.9 C 0 km/h
2066 14-12-2005 08:27:20 2.9 C 5.26 g/m*3 2.9 C 0 km/h
2067 14-12-2005 08:37:20 2.9 C 5.32 g/m*3 2.9 C 0 km/h
2068 14-12-2005 08:47:20 2.9 C 5.32 g/m*3 2.9 C 0 km/h
2069 14-12-2005 08:57:20 3.1 C 5.39 g/m*3 3.1 C 0 km/h
2070 14-12-2005 09:07:20 3.1 C 5.39 g/m*3 3.1 C 0 km/h
2071 14-12-2005 09:17:20 3 C 5.35 g/m*3 3 C 0 km/h
2072 14-12-2005 09:27:20 3.1 C 5.39 g/m*3 3.1 C 0 km/h
2073 14-12-2005 09:37:20 3.2 C 5.42 g/m*3 3.2 C 0 km/h
2074 14-12-2005 09:47:20 3.2 C 5.42 g/m*3 3.2 C 0 km/h
2075 14-12-2005 09:57:20 3.3 C 5.46 g/m*3 3.3 C 0 km/h
Sensor: Nr:Datum:Temp:Abs-Feuchte:Windchill:Wind:
Aussen-T/F 2076 14-12-2005 10:07:20 3.3 C 5.46 g/m*3 3.3 C 0 km/h
2077 14-12-2005 10:17:21 3.5 C 5.47 g/m*3 3.5 C 0 km/h
2078 14-12-2005 10:27:21 3.5 C 5.47 g/m*3 3.5 C 0 km/h
2079 14-12-2005 10:37:20 3.5 C 5.47 g/m*3 3.5 C 0 km/h
2080 14-12-2005 10:47:21 3.6 C 5.51 g/m*3 3.6 C 0 km/h
2081 14-12-2005 10:57:21 3.5 C 5.53 g/m*3 3.5 C 0 km/h
2082 14-12-2005 11:07:20 3.4 C 5.5 g/m*3 3.4 C 0 km/h
2083 14-12-2005 11:17:20 3.4 C 5.56 g/m*3 3.4 C 0 km/h
2084 14-12-2005 11:27:20 3.6 C 5.63 g/m*3 3.6 C 0 km/h
2085 14-12-2005 11:37:20 3.6 C 5.69 g/m*3 3.6 C 0 km/h
2086 14-12-2005 11:47:20 3.5 C 5.66 g/m*3 3.5 C 0 km/h
2087 14-12-2005 11:57:20 3.5 C 5.66 g/m*3 3.5 C 0 km/h
2088 14-12-2005 12:07:20 3.6 C 5.69 g/m*3 3.6 C 0 km/h
2089 14-12-2005 12:17:21 3.7 C 5.73 g/m*3 3.7 C 0 km/h
2090 14-12-2005 12:27:21 3.8 C 5.77 g/m*3 3.8 C 0 km/h
2091 14-12-2005 12:37:21 3.9 C 5.81 g/m*3 3.9 C 0 km/h
2092 14-12-2005 12:47:20 4.1 C 5.82 g/m*3 4.1 C 0 km/h
2093 14-12-2005 12:57:20 4.3 C 5.9 g/m*3 4.3 C 0 km/h
2094 14-12-2005 13:07:21 4.3 C 5.9 g/m*3 4.3 C 0 km/h
2095 14-12-2005 13:17:20 4.3 C 5.9 g/m*3 4.3 C 0 km/h
2096 14-12-2005 13:27:21 4.4 C 5.94 g/m*3 4.4 C 0 km/h
2097 14-12-2005 13:37:20 4.5 C 5.98 g/m*3 4.5 C 0 km/h
2098 14-12-2005 13:47:20 4.6 C 6.02 g/m*3 4.6 C 0 km/h
2099 14-12-2005 13:57:20 4.5 C 5.98 g/m*3 4.5 C 0 km/h
2100 14-12-2005 14:07:20 4.4 C 5.94 g/m*3 4.4 C 0 km/h
Sensor: Nr:Datum:Temp:Abs-Feuchte:Windchill:Wind:
Aussen-T/F 2101 14-12-2005 14:17:21 4.5 C 5.98 g/m*3 4.5 C 0 km/h
2102 14-12-2005 14:27:21 4.6 C 6.02 g/m*3 4.6 C 0 km/h
2103 14-12-2005 14:37:21 4.7 C 6.06 g/m*3 4.7 C 0 km/h
2104 14-12-2005 14:47:21 4.7 C 6.06 g/m*3 4.7 C 0 km/h
2105 14-12-2005 14:57:21 4.9 C 6.14 g/m*3 4.9 C 0 km/h
2106 14-12-2005 15:07:21 5.2 C 6.27 g/m*3 5.2 C 0 km/h
2107 14-12-2005 15:17:20 5.3 C 6.31 g/m*3 5.3 C 0 km/h
2108 14-12-2005 15:27:20 5.3 C 6.31 g/m*3 5.3 C 0 km/h
2109 14-12-2005 15:37:20 5.2 C 6.27 g/m*3 5.2 C 0 km/h
2110 14-12-2005 15:47:20 5.3 C 6.31 g/m*3 5.3 C 0 km/h
2111 14-12-2005 15:57:20 5.2 C 6.27 g/m*3 5.2 C 0 km/h
2112 14-12-2005 16:07:20 5.2 C 6.27 g/m*3 5.2 C 0 km/h
2113 14-12-2005 16:17:21 5.1 C 6.22 g/m*3 5.1 C 0 km/h
2114 14-12-2005 16:27:21 5 C 6.18 g/m*3 5 C 0 km/h
2115 14-12-2005 16:37:21 4.9 C 6.21 g/m*3 4.9 C 0 km/h
2116 14-12-2005 16:47:21 4.9 C 6.21 g/m*3 4.9 C 0 km/h
2117 14-12-2005 16:57:21 4.8 C 6.17 g/m*3 4.8 C 0 km/h
2118 14-12-2005 17:07:21 4.8 C 6.17 g/m*3 4.8 C 0 km/h
2119 14-12-2005 17:17:21 4.8 C 6.17 g/m*3 4.8 C 0 km/h
2120 14-12-2005 17:27:21 4.7 C 6.13 g/m*3 4.7 C 0 km/h
2121 14-12-2005 17:37:21 4.7 C 6.19 g/m*3 4.7 C 0 km/h
2122 14-12-2005 17:47:21 4.7 C 6.19 g/m*3 4.7 C 0 km/h
2123 14-12-2005 17:57:21 4.9 C 6.28 g/m*3 4.9 C 0 km/h
2124 14-12-2005 18:07:21 4.7 C 6.19 g/m*3 4.7 C 0 km/h
2125 14-12-2005 18:17:22 4.7 C 6.19 g/m*3 4.7 C 0 km/h
Sensor: Nr:Datum:Temp:Abs-Feuchte:Windchill:Wind:
Aussen-T/F 2126 14-12-2005 18:27:22 4.6 C 6.15 g/m*3 4.6 C 0 km/h
2127 14-12-2005 18:37:21 4.6 C 6.15 g/m*3 4.6 C 0 km/h
2128 14-12-2005 18:47:21 4.6 C 6.22 g/m*3 4.6 C 0 km/h
2129 14-12-2005 18:57:21 4.8 C 6.3 g/m*3 4.8 C 0 km/h
2130 14-12-2005 19:07:21 4.7 C 6.26 g/m*3 4.7 C 0 km/h
2131 14-12-2005 19:17:21 4.7 C 6.26 g/m*3 4.7 C 0 km/h
2132 14-12-2005 19:27:21 4.7 C 6.26 g/m*3 4.7 C 0 km/h
2133 14-12-2005 19:37:21 4.8 C 6.3 g/m*3 4.8 C 0 km/h
2134 14-12-2005 19:47:21 4.7 C 6.26 g/m*3 4.7 C 0 km/h
2135 14-12-2005 19:57:21 4.7 C 6.26 g/m*3 4.7 C 0 km/h
2136 14-12-2005 20:07:21 4.7 C 6.33 g/m*3 4.7 C 0 km/h
2137 14-12-2005 20:17:21 4.7 C 6.33 g/m*3 4.7 C 0 km/h
2138 14-12-2005 20:27:21 4.7 C 6.33 g/m*3 4.7 C 0 km/h
2139 14-12-2005 20:37:21 4.6 C 6.29 g/m*3 4.6 C 0 km/h
2140 14-12-2005 20:47:22 4.6 C 6.29 g/m*3 4.6 C 0 km/h
2141 14-12-2005 20:57:22 4.6 C 6.29 g/m*3 4.6 C 0 km/h
2142 14-12-2005 21:07:21 4.6 C 6.29 g/m*3 4.6 C 0 km/h
2143 14-12-2005 21:17:21 4.6 C 6.29 g/m*3 4.6 C 0 km/h
2144 14-12-2005 21:27:21 4.6 C 6.29 g/m*3 4.6 C 0 km/h
2145 14-12-2005 21:37:21 4.6 C 6.29 g/m*3 4.6 C 0 km/h
2146 14-12-2005 21:47:21 4.7 C 6.33 g/m*3 4.7 C 0 km/h
2147 14-12-2005 21:57:21 4.7 C 6.33 g/m*3 4.7 C 0 km/h
2148 14-12-2005 22:07:21 4.6 C 6.29 g/m*3 4.6 C 0 km/h
2149 14-12-2005 22:17:21 4.6 C 6.29 g/m*3 4.6 C 0 km/h
2150 14-12-2005 22:27:21 4.7 C 6.33 g/m*3 4.7 C 0 km/h
Sensor: Nr:Datum:Temp:Abs-Feuchte:Windchill:Wind:
Aussen-T/F 2151 14-12-2005 22:37:21 4.6 C 6.29 g/m*3 4.6 C 0 km/h
2152 14-12-2005 22:47:22 4.7 C 6.33 g/m*3 4.7 C 0 km/h
2153 14-12-2005 22:57:22 4.7 C 6.33 g/m*3 4.7 C 0 km/h
2154 14-12-2005 23:07:21 4.8 C 6.37 g/m*3 4.8 C 0 km/h
2155 14-12-2005 23:17:21 4.8 C 6.37 g/m*3 4.8 C 0 km/h
2156 14-12-2005 23:27:21 4.9 C 6.41 g/m*3 4.9 C 0 km/h
2157 14-12-2005 23:37:22 4.8 C 6.37 g/m*3 4.8 C 0 km/h
2158 14-12-2005 23:47:21 4.9 C 6.41 g/m*3 4.9 C 0 km/h
2159 14-12-2005 23:57:21 4.8 C 6.37 g/m*3 4.8 C 0 km/h
2160 15-12-2005 00:07:22 5 C 6.46 g/m*3 5 C 0 km/h
2161 15-12-2005 00:17:22 5 C 6.46 g/m*3 5 C 0 km/h
2162 15-12-2005 00:27:22 5.1 C 6.5 g/m*3 5.1 C 0 km/h
2163 15-12-2005 00:37:22 5.1 C 6.5 g/m*3 5.1 C 0 km/h
2164 15-12-2005 00:47:21 5.1 C 6.5 g/m*3 5.1 C 0 km/h
2165 15-12-2005 00:57:21 5.1 C 6.5 g/m*3 5.1 C 0 km/h
2166 15-12-2005 01:07:22 5.1 C 6.43 g/m*3 5.1 C 0 km/h
2167 15-12-2005 01:17:22 5 C 6.32 g/m*3 5 C 0 km/h
2168 15-12-2005 01:27:22 5 C 6.32 g/m*3 5 C 0 km/h
2169 15-12-2005 01:37:22 5 C 6.25 g/m*3 5 C 0 km/h
2170 15-12-2005 01:47:22 4.8 C 6.1 g/m*3 4.8 C 0 km/h
2171 15-12-2005 01:57:22 4.7 C 6 g/m*3 4.7 C 0 km/h
2172 15-12-2005 02:07:22 4.5 C 5.85 g/m*3 4.5 C 0 km/h
2173 15-12-2005 02:17:22 4.6 C 5.89 g/m*3 4.6 C 0 km/h
2174 15-12-2005 02:27:22 4.6 C 5.96 g/m*3 4.6 C 0 km/h
2175 15-12-2005 02:37:22 4.7 C 6 g/m*3 4.7 C 0 km/h
Sensor: Nr:Datum:Temp:Abs-Feuchte:Windchill:Wind:
Aussen-T/F 2176 15-12-2005 02:48:23 4.7 C 6 g/m*3 4.7 C 0 km/h
2177 15-12-2005 02:58:23 4.7 C 6 g/m*3 4.7 C 0 km/h
2178 15-12-2005 03:08:23 4.7 C 6 g/m*3 4.7 C 0 km/h
2179 15-12-2005 03:18:23 4.7 C 6 g/m*3 4.7 C 0 km/h
2180 15-12-2005 03:28:23 4.6 C 5.96 g/m*3 4.6 C 0 km/h
2181 15-12-2005 03:38:23 4.4 C 5.88 g/m*3 4.4 C 0 km/h
2182 15-12-2005 03:48:23 4.3 C 5.84 g/m*3 4.3 C 0 km/h
2183 15-12-2005 03:58:23 4.4 C 5.94 g/m*3 4.4 C 0 km/h
2184 15-12-2005 04:08:24 4.5 C 6.05 g/m*3 4.5 C 0 km/h
2185 15-12-2005 04:18:23 4.4 C 6.01 g/m*3 4.4 C 0 km/h
2186 15-12-2005 04:28:24 4.1 C 5.82 g/m*3 4.1 C 0 km/h
2187 15-12-2005 04:38:23 4 C 5.79 g/m*3 4 C 0 km/h
2188 15-12-2005 04:48:23 4.1 C 5.82 g/m*3 4.1 C 0 km/h
2189 15-12-2005 04:58:23 4.2 C 5.93 g/m*3 4.2 C 0 km/h
2190 15-12-2005 05:08:23 4.2 C 5.86 g/m*3 4.2 C 0 km/h
2191 15-12-2005 05:18:23 4.2 C 5.86 g/m*3 4.2 C 0 km/h
2192 15-12-2005 05:28:23 4.2 C 5.8 g/m*3 4.2 C 0 km/h
2193 15-12-2005 05:38:23 4.3 C 5.77 g/m*3 4.3 C 0 km/h
2194 15-12-2005 05:48:23 4.2 C 5.67 g/m*3 4.2 C 0 km/h
2195 15-12-2005 05:58:23 4.2 C 5.67 g/m*3 4.2 C 0 km/h
2196 15-12-2005 06:08:23 4.1 C 5.63 g/m*3 4.1 C 0 km/h
2197 15-12-2005 06:18:24 4.1 C 5.57 g/m*3 4.1 C 0 km/h
2198 15-12-2005 06:28:24 4.1 C 5.57 g/m*3 4.1 C 0 km/h
2199 15-12-2005 06:38:23 4.1 C 5.5 g/m*3 4.1 C 0 km/h
2200 15-12-2005 06:48:23 4.1 C 5.44 g/m*3 4.1 C 0 km/h
Sensor: Nr:Datum:Temp:Abs-Feuchte:Windchill:Wind:
Aussen-T/F 2201 15-12-2005 06:58:23 4.1 C 5.44 g/m*3 4.1 C 0 km/h
2202 15-12-2005 07:08:23 4 C 5.4 g/m*3 4 C 0 km/h
2203 15-12-2005 07:18:23 3.8 C 5.4 g/m*3 3.8 C 0 km/h
2204 15-12-2005 07:28:23 3.5 C 5.29 g/m*3 3.5 C 0 km/h
2205 15-12-2005 07:38:23 3.5 C 5.35 g/m*3 3.5 C 0 km/h
2206 15-12-2005 07:48:24 3.7 C 5.42 g/m*3 3.7 C 0 km/h
2207 15-12-2005 07:58:24 4 C 5.47 g/m*3 4 C 0 km/h
2208 15-12-2005 08:08:23 4 C 5.4 g/m*3 4 C 0 km/h
2209 15-12-2005 08:18:23 3.9 C 5.37 g/m*3 3.9 C 0 km/h
2210 15-12-2005 08:28:23 3.9 C 5.37 g/m*3 3.9 C 0 km/h
2211 15-12-2005 08:38:23 4 C 5.34 g/m*3 4 C 0 km/h
2212 15-12-2005 08:48:23 3.9 C 5.31 g/m*3 3.9 C 0 km/h
2213 15-12-2005 08:58:23 3.9 C 5.31 g/m*3 3.9 C 0 km/h
2214 15-12-2005 09:08:23 4 C 5.28 g/m*3 4 C 0 km/h
2215 15-12-2005 09:18:24 4 C 5.28 g/m*3 4 C 0 km/h
2216 15-12-2005 09:28:24 4 C 5.34 g/m*3 4 C 0 km/h
2217 15-12-2005 09:38:24 4.1 C 5.31 g/m*3 4.1 C 0 km/h
2218 15-12-2005 09:48:24 4.2 C 5.35 g/m*3 4.2 C 0 km/h
2219 15-12-2005 09:58:24 4.3 C 5.38 g/m*3 4.3 C 0 km/h
2220 15-12-2005 10:08:24 4.4 C 5.42 g/m*3 4.4 C 0 km/h
2221 15-12-2005 10:18:23 4.3 C 5.38 g/m*3 4.3 C 0 km/h
2222 15-12-2005 10:28:23 4.4 C 5.48 g/m*3 4.4 C 0 km/h
2223 15-12-2005 10:38:23 4.6 C 5.49 g/m*3 4.6 C 0 km/h
2224 15-12-2005 10:48:23 4.7 C 5.53 g/m*3 4.7 C 0 km/h
2225 15-12-2005 10:58:23 4.9 C 5.6 g/m*3 4.9 C 0 km/h
Sensor: Nr:Datum:Temp:Abs-Feuchte:Windchill:Wind:
Aussen-T/F 2226 15-12-2005 11:08:23 5.2 C 5.65 g/m*3 5.2 C 0 km/h
2227 15-12-2005 11:18:24 5.4 C 5.58 g/m*3 5.4 C 0 km/h
2228 15-12-2005 11:28:24 5.7 C 5.55 g/m*3 5.7 C 0 km/h
2229 15-12-2005 11:38:24 5.7 C 5.48 g/m*3 5.7 C 0 km/h
2230 15-12-2005 11:48:24 5.7 C 5.41 g/m*3 5.7 C 0 km/h
2231 15-12-2005 11:58:24 5.8 C 5.44 g/m*3 5.8 C 0 km/h
2232 15-12-2005 12:08:24 6 C 5.37 g/m*3 6 C 0 km/h
2233 15-12-2005 12:18:24 6.5 C 5.25 g/m*3 6.5 C 0 km/h
2234 15-12-2005 12:28:24 6.5 C 5.25 g/m*3 6.5 C 0 km/h
2235 15-12-2005 12:38:23 6.3 C 5.18 g/m*3 6.3 C 0 km/h
2236 15-12-2005 12:48:24 6.5 C 5.17 g/m*3 6.5 C 0 km/h
2237 15-12-2005 12:58:24 6.8 C 5.2 g/m*3 6.8 C 0 km/h
2238 15-12-2005 13:08:24 6.8 C 5.12 g/m*3 6.8 C 0 km/h
2239 15-12-2005 13:18:24 6.9 C 5.08 g/m*3 6.9 C 0 km/h
2240 15-12-2005 13:28:24 7 C 5.04 g/m*3 7 C 0 km/h
2241 15-12-2005 13:38:24 6.9 C 5.16 g/m*3 6.9 C 0 km/h
2242 15-12-2005 13:48:24 7 C 5.11 g/m*3 7 C 0 km/h
2243 15-12-2005 13:58:24 7.1 C 5.07 g/m*3 7.1 C 0 km/h
2244 15-12-2005 14:08:24 7.1 C 5.23 g/m*3 7.1 C 0 km/h
2245 15-12-2005 14:18:24 6.9 C 5.23 g/m*3 6.9 C 0 km/h
2246 15-12-2005 14:28:24 6.9 C 5.23 g/m*3 6.9 C 0 km/h
2247 15-12-2005 14:38:24 6.8 C 5.28 g/m*3 6.8 C 0 km/h
2248 15-12-2005 14:48:24 6.8 C 5.28 g/m*3 6.8 C 0 km/h
2249 15-12-2005 14:58:24 6.6 C 5.28 g/m*3 6.6 C 0 km/h
2250 15-12-2005 15:08:24 6.6 C 5.36 g/m*3 6.6 C 0 km/h
Sensor: Nr:Datum:Temp:Abs-Feuchte:Windchill:Wind:
Aussen-T/F 2251 15-12-2005 15:18:24 6.3 C 5.48 g/m*3 6.3 C 0 km/h
2252 15-12-2005 15:28:25 6.3 C 5.48 g/m*3 6.3 C 0 km/h
2253 15-12-2005 15:38:24 6.1 C 5.55 g/m*3 6.1 C 0 km/h
2254 15-12-2005 15:48:24 6.2 C 5.52 g/m*3 6.2 C 0 km/h
2255 15-12-2005 15:58:25 6.2 C 5.52 g/m*3 6.2 C 0 km/h
2256 15-12-2005 16:08:24 6.3 C 5.48 g/m*3 6.3 C 0 km/h
2257 15-12-2005 16:18:24 6.3 C 5.48 g/m*3 6.3 C 0 km/h
2258 15-12-2005 16:28:24 6.2 C 5.52 g/m*3 6.2 C 0 km/h
2259 15-12-2005 16:38:25 6.3 C 5.55 g/m*3 6.3 C 0 km/h
2260 15-12-2005 16:48:24 6.4 C 5.59 g/m*3 6.4 C 0 km/h
2261 15-12-2005 16:58:25 6.3 C 5.7 g/m*3 6.3 C 0 km/h
2262 15-12-2005 17:08:24 6.2 C 5.74 g/m*3 6.2 C 0 km/h
2263 15-12-2005 17:18:24 6 C 5.88 g/m*3 6 C 0 km/h
2264 15-12-2005 17:28:24 6 C 5.95 g/m*3 6 C 0 km/h
2265 15-12-2005 17:38:25 6 C 5.88 g/m*3 6 C 0 km/h
2266 15-12-2005 17:48:24 6.2 C 5.81 g/m*3 6.2 C 0 km/h
2267 15-12-2005 17:58:24 6.7 C 5.62 g/m*3 6.7 C 0 km/h
2268 15-12-2005 18:08:24 6.9 C 5.54 g/m*3 6.9 C 0 km/h
2269 15-12-2005 18:18:24 6.9 C 5.47 g/m*3 6.9 C 0 km/h
2270 15-12-2005 18:28:24 7.2 C 5.34 g/m*3 7.2 C 0 km/h
2271 15-12-2005 18:38:25 7.3 C 5.29 g/m*3 7.3 C 0 km/h
2272 15-12-2005 18:48:24 7.3 C 5.29 g/m*3 7.3 C 0 km/h
2273 15-12-2005 18:58:24 7.4 C 5.25 g/m*3 7.4 C 0 km/h
2274 15-12-2005 19:08:25 7.4 C 5.25 g/m*3 7.4 C 0 km/h
2275 15-12-2005 19:18:25 7.3 C 5.29 g/m*3 7.3 C 0 km/h
Sensor: Nr:Datum:Temp:Abs-Feuchte:Windchill:Wind:
Aussen-T/F 2276 15-12-2005 19:28:25 7.4 C 5.25 g/m*3 7.4 C 0 km/h
2277 15-12-2005 19:38:24 7.3 C 5.21 g/m*3 7.3 C 0 km/h
2278 15-12-2005 19:48:25 7.3 C 5.21 g/m*3 7.3 C 0 km/h
2279 15-12-2005 19:58:25 7.1 C 5.15 g/m*3 7.1 C 0 km/h
2280 15-12-2005 20:08:24 7.3 C 5.14 g/m*3 7.3 C 0 km/h
2281 15-12-2005 20:18:24 7.1 C 5.07 g/m*3 7.1 C 0 km/h
2282 15-12-2005 20:28:24 7 C 5.11 g/m*3 7 C 0 km/h
2283 15-12-2005 20:38:25 6.9 C 5.16 g/m*3 6.9 C 0 km/h
2284 15-12-2005 20:48:24 7 C 5.04 g/m*3 7 C 0 km/h
2285 15-12-2005 20:58:24 7 C 5.04 g/m*3 7 C 0 km/h
2286 15-12-2005 21:08:24 7.1 C 4.99 g/m*3 7.1 C 0 km/h
2287 15-12-2005 21:18:25 7.2 C 5.02 g/m*3 7.2 C 0 km/h
2288 15-12-2005 21:28:25 7.2 C 4.95 g/m*3 7.2 C 0 km/h
2289 15-12-2005 21:38:25 7.1 C 4.91 g/m*3 7.1 C 0 km/h
2290 15-12-2005 21:48:25 7.1 C 4.91 g/m*3 7.1 C 0 km/h
2291 15-12-2005 21:58:25 7 C 4.88 g/m*3 7 C 0 km/h
2292 15-12-2005 22:08:26 7.1 C 4.91 g/m*3 7.1 C 0 km/h
2293 15-12-2005 22:18:25 7 C 4.96 g/m*3 7 C 0 km/h
2294 15-12-2005 22:28:25 6.9 C 5 g/m*3 6.9 C 0 km/h
2295 15-12-2005 22:38:25 6.7 C 5.01 g/m*3 6.7 C 0 km/h
2296 15-12-2005 22:48:25 6.5 C 5.02 g/m*3 6.5 C 0 km/h
2297 15-12-2005 22:58:25 6.4 C 4.99 g/m*3 6.4 C 0 km/h
2298 15-12-2005 23:08:25 6.4 C 4.99 g/m*3 6.4 C 0 km/h
2299 15-12-2005 23:18:25 6.3 C 5.03 g/m*3 6.3 C 0 km/h
2300 15-12-2005 23:28:25 6.3 C 4.96 g/m*3 6.3 C 0 km/h
Sensor: Nr:Datum:Temp:Abs-Feuchte:Windchill:Wind:
Aussen-T/F 2301 15-12-2005 23:38:25 6.1 C 4.97 g/m*3 6.1 C 0 km/h
2302 15-12-2005 23:48:25 6 C 5.01 g/m*3 6 C 0 km/h
2303 15-12-2005 23:58:25 6.1 C 5.04 g/m*3 6.1 C 0 km/h
2304 16-12-2005 00:08:25 6.2 C 5.15 g/m*3 6.2 C 0 km/h
2305 16-12-2005 00:18:25 6.2 C 5.15 g/m*3 6.2 C 0 km/h
2306 16-12-2005 00:28:25 6.2 C 5.22 g/m*3 6.2 C 0 km/h
2307 16-12-2005 00:38:25 6.2 C 5.22 g/m*3 6.2 C 0 km/h
2308 16-12-2005 00:48:26 6.2 C 5.29 g/m*3 6.2 C 0 km/h
2309 16-12-2005 00:58:26 6.3 C 5.33 g/m*3 6.3 C 0 km/h
2310 16-12-2005 01:08:26 6.4 C 5.36 g/m*3 6.4 C 0 km/h
2311 16-12-2005 01:18:26 6.5 C 5.32 g/m*3 6.5 C 0 km/h
2312 16-12-2005 01:28:26 6.6 C 5.36 g/m*3 6.6 C 0 km/h
2313 16-12-2005 01:38:25 6.7 C 5.39 g/m*3 6.7 C 0 km/h
2314 16-12-2005 01:48:25 6.7 C 5.39 g/m*3 6.7 C 0 km/h
2315 16-12-2005 01:58:25 6.8 C 5.43 g/m*3 6.8 C 0 km/h
2316 16-12-2005 02:08:25 6.8 C 5.43 g/m*3 6.8 C 0 km/h
2317 16-12-2005 02:18:26 6.9 C 5.39 g/m*3 6.9 C 0 km/h
2318 16-12-2005 02:28:26 7 C 5.35 g/m*3 7 C 0 km/h
2319 16-12-2005 02:38:26 6.8 C 5.51 g/m*3 6.8 C 0 km/h
2320 16-12-2005 02:49:27 6.7 C 5.62 g/m*3 6.7 C 0 km/h
2321 16-12-2005 02:59:27 6.6 C 5.74 g/m*3 6.6 C 0 km/h
2322 16-12-2005 03:09:28 6.3 C 5.85 g/m*3 6.3 C 0 km/h
2323 16-12-2005 03:19:27 6.3 C 5.85 g/m*3 6.3 C 0 km/h
2324 16-12-2005 03:29:27 6.1 C 5.92 g/m*3 6.1 C 0 km/h
2325 16-12-2005 03:39:27 6.1 C 5.99 g/m*3 6.1 C 0 km/h
Sensor: Nr:Datum:Temp:Abs-Feuchte:Windchill:Wind:
Aussen-T/F 2326 16-12-2005 03:49:27 6 C 5.95 g/m*3 6 C 0 km/h
2327 16-12-2005 03:59:27 6.3 C 6.07 g/m*3 6.3 C 0 km/h
2328 16-12-2005 04:09:27 6.2 C 6.03 g/m*3 6.2 C 0 km/h
2329 16-12-2005 04:19:27 6.3 C 6 g/m*3 6.3 C 0 km/h
2330 16-12-2005 04:29:27 6.3 C 5.92 g/m*3 6.3 C 0 km/h
2331 16-12-2005 04:39:27 6.4 C 5.89 g/m*3 6.4 C 0 km/h
2332 16-12-2005 04:49:27 6.5 C 5.85 g/m*3 6.5 C 0 km/h
2333 16-12-2005 04:59:27 6.5 C 5.85 g/m*3 6.5 C 0 km/h
2334 16-12-2005 05:09:28 6.3 C 5.85 g/m*3 6.3 C 0 km/h
2335 16-12-2005 05:19:28 6.3 C 5.85 g/m*3 6.3 C 0 km/h
2336 16-12-2005 05:29:28 6.3 C 5.85 g/m*3 6.3 C 0 km/h
2337 16-12-2005 05:39:28 6.3 C 5.85 g/m*3 6.3 C 0 km/h
2338 16-12-2005 05:49:27 6.3 C 5.92 g/m*3 6.3 C 0 km/h
2339 16-12-2005 05:59:27 6.2 C 5.96 g/m*3 6.2 C 0 km/h
2340 16-12-2005 06:09:27 6.2 C 6.03 g/m*3 6.2 C 0 km/h
2341 16-12-2005 06:19:28 6.2 C 6.03 g/m*3 6.2 C 0 km/h
2342 16-12-2005 06:29:28 6.2 C 6.03 g/m*3 6.2 C 0 km/h
2343 16-12-2005 06:39:27 6.3 C 6.14 g/m*3 6.3 C 0 km/h
2344 16-12-2005 06:49:28 6.3 C 6.14 g/m*3 6.3 C 0 km/h
2345 16-12-2005 06:59:28 6.4 C 6.11 g/m*3 6.4 C 0 km/h
2346 16-12-2005 07:09:27 6.5 C 6.22 g/m*3 6.5 C 0 km/h
2347 16-12-2005 07:19:27 6.6 C 6.27 g/m*3 6.6 C 0 km/h
2348 16-12-2005 07:29:27 6.5 C 6.22 g/m*3 6.5 C 0 km/h
2349 16-12-2005 07:39:27 6.8 C 6.27 g/m*3 6.8 C 0 km/h
2350 16-12-2005 07:49:28 6.8 C 6.27 g/m*3 6.8 C 0 km/h
Sensor: Nr:Datum:Temp:Abs-Feuchte:Windchill:Wind:
Aussen-T/F 2351 16-12-2005 07:59:28 6.9 C 6.31 g/m*3 6.9 C 0 km/h
2352 16-12-2005 08:09:27 7 C 6.28 g/m*3 7 C 0 km/h
2353 16-12-2005 08:19:27 7.1 C 6.32 g/m*3 7.1 C 0 km/h
2354 16-12-2005 08:29:27 7.1 C 6.4 g/m*3 7.1 C 0 km/h
2355 16-12-2005 08:39:27 7.2 C 6.52 g/m*3 7.2 C 0 km/h
2356 16-12-2005 08:49:27 7.3 C 6.56 g/m*3 7.3 C 0 km/h
2357 16-12-2005 08:59:27 7.4 C 6.52 g/m*3 7.4 C 0 km/h
2358 16-12-2005 09:09:27 7.7 C 6.57 g/m*3 7.7 C 0 km/h
2359 16-12-2005 09:19:28 7.9 C 6.57 g/m*3 7.9 C 0 km/h
2360 16-12-2005 09:29:28 8.2 C 6.53 g/m*3 8.2 C 0 km/h
2361 16-12-2005 09:39:28 8.6 C 6.53 g/m*3 8.6 C 0 km/h
2362 16-12-2005 09:49:28 8.5 C 6.49 g/m*3 8.5 C 0 km/h
2363 16-12-2005 09:59:28 8.6 C 6.62 g/m*3 8.6 C 0 km/h
2364 16-12-2005 10:09:28 8.7 C 6.66 g/m*3 8.7 C 0 km/h
2365 16-12-2005 10:19:27 9 C 6.61 g/m*3 9 C 0 km/h
2366 16-12-2005 10:29:27 9 C 6.61 g/m*3 9 C 0 km/h
2367 16-12-2005 10:39:27 9.1 C 6.65 g/m*3 9.1 C 0 km/h
2368 16-12-2005 10:49:28 9.1 C 6.57 g/m*3 9.1 C 0 km/h
2369 16-12-2005 10:59:29 9.3 C 6.56 g/m*3 9.3 C 0 km/h
2370 16-12-2005 11:09:27 9.5 C 6.64 g/m*3 9.5 C 0 km/h
2371 16-12-2005 11:19:27 9.7 C 6.55 g/m*3 9.7 C 0 km/h
2372 16-12-2005 11:29:27 10 C 6.48 g/m*3 10 C 0 km/h
2373 16-12-2005 11:39:28 9.9 C 6.63 g/m*3 9.9 C 0 km/h
2374 16-12-2005 11:49:27 10 C 6.48 g/m*3 10 C 0 km/h
2375 16-12-2005 11:59:27 10.1 C 6.43 g/m*3 10.1 C 0 km/h
Sensor: Nr:Datum:Temp:Abs-Feuchte:Windchill:Wind:
Aussen-T/F 2376 16-12-2005 12:09:28 10 C 6.48 g/m*3 10 C 0 km/h
2377 16-12-2005 12:19:28 7.2 C 5.81 g/m*3 7.2 C 0 km/h
2378 16-12-2005 12:29:28 6.4 C 6.11 g/m*3 6.4 C 0 km/h
2379 16-12-2005 12:39:28 6.1 C 5.99 g/m*3 6.1 C 0 km/h
2380 16-12-2005 12:49:28 6 C 5.95 g/m*3 6 C 0 km/h
2381 16-12-2005 12:59:28 5.7 C 5.76 g/m*3 5.7 C 0 km/h
2382 16-12-2005 13:09:28 5.7 C 5.62 g/m*3 5.7 C 0 km/h
2383 16-12-2005 13:19:28 6.2 C 5.52 g/m*3 6.2 C 0 km/h
2384 16-12-2005 13:29:28 6.4 C 5.29 g/m*3 6.4 C 0 km/h
2385 16-12-2005 13:39:28 6.5 C 5.25 g/m*3 6.5 C 0 km/h
2386 16-12-2005 13:49:28 6.5 C 5.17 g/m*3 6.5 C 0 km/h
2387 16-12-2005 13:59:28 6.7 C 5.09 g/m*3 6.7 C 0 km/h
2388 16-12-2005 14:09:28 6.6 C 4.91 g/m*3 6.6 C 0 km/h
2389 16-12-2005 14:19:28 6.6 C 4.68 g/m*3 6.6 C 0 km/h
2390 16-12-2005 14:29:28 6.5 C 4.65 g/m*3 6.5 C 0 km/h
2391 16-12-2005 14:39:28 6.1 C 4.68 g/m*3 6.1 C 0 km/h
2392 16-12-2005 14:49:28 5.2 C 4.89 g/m*3 5.2 C 0 km/h
2393 16-12-2005 14:59:28 4.8 C 5.3 g/m*3 4.8 C 0 km/h
2394 16-12-2005 15:09:28 4.8 C 5.1 g/m*3 4.8 C 0 km/h
2395 16-12-2005 15:19:28 5 C 5.03 g/m*3 5 C 0 km/h
2396 16-12-2005 15:29:28 5 C 4.96 g/m*3 5 C 0 km/h
2397 16-12-2005 15:39:28 5.3 C 4.85 g/m*3 5.3 C 0 km/h
2398 16-12-2005 15:49:28 5.4 C 4.74 g/m*3 5.4 C 0 km/h
2399 16-12-2005 15:59:28 5.5 C 4.78 g/m*3 5.5 C 0 km/h
2400 16-12-2005 16:09:28 5.4 C 4.81 g/m*3 5.4 C 0 km/h
Sensor: Nr:Datum:Temp:Abs-Feuchte:Windchill:Wind:
Aussen-T/F 2401 16-12-2005 16:19:28 5.7 C 4.77 g/m*3 5.7 C 0 km/h
2402 16-12-2005 16:29:28 5.7 C 4.7 g/m*3 5.7 C 0 km/h
2403 16-12-2005 16:39:29 6.3 C 4.59 g/m*3 6.3 C 0 km/h
2404 16-12-2005 16:49:28 5.8 C 4.58 g/m*3 5.8 C 0 km/h
2405 16-12-2005 16:59:28 5.4 C 4.67 g/m*3 5.4 C 0 km/h
2406 16-12-2005 17:09:29 4.6 C 4.9 g/m*3 4.6 C 0 km/h
2407 16-12-2005 17:19:28 4.5 C 5 g/m*3 4.5 C 0 km/h
2408 16-12-2005 17:29:28 4.2 C 4.83 g/m*3 4.2 C 0 km/h
2409 16-12-2005 17:39:28 4.3 C 4.67 g/m*3 4.3 C 0 km/h
2410 16-12-2005 17:49:28 4.5 C 4.67 g/m*3 4.5 C 0 km/h
2411 16-12-2005 17:59:28 4.6 C 4.57 g/m*3 4.6 C 0 km/h
2412 16-12-2005 18:09:28 4.8 C 4.63 g/m*3 4.8 C 0 km/h
2413 16-12-2005 18:19:28 4.8 C 4.63 g/m*3 4.8 C 0 km/h
2414 16-12-2005 18:29:28 4.9 C 4.59 g/m*3 4.9 C 0 km/h
2415 16-12-2005 18:39:29 5 C 4.48 g/m*3 5 C 0 km/h
2416 16-12-2005 18:49:28 5 C 4.42 g/m*3 5 C 0 km/h
2417 16-12-2005 18:59:28 4.8 C 4.43 g/m*3 4.8 C 0 km/h
2418 16-12-2005 19:09:29 4.7 C 4.53 g/m*3 4.7 C 0 km/h
2419 16-12-2005 19:19:29 4.3 C 4.74 g/m*3 4.3 C 0 km/h
2420 16-12-2005 19:29:29 4.3 C 4.61 g/m*3 4.3 C 0 km/h
2421 16-12-2005 19:39:30 4.4 C 4.51 g/m*3 4.4 C 0 km/h
2422 16-12-2005 19:49:29 4.2 C 4.51 g/m*3 4.2 C 0 km/h
2423 16-12-2005 19:59:29 4.1 C 4.48 g/m*3 4.1 C 0 km/h
2424 16-12-2005 20:09:29 4.1 C 4.48 g/m*3 4.1 C 0 km/h
2425 16-12-2005 20:19:28 4.2 C 4.45 g/m*3 4.2 C 0 km/h
Sensor: Nr:Datum:Temp:Abs-Feuchte:Windchill:Wind:
Aussen-T/F 2426 16-12-2005 20:29:28 4.2 C 4.45 g/m*3 4.2 C 0 km/h
2427 16-12-2005 20:39:28 4.2 C 4.51 g/m*3 4.2 C 0 km/h
2428 16-12-2005 20:49:29 4.2 C 4.45 g/m*3 4.2 C 0 km/h
2429 16-12-2005 20:59:30 4.3 C 4.35 g/m*3 4.3 C 0 km/h
2430 16-12-2005 21:09:29 4.3 C 4.28 g/m*3 4.3 C 0 km/h
2431 16-12-2005 21:19:28 4.2 C 4.25 g/m*3 4.2 C 0 km/h
2432 16-12-2005 21:29:28 4.2 C 4.12 g/m*3 4.2 C 0 km/h
2433 16-12-2005 21:39:29 4.3 C 4.09 g/m*3 4.3 C 0 km/h
2434 16-12-2005 21:49:28 4.3 C 4.09 g/m*3 4.3 C 0 km/h
2435 16-12-2005 21:59:28 4.3 C 4.09 g/m*3 4.3 C 0 km/h
2436 16-12-2005 22:09:29 4.4 C 3.98 g/m*3 4.4 C 0 km/h
2437 16-12-2005 22:19:28 4.4 C 3.92 g/m*3 4.4 C 0 km/h
2438 16-12-2005 22:29:28 4.4 C 3.92 g/m*3 4.4 C 0 km/h
2439 16-12-2005 22:39:29 4.3 C 3.89 g/m*3 4.3 C 0 km/h
2440 16-12-2005 22:49:29 4.2 C 3.93 g/m*3 4.2 C 0 km/h
2441 16-12-2005 22:59:30 4.2 C 3.93 g/m*3 4.2 C 0 km/h
2442 16-12-2005 23:09:29 4.1 C 3.97 g/m*3 4.1 C 0 km/h
2443 16-12-2005 23:19:29 4.2 C 3.99 g/m*3 4.2 C 0 km/h
2444 16-12-2005 23:29:29 4.2 C 3.93 g/m*3 4.2 C 0 km/h
2445 16-12-2005 23:39:29 4.1 C 3.97 g/m*3 4.1 C 0 km/h
2446 16-12-2005 23:49:29 4 C 3.94 g/m*3 4 C 0 km/h
2447 16-12-2005 23:59:29 3.9 C 3.92 g/m*3 3.9 C 0 km/h
2448 17-12-2005 00:09:29 3.8 C 3.89 g/m*3 3.8 C 0 km/h
2449 17-12-2005 00:19:29 3.8 C 3.89 g/m*3 3.8 C 0 km/h
2450 17-12-2005 00:29:29 3.8 C 3.89 g/m*3 3.8 C 0 km/h
Sensor: Nr:Datum:Temp:Abs-Feuchte:Windchill:Wind:
Aussen-T/F 2451 17-12-2005 00:39:29 3.6 C 3.96 g/m*3 3.6 C 0 km/h
2452 17-12-2005 00:49:29 3.2 C 3.98 g/m*3 3.2 C 0 km/h
2453 17-12-2005 00:59:29 2.2 C 4.28 g/m*3 2.2 C 0 km/h
2454 17-12-2005 01:09:29 2 C 4.5 g/m*3 2 C 0 km/h
2455 17-12-2005 01:19:29 2 C 4.56 g/m*3 2 C 0 km/h
2456 17-12-2005 01:29:29 2 C 4.61 g/m*3 2 C 0 km/h
2457 17-12-2005 01:39:30 2.1 C 4.59 g/m*3 2.1 C 0 km/h
2458 17-12-2005 01:49:29 2.2 C 4.51 g/m*3 2.2 C 0 km/h
2459 17-12-2005 01:59:30 2.3 C 4.42 g/m*3 2.3 C 0 km/h
2460 17-12-2005 02:09:29 2 C 4.39 g/m*3 2 C 0 km/h
2461 17-12-2005 02:19:29 2 C 4.28 g/m*3 2 C 0 km/h
2462 17-12-2005 02:29:29 1.8 C 4.33 g/m*3 1.8 C 0 km/h
2463 17-12-2005 02:39:29 2 C 4.33 g/m*3 2 C 0 km/h
2464 17-12-2005 02:50:31 1.4 C 4.37 g/m*3 1.4 C 0 km/h
2465 17-12-2005 03:00:31 1.3 C 4.45 g/m*3 1.3 C 0 km/h
2466 17-12-2005 03:10:31 1.1 C 4.44 g/m*3 1.1 C 0 km/h
2467 17-12-2005 03:20:31 1.3 C 4.61 g/m*3 1.3 C 0 km/h
2468 17-12-2005 03:30:31 1.4 C 4.59 g/m*3 1.4 C 0 km/h
2469 17-12-2005 03:40:31 1.8 C 4.49 g/m*3 1.8 C 0 km/h
2470 17-12-2005 03:50:31 2 C 4.22 g/m*3 2 C 0 km/h
2471 17-12-2005 04:00:31 1.9 C 4.14 g/m*3 1.9 C 0 km/h
2472 17-12-2005 04:10:32 1.8 C 4.06 g/m*3 1.8 C 0 km/h
2473 17-12-2005 04:20:31 2.1 C 4.03 g/m*3 2.1 C 0 km/h
2474 17-12-2005 04:30:31 1.9 C 4.08 g/m*3 1.9 C 0 km/h
2475 17-12-2005 04:40:31 1.4 C 4.27 g/m*3 1.4 C 0 km/h
Sensor: Nr:Datum:Temp:Abs-Feuchte:Windchill:Wind:
Aussen-T/F 2476 17-12-2005 04:50:31 1.2 C 4.31 g/m*3 1.2 C 0 km/h
2477 17-12-2005 05:00:32 0.6 C 4.29 g/m*3 0.6 C 0 km/h
2478 17-12-2005 05:10:31 0.6 C 4.39 g/m*3 0.6 C 0 km/h
2479 17-12-2005 05:20:31 0.6 C 4.44 g/m*3 0.6 C 0 km/h
2480 17-12-2005 05:30:31 0.7 C 4.42 g/m*3 0.7 C 0 km/h
2481 17-12-2005 05:40:31 0.7 C 4.37 g/m*3 0.7 C 0 km/h
2482 17-12-2005 05:50:31 0.7 C 4.17 g/m*3 0.7 C 0 km/h
2483 17-12-2005 06:00:31 0.8 C 4.1 g/m*3 0.8 C 0 km/h
2484 17-12-2005 06:10:31 0.8 C 4.04 g/m*3 0.8 C 0 km/h
2485 17-12-2005 06:20:31 0.6 C 3.99 g/m*3 0.6 C 0 km/h
2486 17-12-2005 06:30:31 0.8 C 3.99 g/m*3 0.8 C 0 km/h
2487 17-12-2005 06:40:31 0.7 C 4.02 g/m*3 0.7 C 0 km/h
2488 17-12-2005 06:50:32 0.8 C 3.99 g/m*3 0.8 C 0 km/h
2489 17-12-2005 07:00:32 0.8 C 3.94 g/m*3 0.8 C 0 km/h
2490 17-12-2005 07:10:31 0.8 C 3.89 g/m*3 0.8 C 0 km/h
2491 17-12-2005 07:20:31 0.8 C 3.79 g/m*3 0.8 C 0 km/h
2492 17-12-2005 07:30:31 1 C 3.74 g/m*3 1 C 0 km/h
2493 17-12-2005 07:40:31 1.1 C 3.61 g/m*3 1.1 C 0 km/h
2494 17-12-2005 07:50:31 0.8 C 3.58 g/m*3 0.8 C 0 km/h
2495 17-12-2005 08:00:31 0.8 C 3.69 g/m*3 0.8 C 0 km/h
2496 17-12-2005 08:10:31 0.7 C 3.71 g/m*3 0.7 C 0 km/h
2497 17-12-2005 08:20:31 0.8 C 3.63 g/m*3 0.8 C 0 km/h
2498 17-12-2005 08:30:31 0.8 C 3.58 g/m*3 0.8 C 0 km/h
2499 17-12-2005 08:40:31 0.6 C 3.53 g/m*3 0.6 C 0 km/h
2500 17-12-2005 08:50:32 0.6 C 3.53 g/m*3 0.6 C 0 km/h
Sensor: Nr:Datum:Temp:Abs-Feuchte:Windchill:Wind:
Aussen-T/F 2501 17-12-2005 09:00:32 0.5 C 3.51 g/m*3 0.5 C 0 km/h
2502 17-12-2005 09:10:31 0.6 C 3.59 g/m*3 0.6 C 0 km/h
2503 17-12-2005 09:20:31 0.7 C 3.66 g/m*3 0.7 C 0 km/h
2504 17-12-2005 09:30:31 0.7 C 3.61 g/m*3 0.7 C 0 km/h
2505 17-12-2005 09:40:31 0.4 C 3.59 g/m*3 0.4 C 0 km/h
2506 17-12-2005 09:50:31 0.3 C 3.56 g/m*3 0.3 C 0 km/h
2507 17-12-2005 10:00:31 0.5 C 3.56 g/m*3 0.5 C 0 km/h
2508 17-12-2005 10:10:31 0.5 C 3.51 g/m*3 0.5 C 0 km/h
2509 17-12-2005 10:20:31 0.6 C 3.48 g/m*3 0.6 C 0 km/h
2510 17-12-2005 10:30:31 0.9 C 3.51 g/m*3 0.9 C 0 km/h
2511 17-12-2005 10:40:32 1.2 C 3.47 g/m*3 1.2 C 0 km/h
2512 17-12-2005 10:50:32 1.5 C 3.49 g/m*3 1.5 C 0 km/h
2513 17-12-2005 11:00:32 1.6 C 3.41 g/m*3 1.6 C 0 km/h
2514 17-12-2005 11:10:32 1.7 C 3.43 g/m*3 1.7 C 0 km/h
2515 17-12-2005 11:20:32 2 C 3.28 g/m*3 2 C 0 km/h
2516 17-12-2005 11:30:32 1.8 C 3.34 g/m*3 1.8 C 0 km/h
2517 17-12-2005 11:40:32 1.8 C 3.4 g/m*3 1.8 C 0 km/h
2518 17-12-2005 11:50:32 1.8 C 3.45 g/m*3 1.8 C 0 km/h
2519 17-12-2005 12:00:32 1.7 C 3.48 g/m*3 1.7 C 0 km/h
2520 17-12-2005 12:10:32 1.6 C 3.51 g/m*3 1.6 C 0 km/h
2521 17-12-2005 12:20:31 1.9 C 3.59 g/m*3 1.9 C 0 km/h
2522 17-12-2005 12:30:31 2 C 3.45 g/m*3 2 C 0 km/h
2523 17-12-2005 12:40:32 2.2 C 3.44 g/m*3 2.2 C 0 km/h
2524 17-12-2005 12:50:32 2.4 C 3.48 g/m*3 2.4 C 0 km/h
2525 17-12-2005 13:00:32 2.6 C 3.41 g/m*3 2.6 C 0 km/h
Sensor: Nr:Datum:Temp:Abs-Feuchte:Windchill:Wind:
Aussen-T/F 2526 17-12-2005 13:10:32 2.6 C 3.36 g/m*3 2.6 C 0 km/h
2527 17-12-2005 13:20:31 2.9 C 3.31 g/m*3 2.9 C 0 km/h
2528 17-12-2005 13:30:31 2.9 C 3.19 g/m*3 2.9 C 0 km/h
2529 17-12-2005 13:40:32 2.5 C 3.33 g/m*3 2.5 C 0 km/h
2530 17-12-2005 13:50:32 2.3 C 3.29 g/m*3 2.3 C 0 km/h
2531 17-12-2005 14:00:33 2.6 C 3.3 g/m*3 2.6 C 0 km/h
2532 17-12-2005 14:10:32 3 C 3.21 g/m*3 3 C 0 km/h
2533 17-12-2005 14:20:32 3 C 3.15 g/m*3 3 C 0 km/h
2534 17-12-2005 14:30:32 3 C 3.21 g/m*3 3 C 0 km/h
2535 17-12-2005 14:40:32 3 C 3.21 g/m*3 3 C 0 km/h
2536 17-12-2005 14:50:32 2.8 C 3.28 g/m*3 2.8 C 0 km/h
2537 17-12-2005 15:00:32 2.7 C 3.26 g/m*3 2.7 C 0 km/h
2538 17-12-2005 15:10:32 2.6 C 3.3 g/m*3 2.6 C 0 km/h
2539 17-12-2005 15:20:32 2 C 3.61 g/m*3 2 C 0 km/h
2540 17-12-2005 15:30:32 1.6 C 3.73 g/m*3 1.6 C 0 km/h
2541 17-12-2005 15:40:32 0.8 C 3.89 g/m*3 0.8 C 0 km/h
2542 17-12-2005 15:50:32 1 C 4 g/m*3 1 C 0 km/h
2543 17-12-2005 16:00:32 1.4 C 4 g/m*3 1.4 C 0 km/h
2544 17-12-2005 16:10:32 1.5 C 3.87 g/m*3 1.5 C 0 km/h
2545 17-12-2005 16:20:32 1.6 C 3.68 g/m*3 1.6 C 0 km/h
2546 17-12-2005 16:30:32 1.6 C 3.73 g/m*3 1.6 C 0 km/h
2547 17-12-2005 16:40:32 1.3 C 3.87 g/m*3 1.3 C 0 km/h
2548 17-12-2005 16:50:32 1.2 C 3.95 g/m*3 1.2 C 0 km/h
2549 17-12-2005 17:00:32 1.5 C 3.81 g/m*3 1.5 C 0 km/h
2550 17-12-2005 17:10:32 2 C 3.56 g/m*3 2 C 0 km/h
Sensor: Nr:Datum:Temp:Abs-Feuchte:Windchill:Wind:
Aussen-T/F 2551 17-12-2005 17:20:32 2 C 3.45 g/m*3 2 C 0 km/h
2552 17-12-2005 17:30:32 2 C 3.45 g/m*3 2 C 0 km/h
2553 17-12-2005 17:40:32 1.8 C 3.56 g/m*3 1.8 C 0 km/h
2554 17-12-2005 17:50:32 1.8 C 3.51 g/m*3 1.8 C 0 km/h
2555 17-12-2005 18:00:32 1.7 C 3.54 g/m*3 1.7 C 0 km/h
2556 17-12-2005 18:10:33 1.7 C 3.54 g/m*3 1.7 C 0 km/h
2557 17-12-2005 18:20:33 1.7 C 3.59 g/m*3 1.7 C 0 km/h
2558 17-12-2005 18:30:33 1.5 C 3.65 g/m*3 1.5 C 0 km/h
2559 17-12-2005 18:40:32 1.4 C 3.79 g/m*3 1.4 C 0 km/h
2560 17-12-2005 18:50:33 1.3 C 3.87 g/m*3 1.3 C 0 km/h
2561 17-12-2005 19:00:33 1.3 C 3.97 g/m*3 1.3 C 0 km/h
2562 17-12-2005 19:10:32 1.3 C 3.92 g/m*3 1.3 C 0 km/h
2563 17-12-2005 19:20:33 1.3 C 3.87 g/m*3 1.3 C 0 km/h
2564 17-12-2005 19:30:33 1.4 C 3.84 g/m*3 1.4 C 0 km/h
2565 17-12-2005 19:40:32 1.5 C 3.81 g/m*3 1.5 C 0 km/h
2566 17-12-2005 19:50:33 1.5 C 3.81 g/m*3 1.5 C 0 km/h
2567 17-12-2005 20:00:33 1.4 C 3.79 g/m*3 1.4 C 0 km/h
2568 17-12-2005 20:10:33 1.3 C 3.76 g/m*3 1.3 C 0 km/h
2569 17-12-2005 20:20:32 1.2 C 3.63 g/m*3 1.2 C 0 km/h
2570 17-12-2005 20:30:32 1 C 3.69 g/m*3 1 C 0 km/h
2571 17-12-2005 20:40:32 1.1 C 3.71 g/m*3 1.1 C 0 km/h
2572 17-12-2005 20:50:33 1.2 C 3.74 g/m*3 1.2 C 0 km/h
2573 17-12-2005 21:00:33 1.2 C 3.68 g/m*3 1.2 C 0 km/h
2574 17-12-2005 21:10:33 1.3 C 3.66 g/m*3 1.3 C 0 km/h
2575 17-12-2005 21:20:33 1.1 C 3.66 g/m*3 1.1 C 0 km/h
Sensor: Nr:Datum:Temp:Abs-Feuchte:Windchill:Wind:
Aussen-T/F 2576 17-12-2005 21:30:33 1.1 C 3.66 g/m*3 1.1 C 0 km/h
2577 17-12-2005 21:40:32 0.7 C 3.66 g/m*3 0.7 C 0 km/h
2578 17-12-2005 21:50:33 0.7 C 3.66 g/m*3 0.7 C 0 km/h
2579 17-12-2005 22:00:33 0.8 C 3.69 g/m*3 0.8 C 0 km/h
2580 17-12-2005 22:10:33 0.7 C 3.71 g/m*3 0.7 C 0 km/h
2581 17-12-2005 22:20:33 0.7 C 3.71 g/m*3 0.7 C 0 km/h
2582 17-12-2005 22:30:33 0.4 C 3.59 g/m*3 0.4 C 0 km/h
2583 17-12-2005 22:40:33 0.3 C 3.61 g/m*3 0.3 C 0 km/h
2584 17-12-2005 22:50:32 0.2 C 3.59 g/m*3 0.2 C 0 km/h
2585 17-12-2005 23:00:32 0 C 3.59 g/m*3 0 C 0 km/h
2586 17-12-2005 23:10:33 0 C 3.63 g/m*3 0 C 0 km/h
2587 17-12-2005 23:20:33 0.1 C 3.71 g/m*3 0.1 C 0 km/h
2588 17-12-2005 23:30:33 -0.2 C 3.68 g/m*3 -0.2 C 0 km/h
2589 17-12-2005 23:40:33 -0.1 C 3.75 g/m*3 -0.1 C 0 km/h
2590 17-12-2005 23:50:33 -0.3 C 3.7 g/m*3 -0.3 C 0 km/h
2591 18-12-2005 00:00:33 -0.2 C 3.78 g/m*3 -0.2 C 0 km/h
2592 18-12-2005 00:10:33 0 C 3.83 g/m*3 0 C 0 km/h
2593 18-12-2005 00:20:34 0.2 C 3.88 g/m*3 0.2 C 0 km/h
2594 18-12-2005 00:30:34 0.2 C 3.88 g/m*3 0.2 C 0 km/h
2595 18-12-2005 00:40:33 0.2 C 3.88 g/m*3 0.2 C 0 km/h
2596 18-12-2005 00:50:33 0.3 C 3.91 g/m*3 0.3 C 0 km/h
2597 18-12-2005 01:00:33 0.4 C 3.88 g/m*3 0.4 C 0 km/h
2598 18-12-2005 01:10:33 0.4 C 3.88 g/m*3 0.4 C 0 km/h
2599 18-12-2005 01:20:33 0.6 C 3.84 g/m*3 0.6 C 0 km/h
2600 18-12-2005 01:30:33 0.4 C 3.84 g/m*3 0.4 C 0 km/h
Sensor: Nr:Datum:Temp:Abs-Feuchte:Windchill:Wind:
Aussen-T/F 2601 18-12-2005 01:40:33 0.6 C 3.84 g/m*3 0.6 C 0 km/h
2602 18-12-2005 01:50:33 0.6 C 3.79 g/m*3 0.6 C 0 km/h
2603 18-12-2005 02:00:33 0.5 C 3.76 g/m*3 0.5 C 0 km/h
2604 18-12-2005 02:10:33 0.6 C 3.79 g/m*3 0.6 C 0 km/h
2605 18-12-2005 02:20:33 0.7 C 3.76 g/m*3 0.7 C 0 km/h
2606 18-12-2005 02:30:33 0.8 C 3.84 g/m*3 0.8 C 0 km/h
2607 18-12-2005 02:40:33 0.7 C 3.81 g/m*3 0.7 C 0 km/h
2608 18-12-2005 02:51:35 0.6 C 3.84 g/m*3 0.6 C 0 km/h
2609 18-12-2005 03:01:35 0.8 C 3.89 g/m*3 0.8 C 0 km/h
2610 18-12-2005 03:11:35 0.9 C 3.92 g/m*3 0.9 C 0 km/h
2611 18-12-2005 03:21:35 1 C 3.94 g/m*3 1 C 0 km/h
2612 18-12-2005 03:31:35 1.1 C 3.97 g/m*3 1.1 C 0 km/h
2613 18-12-2005 03:41:35 1 C 3.94 g/m*3 1 C 0 km/h
2614 18-12-2005 03:51:35 1 C 4 g/m*3 1 C 0 km/h
2615 18-12-2005 04:01:35 1 C 4.05 g/m*3 1 C 0 km/h
2616 18-12-2005 04:11:35 1.1 C 4.08 g/m*3 1.1 C 0 km/h
2617 18-12-2005 04:21:36 1.1 C 4.02 g/m*3 1.1 C 0 km/h
2618 18-12-2005 04:31:36 1.1 C 3.97 g/m*3 1.1 C 0 km/h
2619 18-12-2005 04:41:36 1.1 C 3.92 g/m*3 1.1 C 0 km/h
2620 18-12-2005 04:51:35 1.2 C 3.95 g/m*3 1.2 C 0 km/h
2621 18-12-2005 05:01:35 1.3 C 3.92 g/m*3 1.3 C 0 km/h
2622 18-12-2005 05:11:35 1.3 C 3.92 g/m*3 1.3 C 0 km/h
2623 18-12-2005 05:21:36 1.3 C 3.97 g/m*3 1.3 C 0 km/h
2624 18-12-2005 05:31:35 1.2 C 3.95 g/m*3 1.2 C 0 km/h
2625 18-12-2005 05:41:35 1.1 C 4.02 g/m*3 1.1 C 0 km/h
Sensor: Nr:Datum:Temp:Abs-Feuchte:Windchill:Wind:
Aussen-T/F 2626 18-12-2005 05:51:35 1.3 C 4.08 g/m*3 1.3 C 0 km/h
2627 18-12-2005 06:01:35 1.1 C 4.08 g/m*3 1.1 C 0 km/h
2628 18-12-2005 06:11:35 1.3 C 4.13 g/m*3 1.3 C 0 km/h
2629 18-12-2005 06:21:35 1.3 C 4.08 g/m*3 1.3 C 0 km/h
2630 18-12-2005 06:31:35 1.3 C 4.08 g/m*3 1.3 C 0 km/h
2631 18-12-2005 06:41:35 1.4 C 4.05 g/m*3 1.4 C 0 km/h
2632 18-12-2005 06:51:36 1.3 C 4.08 g/m*3 1.3 C 0 km/h
2633 18-12-2005 07:01:35 1.2 C 4.1 g/m*3 1.2 C 0 km/h
2634 18-12-2005 07:11:35 0.7 C 4.17 g/m*3 0.7 C 0 km/h
2635 18-12-2005 07:21:35 0.5 C 4.26 g/m*3 0.5 C 0 km/h
2636 18-12-2005 07:31:35 0.5 C 4.31 g/m*3 0.5 C 0 km/h
2637 18-12-2005 07:41:35 0.5 C 4.36 g/m*3 0.5 C 0 km/h
2638 18-12-2005 07:51:35 0.5 C 4.41 g/m*3 0.5 C 0 km/h
2639 18-12-2005 08:01:35 0.5 C 4.41 g/m*3 0.5 C 0 km/h
2640 18-12-2005 08:11:35 0.4 C 4.38 g/m*3 0.4 C 0 km/h
2641 18-12-2005 08:21:36 0.4 C 4.38 g/m*3 0.4 C 0 km/h
2642 18-12-2005 08:31:35 0.5 C 4.46 g/m*3 0.5 C 0 km/h
2643 18-12-2005 08:41:35 0.6 C 4.44 g/m*3 0.6 C 0 km/h
2644 18-12-2005 08:51:36 0.6 C 4.44 g/m*3 0.6 C 0 km/h
2645 18-12-2005 09:01:35 0.8 C 4.51 g/m*3 0.8 C 0 km/h
2646 18-12-2005 09:11:36 0.8 C 4.45 g/m*3 0.8 C 0 km/h
2647 18-12-2005 09:21:35 0.9 C 4.43 g/m*3 0.9 C 0 km/h
2648 18-12-2005 09:31:36 1.2 C 4.42 g/m*3 1.2 C 0 km/h
2649 18-12-2005 09:41:36 1.3 C 4.4 g/m*3 1.3 C 0 km/h
2650 18-12-2005 09:51:35 1.4 C 4.37 g/m*3 1.4 C 0 km/h
Sensor: Nr:Datum:Temp:Abs-Feuchte:Windchill:Wind:
Aussen-T/F 2651 18-12-2005 10:01:35 1.5 C 4.3 g/m*3 1.5 C 0 km/h
2652 18-12-2005 10:11:35 1.6 C 4.33 g/m*3 1.6 C 0 km/h
2653 18-12-2005 10:21:35 1.7 C 4.3 g/m*3 1.7 C 0 km/h
2654 18-12-2005 10:31:36 1.6 C 4.22 g/m*3 1.6 C 0 km/h
2655 18-12-2005 10:41:36 1.7 C 4.25 g/m*3 1.7 C 0 km/h
2656 18-12-2005 10:51:35 1.7 C 4.25 g/m*3 1.7 C 0 km/h
2657 18-12-2005 11:01:36 1.8 C 4.22 g/m*3 1.8 C 0 km/h
2658 18-12-2005 11:11:36 1.9 C 4.25 g/m*3 1.9 C 0 km/h
2659 18-12-2005 11:21:36 2.1 C 4.2 g/m*3 2.1 C 0 km/h
2660 18-12-2005 11:31:36 2.4 C 4.23 g/m*3 2.4 C 0 km/h
2661 18-12-2005 11:41:36 2.5 C 4.14 g/m*3 2.5 C 0 km/h
2662 18-12-2005 11:51:35 2.8 C 4.22 g/m*3 2.8 C 0 km/h
2663 18-12-2005 12:01:36 2.8 C 4.16 g/m*3 2.8 C 0 km/h
2664 18-12-2005 12:11:36 2.9 C 4.19 g/m*3 2.9 C 0 km/h
2665 18-12-2005 12:21:36 3.2 C 4.1 g/m*3 3.2 C 0 km/h
2666 18-12-2005 12:31:36 3.1 C 4.01 g/m*3 3.1 C 0 km/h
2667 18-12-2005 12:41:36 3.1 C 4.01 g/m*3 3.1 C 0 km/h
2668 18-12-2005 12:51:35 3.2 C 4.04 g/m*3 3.2 C 0 km/h
2669 18-12-2005 13:01:36 3.5 C 4 g/m*3 3.5 C 0 km/h
2670 18-12-2005 13:11:36 3.8 C 4.08 g/m*3 3.8 C 0 km/h
2671 18-12-2005 13:21:36 3.7 C 3.93 g/m*3 3.7 C 0 km/h
2672 18-12-2005 13:31:36 3.6 C 3.9 g/m*3 3.6 C 0 km/h
2673 18-12-2005 13:41:36 3.7 C 3.86 g/m*3 3.7 C 0 km/h
2674 18-12-2005 13:51:36 3.9 C 3.85 g/m*3 3.9 C 0 km/h
2675 18-12-2005 14:01:36 3.9 C 3.85 g/m*3 3.9 C 0 km/h
Sensor: Nr:Datum:Temp:Abs-Feuchte:Windchill:Wind:
Aussen-T/F 2676 18-12-2005 14:11:36 4 C 3.69 g/m*3 4 C 0 km/h
2677 18-12-2005 14:21:35 3.7 C 3.68 g/m*3 3.7 C 0 km/h
2678 18-12-2005 14:31:36 3.5 C 3.69 g/m*3 3.5 C 0 km/h
2679 18-12-2005 14:41:36 3.5 C 3.75 g/m*3 3.5 C 0 km/h
2680 18-12-2005 14:51:36 3.5 C 3.75 g/m*3 3.5 C 0 km/h
2681 18-12-2005 15:01:36 3.7 C 3.8 g/m*3 3.7 C 0 km/h
2682 18-12-2005 15:11:36 3.5 C 3.94 g/m*3 3.5 C 0 km/h
2683 18-12-2005 15:21:36 3.2 C 3.92 g/m*3 3.2 C 0 km/h
2684 18-12-2005 15:31:36 3.3 C 3.94 g/m*3 3.3 C 0 km/h
2685 18-12-2005 15:41:36 3.2 C 3.92 g/m*3 3.2 C 0 km/h
2686 18-12-2005 15:51:36 3 C 3.86 g/m*3 3 C 0 km/h
2687 18-12-2005 16:01:36 2.9 C 3.9 g/m*3 2.9 C 0 km/h
2688 18-12-2005 16:11:37 2.7 C 3.85 g/m*3 2.7 C 0 km/h
2689 18-12-2005 16:21:36 2.5 C 3.79 g/m*3 2.5 C 0 km/h
2690 18-12-2005 16:31:36 2.2 C 3.77 g/m*3 2.2 C 0 km/h
2691 18-12-2005 16:41:36 1.9 C 3.81 g/m*3 1.9 C 0 km/h
2692 18-12-2005 16:51:36 1.6 C 3.79 g/m*3 1.6 C 0 km/h
2693 18-12-2005 17:01:36 1.5 C 3.81 g/m*3 1.5 C 0 km/h
2694 18-12-2005 17:11:36 1.3 C 3.81 g/m*3 1.3 C 0 km/h
2695 18-12-2005 17:21:36 1 C 3.74 g/m*3 1 C 0 km/h
2696 18-12-2005 17:31:37 0.9 C 3.81 g/m*3 0.9 C 0 km/h
2697 18-12-2005 17:41:37 1 C 3.89 g/m*3 1 C 0 km/h
2698 18-12-2005 17:51:36 1.1 C 3.92 g/m*3 1.1 C 0 km/h
2699 18-12-2005 18:01:36 1.3 C 3.92 g/m*3 1.3 C 0 km/h
2700 18-12-2005 18:11:36 1.4 C 3.89 g/m*3 1.4 C 0 km/h
Sensor: Nr:Datum:Temp:Abs-Feuchte:Windchill:Wind:
Aussen-T/F 2701 18-12-2005 18:21:36 1.5 C 3.87 g/m*3 1.5 C 0 km/h
2702 18-12-2005 18:31:36 1.7 C 3.87 g/m*3 1.7 C 0 km/h
2703 18-12-2005 18:41:36 1.7 C 3.87 g/m*3 1.7 C 0 km/h
2704 18-12-2005 18:51:36 1.7 C 3.87 g/m*3 1.7 C 0 km/h
2705 18-12-2005 19:01:36 1.8 C 3.95 g/m*3 1.8 C 0 km/h
2706 18-12-2005 19:11:36 1.8 C 3.95 g/m*3 1.8 C 0 km/h
2707 18-12-2005 19:21:37 2.1 C 3.97 g/m*3 2.1 C 0 km/h
2708 18-12-2005 19:31:37 2 C 3.95 g/m*3 2 C 0 km/h
2709 18-12-2005 19:41:37 2 C 4 g/m*3 2 C 0 km/h
2710 18-12-2005 19:51:37 1.9 C 4.14 g/m*3 1.9 C 0 km/h
2711 18-12-2005 20:01:37 1.7 C 4.14 g/m*3 1.7 C 0 km/h
2712 18-12-2005 20:11:37 1.6 C 4.22 g/m*3 1.6 C 0 km/h
2713 18-12-2005 20:21:37 1.6 C 4.22 g/m*3 1.6 C 0 km/h
2714 18-12-2005 20:31:37 1.7 C 4.19 g/m*3 1.7 C 0 km/h
2715 18-12-2005 20:41:37 1.8 C 4.11 g/m*3 1.8 C 0 km/h
2716 18-12-2005 20:51:37 2 C 4 g/m*3 2 C 0 km/h
2717 18-12-2005 21:01:37 1.9 C 3.97 g/m*3 1.9 C 0 km/h
2718 18-12-2005 21:11:37 2 C 3.78 g/m*3 2 C 0 km/h
2719 18-12-2005 21:21:36 2 C 3.67 g/m*3 2 C 0 km/h
2720 18-12-2005 21:31:37 2 C 3.5 g/m*3 2 C 0 km/h
2721 18-12-2005 21:41:37 1.9 C 3.53 g/m*3 1.9 C 0 km/h
2722 18-12-2005 21:51:37 1.8 C 3.56 g/m*3 1.8 C 0 km/h
2723 18-12-2005 22:01:37 1.5 C 3.54 g/m*3 1.5 C 0 km/h
2724 18-12-2005 22:11:37 1.3 C 3.5 g/m*3 1.3 C 0 km/h
2725 18-12-2005 22:21:36 1.3 C 3.44 g/m*3 1.3 C 0 km/h
Sensor: Nr:Datum:Temp:Abs-Feuchte:Windchill:Wind:
Aussen-T/F 2726 18-12-2005 22:31:36 1.3 C 3.39 g/m*3 1.3 C 0 km/h
2727 18-12-2005 22:41:36 1.3 C 3.34 g/m*3 1.3 C 0 km/h
2728 18-12-2005 22:51:37 1.3 C 3.34 g/m*3 1.3 C 0 km/h
2729 18-12-2005 23:01:37 1.3 C 3.28 g/m*3 1.3 C 0 km/h
2730 18-12-2005 23:11:37 1 C 3.32 g/m*3 1 C 0 km/h
2731 18-12-2005 23:21:37 0.8 C 3.38 g/m*3 0.8 C 0 km/h
2732 18-12-2005 23:31:37 0.6 C 3.38 g/m*3 0.6 C 0 km/h
2733 18-12-2005 23:41:37 0.3 C 3.36 g/m*3 0.3 C 0 km/h
2734 18-12-2005 23:51:37 0.4 C 3.34 g/m*3 0.4 C 0 km/h
2735 19-12-2005 00:01:38 0.2 C 3.34 g/m*3 0.2 C 0 km/h
2736 19-12-2005 00:11:38 0.1 C 3.37 g/m*3 0.1 C 0 km/h
2737 19-12-2005 00:21:37 0 C 3.34 g/m*3 0 C 0 km/h
2738 19-12-2005 00:31:38 0.1 C 3.42 g/m*3 0.1 C 0 km/h
2739 19-12-2005 00:41:38 0 C 3.44 g/m*3 0 C 0 km/h
2740 19-12-2005 00:51:37 0 C 3.44 g/m*3 0 C 0 km/h
2741 19-12-2005 01:01:37 0 C 3.49 g/m*3 0 C 0 km/h
2742 19-12-2005 01:11:37 0.1 C 3.56 g/m*3 0.1 C 0 km/h
2743 19-12-2005 01:21:37 0.2 C 3.54 g/m*3 0.2 C 0 km/h
2744 19-12-2005 01:31:37 0.3 C 3.61 g/m*3 0.3 C 0 km/h
2745 19-12-2005 01:41:37 0.5 C 3.61 g/m*3 0.5 C 0 km/h
2746 19-12-2005 01:51:38 0.6 C 3.59 g/m*3 0.6 C 0 km/h
2747 19-12-2005 02:01:38 0.6 C 3.59 g/m*3 0.6 C 0 km/h
2748 19-12-2005 02:11:38 0.8 C 3.63 g/m*3 0.8 C 0 km/h
2749 19-12-2005 02:21:37 0.8 C 3.63 g/m*3 0.8 C 0 km/h
2750 19-12-2005 02:31:37 0.9 C 3.61 g/m*3 0.9 C 0 km/h
Sensor: Nr:Datum:Temp:Abs-Feuchte:Windchill:Wind:
Aussen-T/F 2751 19-12-2005 02:41:37 1.1 C 3.61 g/m*3 1.1 C 0 km/h
2752 19-12-2005 02:52:39 1.3 C 3.6 g/m*3 1.3 C 0 km/h
2753 19-12-2005 03:02:39 1.3 C 3.6 g/m*3 1.3 C 0 km/h
2754 19-12-2005 03:12:39 1.3 C 3.66 g/m*3 1.3 C 0 km/h
2755 19-12-2005 03:22:39 1.1 C 3.61 g/m*3 1.1 C 0 km/h
2756 19-12-2005 03:32:39 1.3 C 3.66 g/m*3 1.3 C 0 km/h
2757 19-12-2005 03:42:39 1.3 C 3.66 g/m*3 1.3 C 0 km/h
2758 19-12-2005 03:52:39 1.3 C 3.66 g/m*3 1.3 C 0 km/h
2759 19-12-2005 04:02:38 1.3 C 3.66 g/m*3 1.3 C 0 km/h
2760 19-12-2005 04:12:38 1.4 C 3.68 g/m*3 1.4 C 0 km/h
2761 19-12-2005 04:22:39 1.5 C 3.65 g/m*3 1.5 C 0 km/h
2762 19-12-2005 04:32:39 1.5 C 3.65 g/m*3 1.5 C 0 km/h
2763 19-12-2005 04:42:39 1.5 C 3.65 g/m*3 1.5 C 0 km/h
2764 19-12-2005 04:52:39 1.5 C 3.65 g/m*3 1.5 C 0 km/h
2765 19-12-2005 05:02:40 1.6 C 3.68 g/m*3 1.6 C 0 km/h
2766 19-12-2005 05:12:40 1.6 C 3.68 g/m*3 1.6 C 0 km/h
2767 19-12-2005 05:22:39 1.6 C 3.68 g/m*3 1.6 C 0 km/h
2768 19-12-2005 05:32:39 1.6 C 3.68 g/m*3 1.6 C 0 km/h
2769 19-12-2005 05:42:39 1.7 C 3.7 g/m*3 1.7 C 0 km/h
2770 19-12-2005 05:52:39 1.7 C 3.7 g/m*3 1.7 C 0 km/h
2771 19-12-2005 06:02:40 1.8 C 3.73 g/m*3 1.8 C 0 km/h
2772 19-12-2005 06:12:40 1.8 C 3.73 g/m*3 1.8 C 0 km/h
2773 19-12-2005 06:22:39 1.8 C 3.73 g/m*3 1.8 C 0 km/h
2774 19-12-2005 06:32:40 1.7 C 3.76 g/m*3 1.7 C 0 km/h
2775 19-12-2005 06:42:40 1.6 C 3.79 g/m*3 1.6 C 0 km/h
Sensor: Nr:Datum:Temp:Abs-Feuchte:Windchill:Wind:
Aussen-T/F 2776 19-12-2005 06:52:39 1.6 C 3.79 g/m*3 1.6 C 0 km/h
2777 19-12-2005 07:02:39 1.7 C 3.76 g/m*3 1.7 C 0 km/h
2778 19-12-2005 07:12:39 1.6 C 3.73 g/m*3 1.6 C 0 km/h
2779 19-12-2005 07:22:39 1.4 C 3.79 g/m*3 1.4 C 0 km/h
2780 19-12-2005 07:32:39 1.3 C 3.87 g/m*3 1.3 C 0 km/h
2781 19-12-2005 07:42:39 1.4 C 3.84 g/m*3 1.4 C 0 km/h
2782 19-12-2005 07:52:39 1.4 C 3.84 g/m*3 1.4 C 0 km/h
2783 19-12-2005 08:02:39 1.3 C 3.87 g/m*3 1.3 C 0 km/h
2784 19-12-2005 08:12:39 1.2 C 3.89 g/m*3 1.2 C 0 km/h
2785 19-12-2005 08:22:39 1.2 C 3.89 g/m*3 1.2 C 0 km/h
2786 19-12-2005 08:32:40 1.1 C 3.92 g/m*3 1.1 C 0 km/h
2787 19-12-2005 08:42:40 1.1 C 3.92 g/m*3 1.1 C 0 km/h
2788 19-12-2005 08:52:39 1.3 C 3.97 g/m*3 1.3 C 0 km/h
2789 19-12-2005 09:02:40 1.2 C 3.89 g/m*3 1.2 C 0 km/h
2790 19-12-2005 09:12:40 1.3 C 3.92 g/m*3 1.3 C 0 km/h
2791 19-12-2005 09:22:39 1.3 C 3.87 g/m*3 1.3 C 0 km/h
2792 19-12-2005 09:32:39 1.3 C 3.87 g/m*3 1.3 C 0 km/h
2793 19-12-2005 09:42:39 1 C 3.89 g/m*3 1 C 0 km/h
2794 19-12-2005 09:52:40 0.7 C 4.07 g/m*3 0.7 C 0 km/h
2795 19-12-2005 10:02:39 0.7 C 4.12 g/m*3 0.7 C 0 km/h
2796 19-12-2005 10:12:39 0.7 C 4.17 g/m*3 0.7 C 0 km/h
2797 19-12-2005 10:22:39 0.9 C 4.23 g/m*3 0.9 C 0 km/h
2798 19-12-2005 10:32:40 1 C 4.15 g/m*3 1 C 0 km/h
2799 19-12-2005 10:42:40 1 C 4.15 g/m*3 1 C 0 km/h
2800 19-12-2005 10:52:39 1.3 C 4.19 g/m*3 1.3 C 0 km/h
Sensor: Nr:Datum:Temp:Abs-Feuchte:Windchill:Wind:
Aussen-T/F 2801 19-12-2005 11:02:39 1.3 C 4.08 g/m*3 1.3 C 0 km/h
2802 19-12-2005 11:12:39 1.4 C 4.11 g/m*3 1.4 C 0 km/h
2803 19-12-2005 11:22:40 1.4 C 4.05 g/m*3 1.4 C 0 km/h
2804 19-12-2005 11:32:40 1.3 C 4.08 g/m*3 1.3 C 0 km/h
2805 19-12-2005 11:42:40 1.3 C 4.08 g/m*3 1.3 C 0 km/h
2806 19-12-2005 11:52:40 1.2 C 4.1 g/m*3 1.2 C 0 km/h
2807 19-12-2005 12:02:40 0.8 C 4.2 g/m*3 0.8 C 0 km/h
2808 19-12-2005 12:12:41 0.8 C 4.25 g/m*3 0.8 C 0 km/h
2809 19-12-2005 12:22:40 0.9 C 4.23 g/m*3 0.9 C 0 km/h
2810 19-12-2005 12:32:39 0.9 C 4.23 g/m*3 0.9 C 0 km/h
2811 19-12-2005 12:42:39 1 C 4.2 g/m*3 1 C 0 km/h
2812 19-12-2005 12:52:39 1.1 C 4.18 g/m*3 1.1 C 0 km/h
2813 19-12-2005 13:02:40 1.3 C 4.24 g/m*3 1.3 C 0 km/h
2814 19-12-2005 13:12:40 1.4 C 4.21 g/m*3 1.4 C 0 km/h
2815 19-12-2005 13:22:40 1.5 C 4.19 g/m*3 1.5 C 0 km/h
2816 19-12-2005 13:32:40 1.5 C 4.19 g/m*3 1.5 C 0 km/h
2817 19-12-2005 13:42:40 1.6 C 4.16 g/m*3 1.6 C 0 km/h
2818 19-12-2005 13:52:40 1.7 C 4.14 g/m*3 1.7 C 0 km/h
2819 19-12-2005 14:02:40 1.7 C 4.19 g/m*3 1.7 C 0 km/h
2820 19-12-2005 14:12:40 1.6 C 4.22 g/m*3 1.6 C 0 km/h
2821 19-12-2005 14:22:40 1.6 C 4.27 g/m*3 1.6 C 0 km/h
2822 19-12-2005 14:32:40 1.4 C 4.32 g/m*3 1.4 C 0 km/h
2823 19-12-2005 14:42:40 1.2 C 4.31 g/m*3 1.2 C 0 km/h
2824 19-12-2005 14:52:40 1.3 C 4.45 g/m*3 1.3 C 0 km/h
2825 19-12-2005 15:02:40 1.3 C 4.45 g/m*3 1.3 C 0 km/h
Sensor: Nr:Datum:Temp:Abs-Feuchte:Windchill:Wind:
Aussen-T/F 2826 19-12-2005 15:12:40 1.4 C 4.48 g/m*3 1.4 C 0 km/h
2827 19-12-2005 15:22:40 1.4 C 4.48 g/m*3 1.4 C 0 km/h
2828 19-12-2005 15:32:40 1.5 C 4.51 g/m*3 1.5 C 0 km/h
2829 19-12-2005 15:42:40 1.5 C 4.51 g/m*3 1.5 C 0 km/h
2830 19-12-2005 15:52:40 1.5 C 4.51 g/m*3 1.5 C 0 km/h
2831 19-12-2005 16:02:40 1.5 C 4.51 g/m*3 1.5 C 0 km/h
2832 19-12-2005 16:12:40 1.6 C 4.49 g/m*3 1.6 C 0 km/h
2833 19-12-2005 16:22:40 1.7 C 4.46 g/m*3 1.7 C 0 km/h
2834 19-12-2005 16:32:41 1.7 C 4.46 g/m*3 1.7 C 0 km/h
2835 19-12-2005 16:42:41 1.7 C 4.46 g/m*3 1.7 C 0 km/h
2836 19-12-2005 16:52:40 1.8 C 4.49 g/m*3 1.8 C 0 km/h
2837 19-12-2005 17:02:41 1.9 C 4.53 g/m*3 1.9 C 0 km/h
2838 19-12-2005 17:12:41 1.8 C 4.44 g/m*3 1.8 C 0 km/h
2839 19-12-2005 17:22:40 2 C 4.5 g/m*3 2 C 0 km/h
2840 19-12-2005 17:32:40 1.9 C 4.58 g/m*3 1.9 C 0 km/h
2841 19-12-2005 17:42:40 1.9 C 4.58 g/m*3 1.9 C 0 km/h
2842 19-12-2005 17:52:41 1.9 C 4.58 g/m*3 1.9 C 0 km/h
2843 19-12-2005 18:02:40 2 C 4.61 g/m*3 2 C 0 km/h
2844 19-12-2005 18:12:40 1.9 C 4.64 g/m*3 1.9 C 0 km/h
2845 19-12-2005 18:22:40 1.8 C 4.66 g/m*3 1.8 C 0 km/h
2846 19-12-2005 18:32:40 1.9 C 4.75 g/m*3 1.9 C 0 km/h
2847 19-12-2005 18:42:40 1.9 C 4.75 g/m*3 1.9 C 0 km/h
2848 19-12-2005 18:52:40 1.8 C 4.77 g/m*3 1.8 C 0 km/h
2849 19-12-2005 19:02:40 1.8 C 4.82 g/m*3 1.8 C 0 km/h
2850 19-12-2005 19:12:40 1.8 C 4.82 g/m*3 1.8 C 0 km/h
Sensor: Nr:Datum:Temp:Abs-Feuchte:Windchill:Wind:
Aussen-T/F 2851 19-12-2005 19:22:40 1.8 C 4.88 g/m*3 1.8 C 0 km/h
2852 19-12-2005 19:32:41 1.9 C 4.91 g/m*3 1.9 C 0 km/h
2853 19-12-2005 19:42:41 2 C 4.95 g/m*3 2 C 0 km/h
2854 19-12-2005 19:52:40 2 C 4.95 g/m*3 2 C 0 km/h
2855 19-12-2005 20:02:40 2 C 4.95 g/m*3 2 C 0 km/h
2856 19-12-2005 20:12:40 1.9 C 4.97 g/m*3 1.9 C 0 km/h
2857 19-12-2005 20:22:40 2 C 4.95 g/m*3 2 C 0 km/h
2858 19-12-2005 20:32:41 2.1 C 4.98 g/m*3 2.1 C 0 km/h
2859 19-12-2005 20:42:41 2.1 C 4.98 g/m*3 2.1 C 0 km/h
2860 19-12-2005 20:52:40 2.2 C 5.01 g/m*3 2.2 C 0 km/h
2861 19-12-2005 21:02:41 2.2 C 5.01 g/m*3 2.2 C 0 km/h
2862 19-12-2005 21:12:41 2.2 C 4.96 g/m*3 2.2 C 0 km/h
2863 19-12-2005 21:22:41 2.3 C 4.99 g/m*3 2.3 C 0 km/h
2864 19-12-2005 21:32:40 2.2 C 4.96 g/m*3 2.2 C 0 km/h
2865 19-12-2005 21:42:40 2.2 C 5.01 g/m*3 2.2 C 0 km/h
2866 19-12-2005 21:52:40 2.2 C 5.01 g/m*3 2.2 C 0 km/h
2867 19-12-2005 22:02:42 2.1 C 4.98 g/m*3 2.1 C 0 km/h
2868 19-12-2005 22:12:42 2.2 C 5.01 g/m*3 2.2 C 0 km/h
2869 19-12-2005 22:22:41 2.2 C 5.07 g/m*3 2.2 C 0 km/h
2870 19-12-2005 22:32:41 2.2 C 5.01 g/m*3 2.2 C 0 km/h
2871 19-12-2005 22:42:41 2.2 C 5.01 g/m*3 2.2 C 0 km/h
2872 19-12-2005 22:52:41 2.3 C 5.05 g/m*3 2.3 C 0 km/h
2873 19-12-2005 23:02:40 2.4 C 5.08 g/m*3 2.4 C 0 km/h
2874 19-12-2005 23:12:40 2.4 C 5.08 g/m*3 2.4 C 0 km/h
2875 19-12-2005 23:22:40 2.4 C 5.08 g/m*3 2.4 C 0 km/h
Sensor: Nr:Datum:Temp:Abs-Feuchte:Windchill:Wind:
Aussen-T/F 2876 19-12-2005 23:32:41 2.4 C 5.08 g/m*3 2.4 C 0 km/h
2877 19-12-2005 23:42:41 2.4 C 5.08 g/m*3 2.4 C 0 km/h
2878 19-12-2005 23:52:41 2.4 C 5.08 g/m*3 2.4 C 0 km/h
2879 20-12-2005 00:02:41 2.3 C 5.05 g/m*3 2.3 C 0 km/h
2880 20-12-2005 00:12:41 2.3 C 5.05 g/m*3 2.3 C 0 km/h
2881 20-12-2005 00:22:41 2.3 C 5.05 g/m*3 2.3 C 0 km/h
2882 20-12-2005 00:32:41 2.4 C 5.08 g/m*3 2.4 C 0 km/h
2883 20-12-2005 00:42:41 2.4 C 5.08 g/m*3 2.4 C 0 km/h
2884 20-12-2005 00:52:42 2.4 C 5.08 g/m*3 2.4 C 0 km/h
2885 20-12-2005 01:02:41 2.5 C 5.12 g/m*3 2.5 C 0 km/h
2886 20-12-2005 01:12:41 2.4 C 5.08 g/m*3 2.4 C 0 km/h
2887 20-12-2005 01:22:41 2.4 C 5.02 g/m*3 2.4 C 0 km/h
2888 20-12-2005 01:32:41 2.5 C 5.06 g/m*3 2.5 C 0 km/h
2889 20-12-2005 01:42:42 2.5 C 5.06 g/m*3 2.5 C 0 km/h
2890 20-12-2005 01:52:41 2.5 C 5.06 g/m*3 2.5 C 0 km/h
2891 20-12-2005 02:02:41 2.6 C 5.03 g/m*3 2.6 C 0 km/h
2892 20-12-2005 02:12:41 2.6 C 5.03 g/m*3 2.6 C 0 km/h
2893 20-12-2005 02:22:41 2.6 C 4.98 g/m*3 2.6 C 0 km/h
2894 20-12-2005 02:32:41 2.6 C 4.98 g/m*3 2.6 C 0 km/h
2895 20-12-2005 02:42:41 2.7 C 5.01 g/m*3 2.7 C 0 km/h
2896 20-12-2005 02:53:43 2.6 C 4.92 g/m*3 2.6 C 0 km/h
2897 20-12-2005 03:03:43 2.7 C 5.01 g/m*3 2.7 C 0 km/h
2898 20-12-2005 03:13:42 2.6 C 4.92 g/m*3 2.6 C 0 km/h
2899 20-12-2005 03:23:42 2.6 C 4.92 g/m*3 2.6 C 0 km/h
2900 20-12-2005 03:33:42 2.8 C 4.93 g/m*3 2.8 C 0 km/h
Sensor: Nr:Datum:Temp:Abs-Feuchte:Windchill:Wind:
Aussen-T/F 2901 20-12-2005 03:43:42 2.7 C 4.89 g/m*3 2.7 C 0 km/h
2902 20-12-2005 03:53:42 2.7 C 4.89 g/m*3 2.7 C 0 km/h
2903 20-12-2005 04:03:42 2.6 C 4.86 g/m*3 2.6 C 0 km/h
2904 20-12-2005 04:13:42 2.7 C 4.89 g/m*3 2.7 C 0 km/h
2905 20-12-2005 04:23:43 2.7 C 4.89 g/m*3 2.7 C 0 km/h
2906 20-12-2005 04:33:43 2.6 C 4.86 g/m*3 2.6 C 0 km/h
2907 20-12-2005 04:43:43 2.5 C 4.83 g/m*3 2.5 C 0 km/h
2908 20-12-2005 04:53:43 2.2 C 4.73 g/m*3 2.2 C 0 km/h
2909 20-12-2005 05:03:43 2.2 C 4.79 g/m*3 2.2 C 0 km/h
2910 20-12-2005 05:13:43 2.1 C 4.76 g/m*3 2.1 C 0 km/h
2911 20-12-2005 05:23:42 2.1 C 4.81 g/m*3 2.1 C 0 km/h
2912 20-12-2005 05:33:42 2 C 4.78 g/m*3 2 C 0 km/h
2913 20-12-2005 05:43:42 2.2 C 4.9 g/m*3 2.2 C 0 km/h
2914 20-12-2005 05:53:42 2.3 C 4.93 g/m*3 2.3 C 0 km/h
2915 20-12-2005 06:03:42 2.4 C 4.97 g/m*3 2.4 C 0 km/h
2916 20-12-2005 06:13:42 2.5 C 4.94 g/m*3 2.5 C 0 km/h
2917 20-12-2005 06:23:43 2.5 C 4.94 g/m*3 2.5 C 0 km/h
2918 20-12-2005 06:33:43 2.6 C 4.98 g/m*3 2.6 C 0 km/h
2919 20-12-2005 06:43:43 2.5 C 4.89 g/m*3 2.5 C 0 km/h
2920 20-12-2005 06:53:42 2.5 C 4.89 g/m*3 2.5 C 0 km/h
2921 20-12-2005 07:03:42 2.4 C 4.8 g/m*3 2.4 C 0 km/h
2922 20-12-2005 07:13:42 2.2 C 4.73 g/m*3 2.2 C 0 km/h
2923 20-12-2005 07:23:43 2.3 C 4.82 g/m*3 2.3 C 0 km/h
2924 20-12-2005 07:33:43 2.3 C 4.88 g/m*3 2.3 C 0 km/h
2925 20-12-2005 07:43:43 2.5 C 4.89 g/m*3 2.5 C 0 km/h
Sensor: Nr:Datum:Temp:Abs-Feuchte:Windchill:Wind:
Aussen-T/F 2926 20-12-2005 07:53:42 2.6 C 4.8 g/m*3 2.6 C 0 km/h
2927 20-12-2005 08:03:43 2.5 C 4.77 g/m*3 2.5 C 0 km/h
2928 20-12-2005 08:13:43 2.5 C 4.77 g/m*3 2.5 C 0 km/h
2929 20-12-2005 08:23:43 2.5 C 4.71 g/m*3 2.5 C 0 km/h
2930 20-12-2005 08:33:43 2.4 C 4.68 g/m*3 2.4 C 0 km/h
2931 20-12-2005 08:43:43 2.3 C 4.65 g/m*3 2.3 C 0 km/h
2932 20-12-2005 08:53:43 2.4 C 4.68 g/m*3 2.4 C 0 km/h
2933 20-12-2005 09:03:42 2.5 C 4.66 g/m*3 2.5 C 0 km/h
2934 20-12-2005 09:13:42 2.6 C 4.69 g/m*3 2.6 C 0 km/h
2935 20-12-2005 09:23:42 2.7 C 4.66 g/m*3 2.7 C 0 km/h
2936 20-12-2005 09:33:43 2.8 C 4.69 g/m*3 2.8 C 0 km/h
2937 20-12-2005 09:43:43 2.8 C 4.63 g/m*3 2.8 C 0 km/h
2938 20-12-2005 09:53:43 2.8 C 4.63 g/m*3 2.8 C 0 km/h
2939 20-12-2005 10:03:44 2.8 C 4.58 g/m*3 2.8 C 0 km/h
2940 20-12-2005 10:13:44 2.8 C 4.58 g/m*3 2.8 C 0 km/h
2941 20-12-2005 10:23:43 2.8 C 4.63 g/m*3 2.8 C 0 km/h
2942 20-12-2005 10:33:43 2.8 C 4.58 g/m*3 2.8 C 0 km/h
2943 20-12-2005 10:43:43 2.7 C 4.6 g/m*3 2.7 C 0 km/h
2944 20-12-2005 10:53:43 2.8 C 4.63 g/m*3 2.8 C 0 km/h
2945 20-12-2005 11:03:43 2.8 C 4.58 g/m*3 2.8 C 0 km/h
2946 20-12-2005 11:13:43 2.8 C 4.58 g/m*3 2.8 C 0 km/h
2947 20-12-2005 11:23:43 3 C 4.58 g/m*3 3 C 0 km/h
2948 20-12-2005 11:33:43 3 C 4.58 g/m*3 3 C 0 km/h
2949 20-12-2005 11:43:43 3.1 C 4.61 g/m*3 3.1 C 0 km/h
2950 20-12-2005 11:53:43 3.1 C 4.55 g/m*3 3.1 C 0 km/h
Sensor: Nr:Datum:Temp:Abs-Feuchte:Windchill:Wind:
Aussen-T/F 2951 20-12-2005 12:03:43 3 C 4.58 g/m*3 3 C 0 km/h
2952 20-12-2005 12:13:43 3 C 4.52 g/m*3 3 C 0 km/h
2953 20-12-2005 12:23:43 3 C 4.52 g/m*3 3 C 0 km/h
2954 20-12-2005 12:33:43 3 C 4.52 g/m*3 3 C 0 km/h
2955 20-12-2005 12:43:43 3.1 C 4.55 g/m*3 3.1 C 0 km/h
2956 20-12-2005 12:53:43 3 C 4.52 g/m*3 3 C 0 km/h
2957 20-12-2005 13:03:43 3 C 4.52 g/m*3 3 C 0 km/h
2958 20-12-2005 13:13:43 3.6 C 4.64 g/m*3 3.6 C 0 km/h
2959 20-12-2005 13:23:43 3.5 C 4.49 g/m*3 3.5 C 0 km/h
2960 20-12-2005 13:33:44 3.4 C 4.46 g/m*3 3.4 C 0 km/h
2961 20-12-2005 13:43:44 3.5 C 4.55 g/m*3 3.5 C 0 km/h
2962 20-12-2005 13:53:43 3.8 C 4.58 g/m*3 3.8 C 0 km/h
2963 20-12-2005 14:03:44 3.9 C 4.55 g/m*3 3.9 C 0 km/h
2964 20-12-2005 14:13:44 3.9 C 4.55 g/m*3 3.9 C 0 km/h
2965 20-12-2005 14:23:43 3.9 C 4.55 g/m*3 3.9 C 0 km/h
2966 20-12-2005 14:33:43 3.9 C 4.55 g/m*3 3.9 C 0 km/h
2967 20-12-2005 14:43:43 3.9 C 4.55 g/m*3 3.9 C 0 km/h
2968 20-12-2005 14:53:43 3.9 C 4.55 g/m*3 3.9 C 0 km/h
2969 20-12-2005 15:03:43 3.6 C 4.52 g/m*3 3.6 C 0 km/h
2970 20-12-2005 15:13:43 3.3 C 4.55 g/m*3 3.3 C 0 km/h
2971 20-12-2005 15:23:43 3.6 C 4.58 g/m*3 3.6 C 0 km/h
2972 20-12-2005 15:33:44 4 C 4.45 g/m*3 4 C 0 km/h
2973 20-12-2005 15:43:44 3.9 C 4.42 g/m*3 3.9 C 0 km/h
2974 20-12-2005 15:53:43 3.8 C 4.45 g/m*3 3.8 C 0 km/h
2975 20-12-2005 16:03:44 3.5 C 4.37 g/m*3 3.5 C 0 km/h
Sensor: Nr:Datum:Temp:Abs-Feuchte:Windchill:Wind:
Aussen-T/F 2976 20-12-2005 16:13:44 3.3 C 4.37 g/m*3 3.3 C 0 km/h
2977 20-12-2005 16:23:44 3.3 C 4.37 g/m*3 3.3 C 0 km/h
2978 20-12-2005 16:33:43 3.2 C 4.34 g/m*3 3.2 C 0 km/h
2979 20-12-2005 16:43:43 3.2 C 4.34 g/m*3 3.2 C 0 km/h
2980 20-12-2005 16:53:43 3.1 C 4.31 g/m*3 3.1 C 0 km/h
2981 20-12-2005 17:03:43 3 C 4.28 g/m*3 3 C 0 km/h
2982 20-12-2005 17:13:43 2.8 C 4.34 g/m*3 2.8 C 0 km/h
2983 20-12-2005 17:23:43 2.6 C 4.34 g/m*3 2.6 C 0 km/h
2984 20-12-2005 17:33:44 2.4 C 4.28 g/m*3 2.4 C 0 km/h
2985 20-12-2005 17:43:44 2.4 C 4.34 g/m*3 2.4 C 0 km/h
2986 20-12-2005 17:53:43 2.4 C 4.34 g/m*3 2.4 C 0 km/h
2987 20-12-2005 18:03:44 2.4 C 4.28 g/m*3 2.4 C 0 km/h
2988 20-12-2005 18:13:44 2.5 C 4.37 g/m*3 2.5 C 0 km/h
2989 20-12-2005 18:23:44 2.5 C 4.37 g/m*3 2.5 C 0 km/h
2990 20-12-2005 18:33:44 2.5 C 4.31 g/m*3 2.5 C 0 km/h
2991 20-12-2005 18:43:44 2.5 C 4.31 g/m*3 2.5 C 0 km/h
2992 20-12-2005 18:53:44 2.6 C 4.34 g/m*3 2.6 C 0 km/h
2993 20-12-2005 19:03:44 2.6 C 4.34 g/m*3 2.6 C 0 km/h
2994 20-12-2005 19:13:44 2.7 C 4.37 g/m*3 2.7 C 0 km/h
2995 20-12-2005 19:23:44 2.7 C 4.37 g/m*3 2.7 C 0 km/h
2996 20-12-2005 19:33:44 2.7 C 4.37 g/m*3 2.7 C 0 km/h
2997 20-12-2005 19:43:44 2.7 C 4.37 g/m*3 2.7 C 0 km/h
2998 20-12-2005 19:53:44 2.7 C 4.37 g/m*3 2.7 C 0 km/h
2999 20-12-2005 20:03:44 2.7 C 4.37 g/m*3 2.7 C 0 km/h
3000 20-12-2005 20:13:44 2.7 C 4.37 g/m*3 2.7 C 0 km/h
Sensor: Nr:Datum:Temp:Abs-Feuchte:Windchill:Wind:
Aussen-T/F 3001 20-12-2005 20:23:44 2.6 C 4.4 g/m*3 2.6 C 0 km/h
3002 20-12-2005 20:33:44 2.6 C 4.4 g/m*3 2.6 C 0 km/h
3003 20-12-2005 20:43:44 2.6 C 4.4 g/m*3 2.6 C 0 km/h
3004 20-12-2005 20:53:44 2.6 C 4.4 g/m*3 2.6 C 0 km/h
3005 20-12-2005 21:03:44 2.6 C 4.4 g/m*3 2.6 C 0 km/h
3006 20-12-2005 21:13:45 2.5 C 4.37 g/m*3 2.5 C 0 km/h
3007 20-12-2005 21:23:44 2.5 C 4.37 g/m*3 2.5 C 0 km/h
3008 20-12-2005 21:33:44 2.6 C 4.4 g/m*3 2.6 C 0 km/h
3009 20-12-2005 21:43:44 2.6 C 4.4 g/m*3 2.6 C 0 km/h
3010 20-12-2005 21:53:44 2.6 C 4.4 g/m*3 2.6 C 0 km/h
3011 20-12-2005 22:03:44 2.6 C 4.4 g/m*3 2.6 C 0 km/h
3012 20-12-2005 22:13:44 2.6 C 4.4 g/m*3 2.6 C 0 km/h
3013 20-12-2005 22:23:44 2.6 C 4.46 g/m*3 2.6 C 0 km/h
3014 20-12-2005 22:33:44 2.5 C 4.43 g/m*3 2.5 C 0 km/h
3015 20-12-2005 22:43:44 2.6 C 4.46 g/m*3 2.6 C 0 km/h
3016 20-12-2005 22:53:44 2.6 C 4.46 g/m*3 2.6 C 0 km/h
3017 20-12-2005 23:03:44 2.6 C 4.46 g/m*3 2.6 C 0 km/h
3018 20-12-2005 23:13:44 2.6 C 4.46 g/m*3 2.6 C 0 km/h
3019 20-12-2005 23:23:45 2.6 C 4.46 g/m*3 2.6 C 0 km/h
3020 20-12-2005 23:33:44 2.6 C 4.46 g/m*3 2.6 C 0 km/h
3021 20-12-2005 23:43:44 2.5 C 4.43 g/m*3 2.5 C 0 km/h
3022 20-12-2005 23:53:44 2.6 C 4.46 g/m*3 2.6 C 0 km/h
3023 21-12-2005 00:03:45 2.5 C 4.43 g/m*3 2.5 C 0 km/h
3024 21-12-2005 00:13:45 2.6 C 4.46 g/m*3 2.6 C 0 km/h
3025 21-12-2005 00:23:45 2.6 C 4.46 g/m*3 2.6 C 0 km/h
Sensor: Nr:Datum:Temp:Abs-Feuchte:Windchill:Wind:
Aussen-T/F 3026 21-12-2005 00:33:44 2.5 C 4.48 g/m*3 2.5 C 0 km/h
3027 21-12-2005 00:43:44 2.5 C 4.48 g/m*3 2.5 C 0 km/h
3028 21-12-2005 00:53:45 2.5 C 4.48 g/m*3 2.5 C 0 km/h
3029 21-12-2005 01:03:45 2.5 C 4.48 g/m*3 2.5 C 0 km/h
3030 21-12-2005 01:13:45 2.5 C 4.54 g/m*3 2.5 C 0 km/h
3031 21-12-2005 01:23:45 2.4 C 4.51 g/m*3 2.4 C 0 km/h
3032 21-12-2005 01:33:45 2.4 C 4.51 g/m*3 2.4 C 0 km/h
3033 21-12-2005 01:43:45 2.2 C 4.45 g/m*3 2.2 C 0 km/h
3034 21-12-2005 01:53:45 2 C 4.45 g/m*3 2 C 0 km/h
3035 21-12-2005 02:03:45 2.2 C 4.51 g/m*3 2.2 C 0 km/h
3036 21-12-2005 02:13:45 2.3 C 4.54 g/m*3 2.3 C 0 km/h
3037 21-12-2005 02:23:44 2.4 C 4.51 g/m*3 2.4 C 0 km/h
3038 21-12-2005 02:33:44 2.4 C 4.51 g/m*3 2.4 C 0 km/h
3039 21-12-2005 02:43:44 2.3 C 4.48 g/m*3 2.3 C 0 km/h
3040 21-12-2005 02:54:46 2.3 C 4.48 g/m*3 2.3 C 0 km/h
3041 21-12-2005 03:04:46 2.3 C 4.48 g/m*3 2.3 C 0 km/h
3042 21-12-2005 03:14:46 2.3 C 4.48 g/m*3 2.3 C 0 km/h
3043 21-12-2005 03:24:46 2.3 C 4.48 g/m*3 2.3 C 0 km/h
3044 21-12-2005 03:34:46 2.3 C 4.48 g/m*3 2.3 C 0 km/h
3045 21-12-2005 03:44:47 2.3 C 4.48 g/m*3 2.3 C 0 km/h
3046 21-12-2005 03:54:47 2.3 C 4.48 g/m*3 2.3 C 0 km/h
3047 21-12-2005 04:04:46 2.2 C 4.45 g/m*3 2.2 C 0 km/h
3048 21-12-2005 04:14:47 2.2 C 4.51 g/m*3 2.2 C 0 km/h
3049 21-12-2005 04:24:46 2.2 C 4.51 g/m*3 2.2 C 0 km/h
3050 21-12-2005 04:34:46 2.2 C 4.51 g/m*3 2.2 C 0 km/h
Sensor: Nr:Datum:Temp:Abs-Feuchte:Windchill:Wind:
Aussen-T/F 3051 21-12-2005 04:44:46 2.2 C 4.51 g/m*3 2.2 C 0 km/h
3052 21-12-2005 04:54:46 2.2 C 4.51 g/m*3 2.2 C 0 km/h
3053 21-12-2005 05:04:46 2.1 C 4.48 g/m*3 2.1 C 0 km/h
3054 21-12-2005 05:14:46 2 C 4.45 g/m*3 2 C 0 km/h
3055 21-12-2005 05:24:46 2 C 4.45 g/m*3 2 C 0 km/h
3056 21-12-2005 05:34:46 1.8 C 4.44 g/m*3 1.8 C 0 km/h
3057 21-12-2005 05:44:46 1.7 C 4.41 g/m*3 1.7 C 0 km/h
3058 21-12-2005 05:54:46 1.6 C 4.38 g/m*3 1.6 C 0 km/h
3059 21-12-2005 06:04:46 1.3 C 4.34 g/m*3 1.3 C 0 km/h
3060 21-12-2005 06:14:46 1.4 C 4.43 g/m*3 1.4 C 0 km/h
3061 21-12-2005 06:24:46 1.5 C 4.46 g/m*3 1.5 C 0 km/h
3062 21-12-2005 06:34:47 1.7 C 4.52 g/m*3 1.7 C 0 km/h
3063 21-12-2005 06:44:47 1.7 C 4.46 g/m*3 1.7 C 0 km/h
3064 21-12-2005 06:54:47 1.8 C 4.49 g/m*3 1.8 C 0 km/h
3065 21-12-2005 07:04:47 1.8 C 4.49 g/m*3 1.8 C 0 km/h
3066 21-12-2005 07:14:47 1.9 C 4.47 g/m*3 1.9 C 0 km/h
3067 21-12-2005 07:24:46 2 C 4.45 g/m*3 2 C 0 km/h
3068 21-12-2005 07:34:46 2 C 4.45 g/m*3 2 C 0 km/h
3069 21-12-2005 07:44:46 2 C 4.45 g/m*3 2 C 0 km/h
3070 21-12-2005 07:54:47 1.9 C 4.47 g/m*3 1.9 C 0 km/h
3071 21-12-2005 08:04:46 1.8 C 4.44 g/m*3 1.8 C 0 km/h
3072 21-12-2005 08:14:46 1.9 C 4.47 g/m*3 1.9 C 0 km/h
3073 21-12-2005 08:24:46 1.9 C 4.47 g/m*3 1.9 C 0 km/h
3074 21-12-2005 08:34:47 1.9 C 4.42 g/m*3 1.9 C 0 km/h
3075 21-12-2005 08:44:47 1.9 C 4.42 g/m*3 1.9 C 0 km/h
Sensor: Nr:Datum:Temp:Abs-Feuchte:Windchill:Wind:
Aussen-T/F 3076 21-12-2005 08:54:47 2 C 4.39 g/m*3 2 C 0 km/h
3077 21-12-2005 09:04:47 2 C 4.33 g/m*3 2 C 0 km/h
3078 21-12-2005 09:14:47 2.1 C 4.36 g/m*3 2.1 C 0 km/h
3079 21-12-2005 09:24:47 2.1 C 4.31 g/m*3 2.1 C 0 km/h
3080 21-12-2005 09:34:46 2.1 C 4.31 g/m*3 2.1 C 0 km/h
3081 21-12-2005 09:44:46 2.1 C 4.25 g/m*3 2.1 C 0 km/h
3082 21-12-2005 09:54:47 2.3 C 4.31 g/m*3 2.3 C 0 km/h
3083 21-12-2005 10:04:47 2.4 C 4.28 g/m*3 2.4 C 0 km/h
3084 21-12-2005 10:14:47 2.5 C 4.31 g/m*3 2.5 C 0 km/h
3085 21-12-2005 10:24:46 2.6 C 4.28 g/m*3 2.6 C 0 km/h
3086 21-12-2005 10:34:47 2.7 C 4.31 g/m*3 2.7 C 0 km/h
3087 21-12-2005 10:44:47 2.7 C 4.25 g/m*3 2.7 C 0 km/h
3088 21-12-2005 10:54:46 2.7 C 4.25 g/m*3 2.7 C 0 km/h
3089 21-12-2005 11:04:47 2.8 C 4.28 g/m*3 2.8 C 0 km/h
3090 21-12-2005 11:14:47 3 C 4.28 g/m*3 3 C 0 km/h
3091 21-12-2005 11:24:47 3.1 C 4.25 g/m*3 3.1 C 0 km/h
3092 21-12-2005 11:34:47 3 C 4.22 g/m*3 3 C 0 km/h
3093 21-12-2005 11:44:47 3 C 4.22 g/m*3 3 C 0 km/h
3094 21-12-2005 11:54:47 3 C 4.22 g/m*3 3 C 0 km/h
3095 21-12-2005 12:04:47 2.9 C 4.25 g/m*3 2.9 C 0 km/h
3096 21-12-2005 12:14:47 3 C 4.28 g/m*3 3 C 0 km/h
3097 21-12-2005 12:24:47 3.3 C 4.37 g/m*3 3.3 C 0 km/h
3098 21-12-2005 12:34:47 3.3 C 4.31 g/m*3 3.3 C 0 km/h
3099 21-12-2005 12:44:47 3.1 C 4.25 g/m*3 3.1 C 0 km/h
3100 21-12-2005 12:54:47 3.2 C 4.28 g/m*3 3.2 C 0 km/h
Sensor: Nr:Datum:Temp:Abs-Feuchte:Windchill:Wind:
Aussen-T/F 3101 21-12-2005 13:04:47 3.3 C 4.31 g/m*3 3.3 C 0 km/h
3102 21-12-2005 13:14:47 3.2 C 4.28 g/m*3 3.2 C 0 km/h
3103 21-12-2005 13:24:48 3.2 C 4.28 g/m*3 3.2 C 0 km/h
3104 21-12-2005 13:34:47 3.3 C 4.25 g/m*3 3.3 C 0 km/h
3105 21-12-2005 13:44:47 3.4 C 4.28 g/m*3 3.4 C 0 km/h
3106 21-12-2005 13:54:48 3.6 C 4.33 g/m*3 3.6 C 0 km/h
3107 21-12-2005 14:04:47 3.6 C 4.27 g/m*3 3.6 C 0 km/h
3108 21-12-2005 14:14:48 3.6 C 4.27 g/m*3 3.6 C 0 km/h
3109 21-12-2005 14:24:47 3.5 C 4.24 g/m*3 3.5 C 0 km/h
3110 21-12-2005 14:34:47 3.5 C 4.24 g/m*3 3.5 C 0 km/h
3111 21-12-2005 14:44:47 3.2 C 4.22 g/m*3 3.2 C 0 km/h
3112 21-12-2005 14:54:47 3.1 C 4.25 g/m*3 3.1 C 0 km/h
3113 21-12-2005 15:04:47 2.8 C 4.22 g/m*3 2.8 C 0 km/h
3114 21-12-2005 15:14:47 2.7 C 4.31 g/m*3 2.7 C 0 km/h
3115 21-12-2005 15:24:48 2.5 C 4.25 g/m*3 2.5 C 0 km/h
3116 21-12-2005 15:34:48 2.4 C 4.28 g/m*3 2.4 C 0 km/h
3117 21-12-2005 15:44:48 2.3 C 4.31 g/m*3 2.3 C 0 km/h
3118 21-12-2005 15:54:48 2.1 C 4.25 g/m*3 2.1 C 0 km/h
3119 21-12-2005 16:04:48 1.9 C 4.3 g/m*3 1.9 C 0 km/h
3120 21-12-2005 16:14:48 1.6 C 4.22 g/m*3 1.6 C 0 km/h
3121 21-12-2005 16:24:47 1.5 C 4.24 g/m*3 1.5 C 0 km/h
3122 21-12-2005 16:34:47 1.2 C 4.16 g/m*3 1.2 C 0 km/h
3123 21-12-2005 16:44:47 1.1 C 4.18 g/m*3 1.1 C 0 km/h
3124 21-12-2005 16:54:47 0.9 C 4.18 g/m*3 0.9 C 0 km/h
3125 21-12-2005 17:04:47 0.8 C 4.15 g/m*3 0.8 C 0 km/h
Sensor: Nr:Datum:Temp:Abs-Feuchte:Windchill:Wind:
Aussen-T/F 3126 21-12-2005 17:14:47 0.8 C 4.15 g/m*3 0.8 C 0 km/h
3127 21-12-2005 17:24:48 0.8 C 4.2 g/m*3 0.8 C 0 km/h
3128 21-12-2005 17:34:48 1.1 C 4.29 g/m*3 1.1 C 0 km/h
3129 21-12-2005 17:44:48 1.1 C 4.23 g/m*3 1.1 C 0 km/h
3130 21-12-2005 17:54:47 1.2 C 4.26 g/m*3 1.2 C 0 km/h
3131 21-12-2005 18:04:48 1.4 C 4.32 g/m*3 1.4 C 0 km/h
3132 21-12-2005 18:14:48 1.5 C 4.3 g/m*3 1.5 C 0 km/h
3133 21-12-2005 18:24:48 1.7 C 4.3 g/m*3 1.7 C 0 km/h
3134 21-12-2005 18:34:48 1.7 C 4.3 g/m*3 1.7 C 0 km/h
3135 21-12-2005 18:44:48 1.8 C 4.28 g/m*3 1.8 C 0 km/h
3136 21-12-2005 18:54:48 1.8 C 4.28 g/m*3 1.8 C 0 km/h
3137 21-12-2005 19:04:48 1.9 C 4.25 g/m*3 1.9 C 0 km/h
3138 21-12-2005 19:14:48 1.8 C 4.22 g/m*3 1.8 C 0 km/h
3139 21-12-2005 19:24:47 1.8 C 4.22 g/m*3 1.8 C 0 km/h
3140 21-12-2005 19:34:48 1.8 C 4.22 g/m*3 1.8 C 0 km/h
3141 21-12-2005 19:44:48 1.8 C 4.22 g/m*3 1.8 C 0 km/h
3142 21-12-2005 19:54:47 1.9 C 4.25 g/m*3 1.9 C 0 km/h
3143 21-12-2005 20:04:48 1.9 C 4.19 g/m*3 1.9 C 0 km/h
3144 21-12-2005 20:14:48 1.9 C 4.19 g/m*3 1.9 C 0 km/h
3145 21-12-2005 20:24:48 1.9 C 4.19 g/m*3 1.9 C 0 km/h
3146 21-12-2005 20:34:48 2 C 4.17 g/m*3 2 C 0 km/h
3147 21-12-2005 20:44:48 2.1 C 4.2 g/m*3 2.1 C 0 km/h
3148 21-12-2005 20:54:48 2 C 4.17 g/m*3 2 C 0 km/h
3149 21-12-2005 21:04:48 2.1 C 4.2 g/m*3 2.1 C 0 km/h
3150 21-12-2005 21:14:48 2.1 C 4.2 g/m*3 2.1 C 0 km/h
Sensor: Nr:Datum:Temp:Abs-Feuchte:Windchill:Wind:
Aussen-T/F 3151 21-12-2005 21:24:48 2.2 C 4.22 g/m*3 2.2 C 0 km/h
3152 21-12-2005 21:34:49 2.2 C 4.22 g/m*3 2.2 C 0 km/h
3153 21-12-2005 21:44:49 2.2 C 4.28 g/m*3 2.2 C 0 km/h
3154 21-12-2005 21:54:48 2.2 C 4.22 g/m*3 2.2 C 0 km/h
3155 21-12-2005 22:04:48 2.1 C 4.25 g/m*3 2.1 C 0 km/h
3156 21-12-2005 22:14:48 2.2 C 4.28 g/m*3 2.2 C 0 km/h
3157 21-12-2005 22:24:48 2.3 C 4.31 g/m*3 2.3 C 0 km/h
3158 21-12-2005 22:34:48 2.3 C 4.31 g/m*3 2.3 C 0 km/h
3159 21-12-2005 22:44:48 2.3 C 4.31 g/m*3 2.3 C 0 km/h
3160 21-12-2005 22:54:49 2.3 C 4.31 g/m*3 2.3 C 0 km/h
3161 21-12-2005 23:04:48 2.3 C 4.31 g/m*3 2.3 C 0 km/h
3162 21-12-2005 23:14:48 2.4 C 4.34 g/m*3 2.4 C 0 km/h
3163 21-12-2005 23:24:48 2.3 C 4.31 g/m*3 2.3 C 0 km/h
3164 21-12-2005 23:34:48 2.4 C 4.34 g/m*3 2.4 C 0 km/h
3165 21-12-2005 23:44:48 2.4 C 4.34 g/m*3 2.4 C 0 km/h
3166 21-12-2005 23:54:48 2.4 C 4.34 g/m*3 2.4 C 0 km/h
3167 22-12-2005 00:04:48 2.3 C 4.31 g/m*3 2.3 C 0 km/h
3168 22-12-2005 00:14:48 2.2 C 4.34 g/m*3 2.2 C 0 km/h
3169 22-12-2005 00:24:48 2.2 C 4.34 g/m*3 2.2 C 0 km/h
3170 22-12-2005 00:34:49 2.2 C 4.34 g/m*3 2.2 C 0 km/h
3171 22-12-2005 00:44:49 2.3 C 4.37 g/m*3 2.3 C 0 km/h
3172 22-12-2005 00:54:48 2.3 C 4.31 g/m*3 2.3 C 0 km/h
3173 22-12-2005 01:04:48 2.3 C 4.31 g/m*3 2.3 C 0 km/h
3174 22-12-2005 01:14:48 2.3 C 4.31 g/m*3 2.3 C 0 km/h
3175 22-12-2005 01:24:48 2.3 C 4.31 g/m*3 2.3 C 0 km/h
Sensor: Nr:Datum:Temp:Abs-Feuchte:Windchill:Wind:
Aussen-T/F 3176 22-12-2005 01:34:48 2.2 C 4.28 g/m*3 2.2 C 0 km/h
3177 22-12-2005 01:44:48 2.3 C 4.31 g/m*3 2.3 C 0 km/h
3178 22-12-2005 01:54:48 2.3 C 4.31 g/m*3 2.3 C 0 km/h
3179 22-12-2005 02:04:48 2.3 C 4.31 g/m*3 2.3 C 0 km/h
3180 22-12-2005 02:14:48 2.4 C 4.34 g/m*3 2.4 C 0 km/h
3181 22-12-2005 02:24:48 2.4 C 4.34 g/m*3 2.4 C 0 km/h
3182 22-12-2005 02:34:48 2.4 C 4.34 g/m*3 2.4 C 0 km/h
3183 22-12-2005 02:44:48 2.5 C 4.43 g/m*3 2.5 C 0 km/h
3184 22-12-2005 02:55:50 2.5 C 4.37 g/m*3 2.5 C 0 km/h
3185 22-12-2005 03:05:50 2.6 C 4.4 g/m*3 2.6 C 0 km/h
3186 22-12-2005 03:15:50 2.7 C 4.43 g/m*3 2.7 C 0 km/h
3187 22-12-2005 03:25:50 2.7 C 4.37 g/m*3 2.7 C 0 km/h
3188 22-12-2005 03:35:50 2.7 C 4.37 g/m*3 2.7 C 0 km/h
3189 22-12-2005 03:45:50 2.7 C 4.43 g/m*3 2.7 C 0 km/h
3190 22-12-2005 03:55:50 2.8 C 4.46 g/m*3 2.8 C 0 km/h
3191 22-12-2005 04:05:50 2.9 C 4.49 g/m*3 2.9 C 0 km/h
3192 22-12-2005 04:15:50 3 C 4.46 g/m*3 3 C 0 km/h
3193 22-12-2005 04:25:50 3 C 4.46 g/m*3 3 C 0 km/h
3194 22-12-2005 04:35:50 3 C 4.52 g/m*3 3 C 0 km/h
3195 22-12-2005 04:45:50 3 C 4.52 g/m*3 3 C 0 km/h
3196 22-12-2005 04:55:50 3 C 4.52 g/m*3 3 C 0 km/h
3197 22-12-2005 05:05:50 3 C 4.58 g/m*3 3 C 0 km/h
3198 22-12-2005 05:15:51 3 C 4.64 g/m*3 3 C 0 km/h
3199 22-12-2005 05:25:51 2.9 C 4.67 g/m*3 2.9 C 0 km/h
3200 22-12-2005 05:35:51 2.7 C 4.66 g/m*3 2.7 C 0 km/h
Sensor: Nr:Datum:Temp:Abs-Feuchte:Windchill:Wind:
Aussen-T/F 3201 22-12-2005 05:45:50 2.6 C 4.75 g/m*3 2.6 C 0 km/h
3202 22-12-2005 05:55:50 2.3 C 4.76 g/m*3 2.3 C 0 km/h
3203 22-12-2005 06:05:51 2.3 C 4.88 g/m*3 2.3 C 0 km/h
3204 22-12-2005 06:15:51 2.3 C 4.88 g/m*3 2.3 C 0 km/h
3205 22-12-2005 06:25:51 2.3 C 4.88 g/m*3 2.3 C 0 km/h
3206 22-12-2005 06:35:50 2.3 C 4.88 g/m*3 2.3 C 0 km/h
3207 22-12-2005 06:45:51 2.2 C 4.9 g/m*3 2.2 C 0 km/h
3208 22-12-2005 06:55:51 2.3 C 4.93 g/m*3 2.3 C 0 km/h
3209 22-12-2005 07:05:50 2.3 C 4.93 g/m*3 2.3 C 0 km/h
3210 22-12-2005 07:15:50 2.3 C 4.93 g/m*3 2.3 C 0 km/h
3211 22-12-2005 07:25:50 2.3 C 4.99 g/m*3 2.3 C 0 km/h
3212 22-12-2005 07:35:50 2.3 C 4.99 g/m*3 2.3 C 0 km/h
3213 22-12-2005 07:45:51 2.3 C 4.99 g/m*3 2.3 C 0 km/h
3214 22-12-2005 07:55:51 2.3 C 4.99 g/m*3 2.3 C 0 km/h
3215 22-12-2005 08:05:50 2.4 C 5.02 g/m*3 2.4 C 0 km/h
3216 22-12-2005 08:15:50 2.4 C 5.02 g/m*3 2.4 C 0 km/h
3217 22-12-2005 08:25:50 2.4 C 5.02 g/m*3 2.4 C 0 km/h
3218 22-12-2005 08:35:51 2.4 C 5.02 g/m*3 2.4 C 0 km/h
3219 22-12-2005 08:45:50 2.4 C 5.08 g/m*3 2.4 C 0 km/h
3220 22-12-2005 08:55:50 2.4 C 5.02 g/m*3 2.4 C 0 km/h
3221 22-12-2005 09:05:51 2.4 C 5.02 g/m*3 2.4 C 0 km/h
3222 22-12-2005 09:15:51 2.5 C 5.06 g/m*3 2.5 C 0 km/h
3223 22-12-2005 09:25:52 2.5 C 5.06 g/m*3 2.5 C 0 km/h
3224 22-12-2005 09:35:51 2.5 C 5.06 g/m*3 2.5 C 0 km/h
3225 22-12-2005 09:45:51 2.5 C 5.06 g/m*3 2.5 C 0 km/h
Sensor: Nr:Datum:Temp:Abs-Feuchte:Windchill:Wind:
Aussen-T/F 3226 22-12-2005 09:55:51 2.5 C 5.06 g/m*3 2.5 C 0 km/h
3227 22-12-2005 10:05:51 2.4 C 5.08 g/m*3 2.4 C 0 km/h
3228 22-12-2005 10:15:51 2.5 C 5.12 g/m*3 2.5 C 0 km/h
3229 22-12-2005 10:25:51 2.6 C 5.15 g/m*3 2.6 C 0 km/h
3230 22-12-2005 10:35:51 2.7 C 5.19 g/m*3 2.7 C 0 km/h
3231 22-12-2005 10:45:51 2.7 C 5.19 g/m*3 2.7 C 0 km/h
3232 22-12-2005 10:55:51 2.7 C 5.19 g/m*3 2.7 C 0 km/h
3233 22-12-2005 11:05:51 2.7 C 5.19 g/m*3 2.7 C 0 km/h
3234 22-12-2005 11:15:51 2.8 C 5.22 g/m*3 2.8 C 0 km/h
3235 22-12-2005 11:25:51 2.8 C 5.22 g/m*3 2.8 C 0 km/h
3236 22-12-2005 11:35:51 2.9 C 5.26 g/m*3 2.9 C 0 km/h
3237 22-12-2005 11:45:51 2.9 C 5.32 g/m*3 2.9 C 0 km/h
3238 22-12-2005 11:55:51 2.9 C 5.32 g/m*3 2.9 C 0 km/h
3239 22-12-2005 12:05:51 3 C 5.29 g/m*3 3 C 0 km/h
3240 22-12-2005 12:15:51 3 C 5.29 g/m*3 3 C 0 km/h
3241 22-12-2005 12:25:51 3 C 5.29 g/m*3 3 C 0 km/h
3242 22-12-2005 12:35:51 3.1 C 5.33 g/m*3 3.1 C 0 km/h
3243 22-12-2005 12:45:51 3.2 C 5.36 g/m*3 3.2 C 0 km/h
3244 22-12-2005 12:55:51 3.2 C 5.36 g/m*3 3.2 C 0 km/h
3245 22-12-2005 13:05:52 3.3 C 5.4 g/m*3 3.3 C 0 km/h
3246 22-12-2005 13:15:51 3.3 C 5.4 g/m*3 3.3 C 0 km/h
3247 22-12-2005 13:25:51 3.3 C 5.4 g/m*3 3.3 C 0 km/h
3248 22-12-2005 13:35:51 3.2 C 5.36 g/m*3 3.2 C 0 km/h
3249 22-12-2005 13:45:51 3.3 C 5.46 g/m*3 3.3 C 0 km/h
3250 22-12-2005 13:55:51 3.3 C 5.46 g/m*3 3.3 C